<?xml version="1.0" encoding="UTF-8" standalone="no" ?>
<gpx xmlns="http://www.topografix.com/GPX/1/1" xmlns:xsi="http://www.w3.org/2001/XMLSchema-instance" xsi:schemaLocation="http://www.topografix.com/GPX/1/1 http://www.topografix.com/GPX/1/1/gpx.xsd" version="1.1" creator="VisuGPX - https://www.visugpx.com">
  <metadata>
    <name>VacancesDricouZoe</name>
  </metadata>
  <trk>
    <name><![CDATA[Journal actif: 2021-07-09 09:10]]></name>
    <trkseg>
      <trkpt lat="45.67449" lon="0.16046">
        <ele>39.07</ele>
        <time>2021-07-09T11:10:00Z</time>
      </trkpt>
      <trkpt lat="45.6745" lon="0.1605">
        <ele>38.59</ele>
        <time>2021-07-09T11:10:07Z</time>
      </trkpt>
      <trkpt lat="45.67452" lon="0.16048">
        <ele>38.11</ele>
        <time>2021-07-09T11:10:11Z</time>
      </trkpt>
      <trkpt lat="45.67454" lon="0.16047">
        <ele>37.63</ele>
        <time>2021-07-09T11:10:12Z</time>
      </trkpt>
      <trkpt lat="45.67458" lon="0.16046">
        <ele>37.63</ele>
        <time>2021-07-09T11:10:13Z</time>
      </trkpt>
      <trkpt lat="45.67462" lon="0.16046">
        <ele>37.63</ele>
        <time>2021-07-09T11:10:14Z</time>
      </trkpt>
      <trkpt lat="45.67527" lon="0.16041">
        <ele>40.03</ele>
        <time>2021-07-09T11:10:26Z</time>
      </trkpt>
      <trkpt lat="45.67608" lon="0.15992">
        <ele>40.03</ele>
        <time>2021-07-09T11:10:39Z</time>
      </trkpt>
      <trkpt lat="45.67617" lon="0.15983">
        <ele>40.03</ele>
        <time>2021-07-09T11:10:41Z</time>
      </trkpt>
      <trkpt lat="45.67622" lon="0.15981">
        <ele>40.03</ele>
        <time>2021-07-09T11:10:42Z</time>
      </trkpt>
      <trkpt lat="45.67627" lon="0.1598">
        <ele>39.55</ele>
        <time>2021-07-09T11:10:43Z</time>
      </trkpt>
      <trkpt lat="45.6763" lon="0.15982">
        <ele>39.07</ele>
        <time>2021-07-09T11:10:44Z</time>
      </trkpt>
      <trkpt lat="45.67636" lon="0.15992">
        <ele>38.59</ele>
        <time>2021-07-09T11:10:45Z</time>
      </trkpt>
      <trkpt lat="45.67636" lon="0.15992">
        <ele>38.11</ele>
        <time>2021-07-09T11:10:46Z</time>
      </trkpt>
      <trkpt lat="45.67662" lon="0.16049">
        <ele>39.07</ele>
        <time>2021-07-09T11:10:53Z</time>
      </trkpt>
      <trkpt lat="45.67662" lon="0.16049">
        <ele>39.07</ele>
        <time>2021-07-09T11:10:54Z</time>
      </trkpt>
      <trkpt lat="45.67665" lon="0.16054">
        <ele>39.07</ele>
        <time>2021-07-09T11:10:55Z</time>
      </trkpt>
      <trkpt lat="45.6767" lon="0.16058">
        <ele>39.07</ele>
        <time>2021-07-09T11:10:56Z</time>
      </trkpt>
      <trkpt lat="45.67674" lon="0.16056">
        <ele>38.59</ele>
        <time>2021-07-09T11:10:57Z</time>
      </trkpt>
      <trkpt lat="45.67679" lon="0.16053">
        <ele>39.07</ele>
        <time>2021-07-09T11:10:58Z</time>
      </trkpt>
      <trkpt lat="45.67761" lon="0.16021">
        <ele>40.03</ele>
        <time>2021-07-09T11:11:09Z</time>
      </trkpt>
      <trkpt lat="45.67787" lon="0.16011">
        <ele>40.51</ele>
        <time>2021-07-09T11:11:13Z</time>
      </trkpt>
      <trkpt lat="45.67791" lon="0.1601">
        <ele>40.51</ele>
        <time>2021-07-09T11:11:14Z</time>
      </trkpt>
      <trkpt lat="45.67795" lon="0.16006">
        <ele>40.51</ele>
        <time>2021-07-09T11:11:15Z</time>
      </trkpt>
      <trkpt lat="45.67798" lon="0.16003">
        <ele>40.51</ele>
        <time>2021-07-09T11:11:16Z</time>
      </trkpt>
      <trkpt lat="45.67799" lon="0.15997">
        <ele>40.03</ele>
        <time>2021-07-09T11:11:17Z</time>
      </trkpt>
      <trkpt lat="45.67801" lon="0.1599">
        <ele>40.03</ele>
        <time>2021-07-09T11:11:18Z</time>
      </trkpt>
      <trkpt lat="45.67805" lon="0.15974">
        <ele>39.07</ele>
        <time>2021-07-09T11:11:20Z</time>
      </trkpt>
      <trkpt lat="45.67806" lon="0.15966">
        <ele>39.07</ele>
        <time>2021-07-09T11:11:21Z</time>
      </trkpt>
      <trkpt lat="45.67806" lon="0.15957">
        <ele>39.07</ele>
        <time>2021-07-09T11:11:22Z</time>
      </trkpt>
      <trkpt lat="45.67806" lon="0.15941">
        <ele>38.59</ele>
        <time>2021-07-09T11:11:24Z</time>
      </trkpt>
      <trkpt lat="45.67806" lon="0.15937">
        <ele>38.59</ele>
        <time>2021-07-09T11:11:25Z</time>
      </trkpt>
      <trkpt lat="45.6781" lon="0.15928">
        <ele>38.59</ele>
        <time>2021-07-09T11:11:26Z</time>
      </trkpt>
      <trkpt lat="45.67811" lon="0.15926">
        <ele>38.59</ele>
        <time>2021-07-09T11:11:27Z</time>
      </trkpt>
      <trkpt lat="45.67813" lon="0.15926">
        <ele>38.59</ele>
        <time>2021-07-09T11:11:28Z</time>
      </trkpt>
      <trkpt lat="45.67813" lon="0.15926">
        <ele>39.07</ele>
        <time>2021-07-09T11:11:29Z</time>
      </trkpt>
      <trkpt lat="45.67817" lon="0.15926">
        <ele>39.07</ele>
        <time>2021-07-09T11:11:30Z</time>
      </trkpt>
      <trkpt lat="45.67874" lon="0.15924">
        <ele>41.95</ele>
        <time>2021-07-09T11:11:43Z</time>
      </trkpt>
      <trkpt lat="45.67874" lon="0.15924">
        <ele>41.95</ele>
        <time>2021-07-09T11:11:47Z</time>
      </trkpt>
      <trkpt lat="45.67877" lon="0.15924">
        <ele>41.95</ele>
        <time>2021-07-09T11:11:48Z</time>
      </trkpt>
      <trkpt lat="45.67877" lon="0.1592">
        <ele>41.95</ele>
        <time>2021-07-09T11:11:49Z</time>
      </trkpt>
      <trkpt lat="45.67877" lon="0.15917">
        <ele>41.95</ele>
        <time>2021-07-09T11:11:50Z</time>
      </trkpt>
      <trkpt lat="45.67877" lon="0.15914">
        <ele>41.95</ele>
        <time>2021-07-09T11:11:51Z</time>
      </trkpt>
      <trkpt lat="45.67875" lon="0.15839">
        <ele>40.03</ele>
        <time>2021-07-09T11:12:01Z</time>
      </trkpt>
      <trkpt lat="45.67869" lon="0.15716">
        <ele>37.63</ele>
        <time>2021-07-09T11:12:15Z</time>
      </trkpt>
      <trkpt lat="45.67876" lon="0.1571">
        <ele>37.63</ele>
        <time>2021-07-09T11:12:16Z</time>
      </trkpt>
      <trkpt lat="45.67876" lon="0.157">
        <ele>37.63</ele>
        <time>2021-07-09T11:12:17Z</time>
      </trkpt>
      <trkpt lat="45.67875" lon="0.15696">
        <ele>37.15</ele>
        <time>2021-07-09T11:12:18Z</time>
      </trkpt>
      <trkpt lat="45.67866" lon="0.15681">
        <ele>36.67</ele>
        <time>2021-07-09T11:12:20Z</time>
      </trkpt>
      <trkpt lat="45.67864" lon="0.15663">
        <ele>36.19</ele>
        <time>2021-07-09T11:12:21Z</time>
      </trkpt>
      <trkpt lat="45.67864" lon="0.15663">
        <ele>35.71</ele>
        <time>2021-07-09T11:12:22Z</time>
      </trkpt>
      <trkpt lat="45.67857" lon="0.15543">
        <ele>33.3</ele>
        <time>2021-07-09T11:12:32Z</time>
      </trkpt>
      <trkpt lat="45.67849" lon="0.15393">
        <ele>33.78</ele>
        <time>2021-07-09T11:12:45Z</time>
      </trkpt>
      <trkpt lat="45.67836" lon="0.15141">
        <ele>30.9</ele>
        <time>2021-07-09T11:13:00Z</time>
      </trkpt>
      <trkpt lat="45.67827" lon="0.14969">
        <ele>33.3</ele>
        <time>2021-07-09T11:13:11Z</time>
      </trkpt>
      <trkpt lat="45.67826" lon="0.14958">
        <ele>33.78</ele>
        <time>2021-07-09T11:13:12Z</time>
      </trkpt>
      <trkpt lat="45.67826" lon="0.14948">
        <ele>33.78</ele>
        <time>2021-07-09T11:13:13Z</time>
      </trkpt>
      <trkpt lat="45.67838" lon="0.14933">
        <ele>34.26</ele>
        <time>2021-07-09T11:13:15Z</time>
      </trkpt>
      <trkpt lat="45.67839" lon="0.14925">
        <ele>34.26</ele>
        <time>2021-07-09T11:13:16Z</time>
      </trkpt>
      <trkpt lat="45.67841" lon="0.14917">
        <ele>34.74</ele>
        <time>2021-07-09T11:13:17Z</time>
      </trkpt>
      <trkpt lat="45.67835" lon="0.14904">
        <ele>34.74</ele>
        <time>2021-07-09T11:13:18Z</time>
      </trkpt>
      <trkpt lat="45.67834" lon="0.14902">
        <ele>34.74</ele>
        <time>2021-07-09T11:13:19Z</time>
      </trkpt>
      <trkpt lat="45.67821" lon="0.14889">
        <ele>34.74</ele>
        <time>2021-07-09T11:13:20Z</time>
      </trkpt>
      <trkpt lat="45.67821" lon="0.1488">
        <ele>34.74</ele>
        <time>2021-07-09T11:13:21Z</time>
      </trkpt>
      <trkpt lat="45.6782" lon="0.14869">
        <ele>34.74</ele>
        <time>2021-07-09T11:13:22Z</time>
      </trkpt>
      <trkpt lat="45.67819" lon="0.14857">
        <ele>34.74</ele>
        <time>2021-07-09T11:13:23Z</time>
      </trkpt>
      <trkpt lat="45.67812" lon="0.14697">
        <ele>34.26</ele>
        <time>2021-07-09T11:13:33Z</time>
      </trkpt>
      <trkpt lat="45.67799" lon="0.14496">
        <ele>34.74</ele>
        <time>2021-07-09T11:13:45Z</time>
      </trkpt>
      <trkpt lat="45.67796" lon="0.14458">
        <ele>35.23</ele>
        <time>2021-07-09T11:13:48Z</time>
      </trkpt>
      <trkpt lat="45.67794" lon="0.14448">
        <ele>35.71</ele>
        <time>2021-07-09T11:13:49Z</time>
      </trkpt>
      <trkpt lat="45.67793" lon="0.14441">
        <ele>35.71</ele>
        <time>2021-07-09T11:13:50Z</time>
      </trkpt>
      <trkpt lat="45.67806" lon="0.14423">
        <ele>35.71</ele>
        <time>2021-07-09T11:13:52Z</time>
      </trkpt>
      <trkpt lat="45.67807" lon="0.14411">
        <ele>35.71</ele>
        <time>2021-07-09T11:13:53Z</time>
      </trkpt>
      <trkpt lat="45.67805" lon="0.14403">
        <ele>36.19</ele>
        <time>2021-07-09T11:13:54Z</time>
      </trkpt>
      <trkpt lat="45.67803" lon="0.14395">
        <ele>36.19</ele>
        <time>2021-07-09T11:13:55Z</time>
      </trkpt>
      <trkpt lat="45.67798" lon="0.1439">
        <ele>36.67</ele>
        <time>2021-07-09T11:13:56Z</time>
      </trkpt>
      <trkpt lat="45.67792" lon="0.14387">
        <ele>37.15</ele>
        <time>2021-07-09T11:13:57Z</time>
      </trkpt>
      <trkpt lat="45.67786" lon="0.14379">
        <ele>37.63</ele>
        <time>2021-07-09T11:13:58Z</time>
      </trkpt>
      <trkpt lat="45.67782" lon="0.14371">
        <ele>38.11</ele>
        <time>2021-07-09T11:13:59Z</time>
      </trkpt>
      <trkpt lat="45.67778" lon="0.14362">
        <ele>39.07</ele>
        <time>2021-07-09T11:14:00Z</time>
      </trkpt>
      <trkpt lat="45.6774" lon="0.14233">
        <ele>41.47</ele>
        <time>2021-07-09T11:14:09Z</time>
      </trkpt>
      <trkpt lat="45.67669" lon="0.1396">
        <ele>55.41</ele>
        <time>2021-07-09T11:14:25Z</time>
      </trkpt>
      <trkpt lat="45.67668" lon="0.13926">
        <ele>57.82</ele>
        <time>2021-07-09T11:14:27Z</time>
      </trkpt>
      <trkpt lat="45.67669" lon="0.13912">
        <ele>59.74</ele>
        <time>2021-07-09T11:14:28Z</time>
      </trkpt>
      <trkpt lat="45.6767" lon="0.13897">
        <ele>60.7</ele>
        <time>2021-07-09T11:14:29Z</time>
      </trkpt>
      <trkpt lat="45.67686" lon="0.13834">
        <ele>60.7</ele>
        <time>2021-07-09T11:14:35Z</time>
      </trkpt>
      <trkpt lat="45.67692" lon="0.13818">
        <ele>60.7</ele>
        <time>2021-07-09T11:14:36Z</time>
      </trkpt>
      <trkpt lat="45.67692" lon="0.13818">
        <ele>60.7</ele>
        <time>2021-07-09T11:14:37Z</time>
      </trkpt>
      <trkpt lat="45.67696" lon="0.13809">
        <ele>60.22</ele>
        <time>2021-07-09T11:14:38Z</time>
      </trkpt>
      <trkpt lat="45.677" lon="0.13801">
        <ele>60.22</ele>
        <time>2021-07-09T11:14:39Z</time>
      </trkpt>
      <trkpt lat="45.67701" lon="0.13788">
        <ele>60.22</ele>
        <time>2021-07-09T11:14:40Z</time>
      </trkpt>
      <trkpt lat="45.67699" lon="0.1378">
        <ele>60.22</ele>
        <time>2021-07-09T11:14:41Z</time>
      </trkpt>
      <trkpt lat="45.67697" lon="0.13771">
        <ele>59.74</ele>
        <time>2021-07-09T11:14:42Z</time>
      </trkpt>
      <trkpt lat="45.67695" lon="0.13762">
        <ele>59.74</ele>
        <time>2021-07-09T11:14:43Z</time>
      </trkpt>
      <trkpt lat="45.67696" lon="0.13751">
        <ele>59.74</ele>
        <time>2021-07-09T11:14:44Z</time>
      </trkpt>
      <trkpt lat="45.67697" lon="0.1374">
        <ele>60.22</ele>
        <time>2021-07-09T11:14:45Z</time>
      </trkpt>
      <trkpt lat="45.67698" lon="0.13727">
        <ele>60.7</ele>
        <time>2021-07-09T11:14:46Z</time>
      </trkpt>
      <trkpt lat="45.67699" lon="0.13713">
        <ele>60.22</ele>
        <time>2021-07-09T11:14:47Z</time>
      </trkpt>
      <trkpt lat="45.67703" lon="0.13699">
        <ele>60.22</ele>
        <time>2021-07-09T11:14:48Z</time>
      </trkpt>
      <trkpt lat="45.67714" lon="0.13669">
        <ele>60.22</ele>
        <time>2021-07-09T11:14:49Z</time>
      </trkpt>
      <trkpt lat="45.67714" lon="0.13669">
        <ele>60.22</ele>
        <time>2021-07-09T11:14:50Z</time>
      </trkpt>
      <trkpt lat="45.6772" lon="0.13654">
        <ele>60.22</ele>
        <time>2021-07-09T11:14:51Z</time>
      </trkpt>
      <trkpt lat="45.67728" lon="0.13641">
        <ele>60.22</ele>
        <time>2021-07-09T11:14:52Z</time>
      </trkpt>
      <trkpt lat="45.67746" lon="0.13616">
        <ele>60.7</ele>
        <time>2021-07-09T11:14:53Z</time>
      </trkpt>
      <trkpt lat="45.67877" lon="0.13468">
        <ele>63.1</ele>
        <time>2021-07-09T11:15:05Z</time>
      </trkpt>
      <trkpt lat="45.67963" lon="0.13434">
        <ele>63.1</ele>
        <time>2021-07-09T11:15:13Z</time>
      </trkpt>
      <trkpt lat="45.67973" lon="0.13427">
        <ele>63.1</ele>
        <time>2021-07-09T11:15:14Z</time>
      </trkpt>
      <trkpt lat="45.67982" lon="0.13419">
        <ele>64.07</ele>
        <time>2021-07-09T11:15:15Z</time>
      </trkpt>
      <trkpt lat="45.67991" lon="0.13412">
        <ele>65.03</ele>
        <time>2021-07-09T11:15:16Z</time>
      </trkpt>
      <trkpt lat="45.67996" lon="0.13406">
        <ele>65.03</ele>
        <time>2021-07-09T11:15:17Z</time>
      </trkpt>
      <trkpt lat="45.68003" lon="0.13377">
        <ele>65.03</ele>
        <time>2021-07-09T11:15:18Z</time>
      </trkpt>
      <trkpt lat="45.68006" lon="0.13362">
        <ele>65.51</ele>
        <time>2021-07-09T11:15:19Z</time>
      </trkpt>
      <trkpt lat="45.68004" lon="0.13349">
        <ele>65.51</ele>
        <time>2021-07-09T11:15:20Z</time>
      </trkpt>
      <trkpt lat="45.68004" lon="0.13349">
        <ele>64.55</ele>
        <time>2021-07-09T11:15:21Z</time>
      </trkpt>
      <trkpt lat="45.68001" lon="0.13322">
        <ele>64.55</ele>
        <time>2021-07-09T11:15:22Z</time>
      </trkpt>
      <trkpt lat="45.67999" lon="0.13306">
        <ele>65.99</ele>
        <time>2021-07-09T11:15:24Z</time>
      </trkpt>
      <trkpt lat="45.67999" lon="0.13306">
        <ele>66.95</ele>
        <time>2021-07-09T11:15:25Z</time>
      </trkpt>
      <trkpt lat="45.68009" lon="0.13278">
        <ele>67.43</ele>
        <time>2021-07-09T11:15:26Z</time>
      </trkpt>
      <trkpt lat="45.68009" lon="0.13278">
        <ele>66.95</ele>
        <time>2021-07-09T11:15:27Z</time>
      </trkpt>
      <trkpt lat="45.68007" lon="0.1327">
        <ele>66.95</ele>
        <time>2021-07-09T11:15:28Z</time>
      </trkpt>
      <trkpt lat="45.68" lon="0.13264">
        <ele>66.95</ele>
        <time>2021-07-09T11:15:29Z</time>
      </trkpt>
      <trkpt lat="45.67995" lon="0.13261">
        <ele>66.95</ele>
        <time>2021-07-09T11:15:30Z</time>
      </trkpt>
      <trkpt lat="45.67989" lon="0.13261">
        <ele>66.95</ele>
        <time>2021-07-09T11:15:31Z</time>
      </trkpt>
      <trkpt lat="45.67987" lon="0.13261">
        <ele>66.47</ele>
        <time>2021-07-09T11:15:32Z</time>
      </trkpt>
      <trkpt lat="45.6797" lon="0.13265">
        <ele>66.47</ele>
        <time>2021-07-09T11:15:33Z</time>
      </trkpt>
      <trkpt lat="45.67964" lon="0.1326">
        <ele>66.47</ele>
        <time>2021-07-09T11:15:34Z</time>
      </trkpt>
      <trkpt lat="45.67957" lon="0.13254">
        <ele>66.47</ele>
        <time>2021-07-09T11:15:35Z</time>
      </trkpt>
      <trkpt lat="45.67885" lon="0.13194">
        <ele>67.43</ele>
        <time>2021-07-09T11:15:44Z</time>
      </trkpt>
      <trkpt lat="45.67879" lon="0.13188">
        <ele>66.95</ele>
        <time>2021-07-09T11:15:45Z</time>
      </trkpt>
      <trkpt lat="45.67875" lon="0.13184">
        <ele>66.95</ele>
        <time>2021-07-09T11:15:46Z</time>
      </trkpt>
      <trkpt lat="45.67876" lon="0.13168">
        <ele>66.95</ele>
        <time>2021-07-09T11:15:47Z</time>
      </trkpt>
      <trkpt lat="45.67875" lon="0.13153">
        <ele>66.95</ele>
        <time>2021-07-09T11:15:48Z</time>
      </trkpt>
      <trkpt lat="45.67871" lon="0.13144">
        <ele>66.47</ele>
        <time>2021-07-09T11:15:49Z</time>
      </trkpt>
      <trkpt lat="45.67863" lon="0.13138">
        <ele>66.47</ele>
        <time>2021-07-09T11:15:50Z</time>
      </trkpt>
      <trkpt lat="45.67858" lon="0.13134">
        <ele>66.47</ele>
        <time>2021-07-09T11:15:51Z</time>
      </trkpt>
      <trkpt lat="45.67852" lon="0.13133">
        <ele>66.47</ele>
        <time>2021-07-09T11:15:52Z</time>
      </trkpt>
      <trkpt lat="45.67847" lon="0.13135">
        <ele>66.47</ele>
        <time>2021-07-09T11:15:53Z</time>
      </trkpt>
      <trkpt lat="45.67841" lon="0.13136">
        <ele>66.95</ele>
        <time>2021-07-09T11:15:54Z</time>
      </trkpt>
      <trkpt lat="45.67836" lon="0.13138">
        <ele>66.95</ele>
        <time>2021-07-09T11:15:55Z</time>
      </trkpt>
      <trkpt lat="45.67832" lon="0.13145">
        <ele>66.95</ele>
        <time>2021-07-09T11:15:56Z</time>
      </trkpt>
      <trkpt lat="45.67829" lon="0.13153">
        <ele>66.47</ele>
        <time>2021-07-09T11:15:57Z</time>
      </trkpt>
      <trkpt lat="45.67828" lon="0.13161">
        <ele>65.99</ele>
        <time>2021-07-09T11:15:58Z</time>
      </trkpt>
      <trkpt lat="45.67829" lon="0.1317">
        <ele>65.99</ele>
        <time>2021-07-09T11:15:59Z</time>
      </trkpt>
      <trkpt lat="45.67831" lon="0.13179">
        <ele>65.99</ele>
        <time>2021-07-09T11:16:00Z</time>
      </trkpt>
      <trkpt lat="45.67834" lon="0.13187">
        <ele>65.99</ele>
        <time>2021-07-09T11:16:01Z</time>
      </trkpt>
      <trkpt lat="45.67839" lon="0.13196">
        <ele>65.99</ele>
        <time>2021-07-09T11:16:02Z</time>
      </trkpt>
      <trkpt lat="45.6784" lon="0.13209">
        <ele>65.51</ele>
        <time>2021-07-09T11:16:03Z</time>
      </trkpt>
      <trkpt lat="45.67842" lon="0.13233">
        <ele>65.51</ele>
        <time>2021-07-09T11:16:04Z</time>
      </trkpt>
      <trkpt lat="45.67841" lon="0.1325">
        <ele>64.07</ele>
        <time>2021-07-09T11:16:05Z</time>
      </trkpt>
      <trkpt lat="45.67841" lon="0.1325">
        <ele>62.62</ele>
        <time>2021-07-09T11:16:06Z</time>
      </trkpt>
      <trkpt lat="45.67807" lon="0.13407">
        <ele>55.41</ele>
        <time>2021-07-09T11:16:15Z</time>
      </trkpt>
      <trkpt lat="45.67726" lon="0.13552">
        <ele>50.13</ele>
        <time>2021-07-09T11:16:23Z</time>
      </trkpt>
      <trkpt lat="45.67542" lon="0.13831">
        <ele>49.65</ele>
        <time>2021-07-09T11:16:38Z</time>
      </trkpt>
      <trkpt lat="45.67444" lon="0.1405">
        <ele>49.65</ele>
        <time>2021-07-09T11:16:48Z</time>
      </trkpt>
      <trkpt lat="45.67347" lon="0.14306">
        <ele>48.2</ele>
        <time>2021-07-09T11:17:01Z</time>
      </trkpt>
      <trkpt lat="45.67341" lon="0.14341">
        <ele>48.2</ele>
        <time>2021-07-09T11:17:02Z</time>
      </trkpt>
      <trkpt lat="45.67341" lon="0.14341">
        <ele>49.16</ele>
        <time>2021-07-09T11:17:03Z</time>
      </trkpt>
      <trkpt lat="45.67339" lon="0.1436">
        <ele>49.16</ele>
        <time>2021-07-09T11:17:04Z</time>
      </trkpt>
      <trkpt lat="45.67342" lon="0.14374">
        <ele>48.68</ele>
        <time>2021-07-09T11:17:05Z</time>
      </trkpt>
      <trkpt lat="45.67347" lon="0.1439">
        <ele>48.68</ele>
        <time>2021-07-09T11:17:06Z</time>
      </trkpt>
      <trkpt lat="45.67352" lon="0.14407">
        <ele>48.68</ele>
        <time>2021-07-09T11:17:07Z</time>
      </trkpt>
      <trkpt lat="45.67359" lon="0.14416">
        <ele>48.68</ele>
        <time>2021-07-09T11:17:08Z</time>
      </trkpt>
      <trkpt lat="45.67378" lon="0.1443">
        <ele>49.65</ele>
        <time>2021-07-09T11:17:09Z</time>
      </trkpt>
      <trkpt lat="45.6739" lon="0.14437">
        <ele>49.65</ele>
        <time>2021-07-09T11:17:10Z</time>
      </trkpt>
      <trkpt lat="45.6739" lon="0.14437">
        <ele>48.68</ele>
        <time>2021-07-09T11:17:11Z</time>
      </trkpt>
      <trkpt lat="45.67402" lon="0.1444">
        <ele>48.2</ele>
        <time>2021-07-09T11:17:12Z</time>
      </trkpt>
      <trkpt lat="45.67415" lon="0.1444">
        <ele>46.76</ele>
        <time>2021-07-09T11:17:13Z</time>
      </trkpt>
      <trkpt lat="45.67499" lon="0.14429">
        <ele>44.84</ele>
        <time>2021-07-09T11:17:19Z</time>
      </trkpt>
      <trkpt lat="45.67512" lon="0.14433">
        <ele>45.32</ele>
        <time>2021-07-09T11:17:20Z</time>
      </trkpt>
      <trkpt lat="45.67523" lon="0.14436">
        <ele>44.84</ele>
        <time>2021-07-09T11:17:21Z</time>
      </trkpt>
      <trkpt lat="45.67535" lon="0.14444">
        <ele>44.36</ele>
        <time>2021-07-09T11:17:22Z</time>
      </trkpt>
      <trkpt lat="45.67548" lon="0.14453">
        <ele>42.92</ele>
        <time>2021-07-09T11:17:23Z</time>
      </trkpt>
      <trkpt lat="45.67559" lon="0.14464">
        <ele>41.95</ele>
        <time>2021-07-09T11:17:24Z</time>
      </trkpt>
      <trkpt lat="45.6757" lon="0.14477">
        <ele>41.47</ele>
        <time>2021-07-09T11:17:25Z</time>
      </trkpt>
      <trkpt lat="45.67581" lon="0.14489">
        <ele>41.47</ele>
        <time>2021-07-09T11:17:26Z</time>
      </trkpt>
      <trkpt lat="45.67729" lon="0.14687">
        <ele>39.55</ele>
        <time>2021-07-09T11:17:38Z</time>
      </trkpt>
      <trkpt lat="45.67973" lon="0.15005">
        <ele>36.67</ele>
        <time>2021-07-09T11:17:55Z</time>
      </trkpt>
      <trkpt lat="45.68258" lon="0.15328">
        <ele>38.11</ele>
        <time>2021-07-09T11:18:13Z</time>
      </trkpt>
      <trkpt lat="45.68547" lon="0.15609">
        <ele>50.13</ele>
        <time>2021-07-09T11:18:30Z</time>
      </trkpt>
      <trkpt lat="45.68879" lon="0.15882">
        <ele>64.55</ele>
        <time>2021-07-09T11:18:49Z</time>
      </trkpt>
      <trkpt lat="45.69089" lon="0.1607">
        <ele>63.1</ele>
        <time>2021-07-09T11:19:01Z</time>
      </trkpt>
      <trkpt lat="45.692" lon="0.16237">
        <ele>57.34</ele>
        <time>2021-07-09T11:19:10Z</time>
      </trkpt>
      <trkpt lat="45.6928" lon="0.16458">
        <ele>54.93</ele>
        <time>2021-07-09T11:19:18Z</time>
      </trkpt>
      <trkpt lat="45.69354" lon="0.16851">
        <ele>56.37</ele>
        <time>2021-07-09T11:19:30Z</time>
      </trkpt>
      <trkpt lat="45.69372" lon="0.17133">
        <ele>53.97</ele>
        <time>2021-07-09T11:19:40Z</time>
      </trkpt>
      <trkpt lat="45.69395" lon="0.17461">
        <ele>61.18</ele>
        <time>2021-07-09T11:19:52Z</time>
      </trkpt>
      <trkpt lat="45.6946" lon="0.17769">
        <ele>66.95</ele>
        <time>2021-07-09T11:20:03Z</time>
      </trkpt>
      <trkpt lat="45.69596" lon="0.18164">
        <ele>70.79</ele>
        <time>2021-07-09T11:20:20Z</time>
      </trkpt>
      <trkpt lat="45.69641" lon="0.18381">
        <ele>78.48</ele>
        <time>2021-07-09T11:20:28Z</time>
      </trkpt>
      <trkpt lat="45.69628" lon="0.18585">
        <ele>78.97</ele>
        <time>2021-07-09T11:20:35Z</time>
      </trkpt>
      <trkpt lat="45.69561" lon="0.18766">
        <ele>75.12</ele>
        <time>2021-07-09T11:20:42Z</time>
      </trkpt>
      <trkpt lat="45.69447" lon="0.18899">
        <ele>81.85</ele>
        <time>2021-07-09T11:20:49Z</time>
      </trkpt>
      <trkpt lat="45.69164" lon="0.19116">
        <ele>76.56</ele>
        <time>2021-07-09T11:21:04Z</time>
      </trkpt>
      <trkpt lat="45.6893" lon="0.19324">
        <ele>58.78</ele>
        <time>2021-07-09T11:21:17Z</time>
      </trkpt>
      <trkpt lat="45.68803" lon="0.19515">
        <ele>60.22</ele>
        <time>2021-07-09T11:21:26Z</time>
      </trkpt>
      <trkpt lat="45.68707" lon="0.19754">
        <ele>70.79</ele>
        <time>2021-07-09T11:21:36Z</time>
      </trkpt>
      <trkpt lat="45.68654" lon="0.20037">
        <ele>81.37</ele>
        <time>2021-07-09T11:21:47Z</time>
      </trkpt>
      <trkpt lat="45.68609" lon="0.20528">
        <ele>83.29</ele>
        <time>2021-07-09T11:22:04Z</time>
      </trkpt>
      <trkpt lat="45.68611" lon="0.20812">
        <ele>86.18</ele>
        <time>2021-07-09T11:22:14Z</time>
      </trkpt>
      <trkpt lat="45.68618" lon="0.2088">
        <ele>86.66</ele>
        <time>2021-07-09T11:22:19Z</time>
      </trkpt>
      <trkpt lat="45.68619" lon="0.2089">
        <ele>87.62</ele>
        <time>2021-07-09T11:22:26Z</time>
      </trkpt>
      <trkpt lat="45.68619" lon="0.2089">
        <ele>87.14</ele>
        <time>2021-07-09T11:31:25Z</time>
      </trkpt>
      <trkpt lat="45.68619" lon="0.2089">
        <ele>87.14</ele>
        <time>2021-07-09T11:35:45Z</time>
      </trkpt>
      <trkpt lat="45.68619" lon="0.2089">
        <ele>86.66</ele>
        <time>2021-07-09T11:41:28Z</time>
      </trkpt>
      <trkpt lat="45.68619" lon="0.2089">
        <ele>86.18</ele>
        <time>2021-07-09T11:48:10Z</time>
      </trkpt>
      <trkpt lat="45.68619" lon="0.2089">
        <ele>85.69</ele>
        <time>2021-07-09T11:51:17Z</time>
      </trkpt>
      <trkpt lat="45.68619" lon="0.2089">
        <ele>85.69</ele>
        <time>2021-07-09T11:52:50Z</time>
      </trkpt>
      <trkpt lat="45.68622" lon="0.20923">
        <ele>86.18</ele>
        <time>2021-07-09T11:53:34Z</time>
      </trkpt>
      <trkpt lat="45.68631" lon="0.2102">
        <ele>86.66</ele>
        <time>2021-07-09T11:53:43Z</time>
      </trkpt>
      <trkpt lat="45.68671" lon="0.21247">
        <ele>89.06</ele>
        <time>2021-07-09T11:53:57Z</time>
      </trkpt>
      <trkpt lat="45.68733" lon="0.21552">
        <ele>90.5</ele>
        <time>2021-07-09T11:54:13Z</time>
      </trkpt>
      <trkpt lat="45.68806" lon="0.21913">
        <ele>83.77</ele>
        <time>2021-07-09T11:54:29Z</time>
      </trkpt>
      <trkpt lat="45.68901" lon="0.22378">
        <ele>76.56</ele>
        <time>2021-07-09T11:54:48Z</time>
      </trkpt>
      <trkpt lat="45.68993" lon="0.22765">
        <ele>80.89</ele>
        <time>2021-07-09T11:55:04Z</time>
      </trkpt>
      <trkpt lat="45.69126" lon="0.23217">
        <ele>93.87</ele>
        <time>2021-07-09T11:55:23Z</time>
      </trkpt>
      <trkpt lat="45.69295" lon="0.23685">
        <ele>109.25</ele>
        <time>2021-07-09T11:55:42Z</time>
      </trkpt>
      <trkpt lat="45.69499" lon="0.24241">
        <ele>130.88</ele>
        <time>2021-07-09T11:56:05Z</time>
      </trkpt>
      <trkpt lat="45.69735" lon="0.24878">
        <ele>143.85</ele>
        <time>2021-07-09T11:56:29Z</time>
      </trkpt>
      <trkpt lat="45.69914" lon="0.25409">
        <ele>152.99</ele>
        <time>2021-07-09T11:56:48Z</time>
      </trkpt>
      <trkpt lat="45.70103" lon="0.26039">
        <ele>153.95</ele>
        <time>2021-07-09T11:57:09Z</time>
      </trkpt>
      <trkpt lat="45.70216" lon="0.26288">
        <ele>147.7</ele>
        <time>2021-07-09T11:57:21Z</time>
      </trkpt>
      <trkpt lat="45.70471" lon="0.26716">
        <ele>143.85</ele>
        <time>2021-07-09T11:57:39Z</time>
      </trkpt>
      <trkpt lat="45.70622" lon="0.27041">
        <ele>142.89</ele>
        <time>2021-07-09T11:57:52Z</time>
      </trkpt>
      <trkpt lat="45.70812" lon="0.27563">
        <ele>142.89</ele>
        <time>2021-07-09T11:58:11Z</time>
      </trkpt>
      <trkpt lat="45.70876" lon="0.27878">
        <ele>145.78</ele>
        <time>2021-07-09T11:58:22Z</time>
      </trkpt>
      <trkpt lat="45.70917" lon="0.28303">
        <ele>150.58</ele>
        <time>2021-07-09T11:58:36Z</time>
      </trkpt>
      <trkpt lat="45.70988" lon="0.28708">
        <ele>147.7</ele>
        <time>2021-07-09T11:58:49Z</time>
      </trkpt>
      <trkpt lat="45.71114" lon="0.29126">
        <ele>139.53</ele>
        <time>2021-07-09T11:59:02Z</time>
      </trkpt>
      <trkpt lat="45.71306" lon="0.29595">
        <ele>134.24</ele>
        <time>2021-07-09T11:59:19Z</time>
      </trkpt>
      <trkpt lat="45.71576" lon="0.30247">
        <ele>132.8</ele>
        <time>2021-07-09T11:59:42Z</time>
      </trkpt>
      <trkpt lat="45.71859" lon="0.30916">
        <ele>124.15</ele>
        <time>2021-07-09T12:00:05Z</time>
      </trkpt>
      <trkpt lat="45.72082" lon="0.3145">
        <ele>132.32</ele>
        <time>2021-07-09T12:00:23Z</time>
      </trkpt>
      <trkpt lat="45.72316" lon="0.32008">
        <ele>132.32</ele>
        <time>2021-07-09T12:00:44Z</time>
      </trkpt>
      <trkpt lat="45.72555" lon="0.3255">
        <ele>122.22</ele>
        <time>2021-07-09T12:01:05Z</time>
      </trkpt>
      <trkpt lat="45.72714" lon="0.3282">
        <ele>118.86</ele>
        <time>2021-07-09T12:01:17Z</time>
      </trkpt>
      <trkpt lat="45.73026" lon="0.33329">
        <ele>104.44</ele>
        <time>2021-07-09T12:01:40Z</time>
      </trkpt>
      <trkpt lat="45.73289" lon="0.33716">
        <ele>91.94</ele>
        <time>2021-07-09T12:01:58Z</time>
      </trkpt>
      <trkpt lat="45.73504" lon="0.33996">
        <ele>90.02</ele>
        <time>2021-07-09T12:02:12Z</time>
      </trkpt>
      <trkpt lat="45.73642" lon="0.3423">
        <ele>91.94</ele>
        <time>2021-07-09T12:02:23Z</time>
      </trkpt>
      <trkpt lat="45.73657" lon="0.34261">
        <ele>93.87</ele>
        <time>2021-07-09T12:02:25Z</time>
      </trkpt>
      <trkpt lat="45.7366" lon="0.34278">
        <ele>95.31</ele>
        <time>2021-07-09T12:02:26Z</time>
      </trkpt>
      <trkpt lat="45.7366" lon="0.34278">
        <ele>95.31</ele>
        <time>2021-07-09T12:02:27Z</time>
      </trkpt>
      <trkpt lat="45.73664" lon="0.34294">
        <ele>95.79</ele>
        <time>2021-07-09T12:02:28Z</time>
      </trkpt>
      <trkpt lat="45.73667" lon="0.34312">
        <ele>96.75</ele>
        <time>2021-07-09T12:02:29Z</time>
      </trkpt>
      <trkpt lat="45.73669" lon="0.34328">
        <ele>96.75</ele>
        <time>2021-07-09T12:02:30Z</time>
      </trkpt>
      <trkpt lat="45.73669" lon="0.3442">
        <ele>97.71</ele>
        <time>2021-07-09T12:02:36Z</time>
      </trkpt>
      <trkpt lat="45.73667" lon="0.34431">
        <ele>97.71</ele>
        <time>2021-07-09T12:02:37Z</time>
      </trkpt>
      <trkpt lat="45.73664" lon="0.3444">
        <ele>97.71</ele>
        <time>2021-07-09T12:02:38Z</time>
      </trkpt>
      <trkpt lat="45.73658" lon="0.34458">
        <ele>96.75</ele>
        <time>2021-07-09T12:02:40Z</time>
      </trkpt>
      <trkpt lat="45.73657" lon="0.34479">
        <ele>96.75</ele>
        <time>2021-07-09T12:02:41Z</time>
      </trkpt>
      <trkpt lat="45.73654" lon="0.34495">
        <ele>96.27</ele>
        <time>2021-07-09T12:02:43Z</time>
      </trkpt>
      <trkpt lat="45.73649" lon="0.34502">
        <ele>96.27</ele>
        <time>2021-07-09T12:02:44Z</time>
      </trkpt>
      <trkpt lat="45.73644" lon="0.34509">
        <ele>95.79</ele>
        <time>2021-07-09T12:02:45Z</time>
      </trkpt>
      <trkpt lat="45.73627" lon="0.34536">
        <ele>95.31</ele>
        <time>2021-07-09T12:02:47Z</time>
      </trkpt>
      <trkpt lat="45.73627" lon="0.34536">
        <ele>95.31</ele>
        <time>2021-07-09T12:02:48Z</time>
      </trkpt>
      <trkpt lat="45.73623" lon="0.34546">
        <ele>94.83</ele>
        <time>2021-07-09T12:02:49Z</time>
      </trkpt>
      <trkpt lat="45.73619" lon="0.34556">
        <ele>94.83</ele>
        <time>2021-07-09T12:02:50Z</time>
      </trkpt>
      <trkpt lat="45.73617" lon="0.34566">
        <ele>94.83</ele>
        <time>2021-07-09T12:02:51Z</time>
      </trkpt>
      <trkpt lat="45.73616" lon="0.34579">
        <ele>94.83</ele>
        <time>2021-07-09T12:02:52Z</time>
      </trkpt>
      <trkpt lat="45.73615" lon="0.34592">
        <ele>95.79</ele>
        <time>2021-07-09T12:02:53Z</time>
      </trkpt>
      <trkpt lat="45.73614" lon="0.34606">
        <ele>96.75</ele>
        <time>2021-07-09T12:02:54Z</time>
      </trkpt>
      <trkpt lat="45.73613" lon="0.34797">
        <ele>100.6</ele>
        <time>2021-07-09T12:03:05Z</time>
      </trkpt>
      <trkpt lat="45.73613" lon="0.35262">
        <ele>113.57</ele>
        <time>2021-07-09T12:03:28Z</time>
      </trkpt>
      <trkpt lat="45.73606" lon="0.35596">
        <ele>104.92</ele>
        <time>2021-07-09T12:03:44Z</time>
      </trkpt>
      <trkpt lat="45.73608" lon="0.35909">
        <ele>108.29</ele>
        <time>2021-07-09T12:03:58Z</time>
      </trkpt>
      <trkpt lat="45.73606" lon="0.36055">
        <ele>112.13</ele>
        <time>2021-07-09T12:04:07Z</time>
      </trkpt>
      <trkpt lat="45.73604" lon="0.36258">
        <ele>111.17</ele>
        <time>2021-07-09T12:04:18Z</time>
      </trkpt>
      <trkpt lat="45.73603" lon="0.36596">
        <ele>113.09</ele>
        <time>2021-07-09T12:04:32Z</time>
      </trkpt>
      <trkpt lat="45.73601" lon="0.36893">
        <ele>113.09</ele>
        <time>2021-07-09T12:04:45Z</time>
      </trkpt>
      <trkpt lat="45.73597" lon="0.37346">
        <ele>97.71</ele>
        <time>2021-07-09T12:05:05Z</time>
      </trkpt>
      <trkpt lat="45.73593" lon="0.37748">
        <ele>93.87</ele>
        <time>2021-07-09T12:05:25Z</time>
      </trkpt>
      <trkpt lat="45.73591" lon="0.38041">
        <ele>90.98</ele>
        <time>2021-07-09T12:05:41Z</time>
      </trkpt>
      <trkpt lat="45.73589" lon="0.38394">
        <ele>85.21</ele>
        <time>2021-07-09T12:06:03Z</time>
      </trkpt>
      <trkpt lat="45.73589" lon="0.38502">
        <ele>84.25</ele>
        <time>2021-07-09T12:06:10Z</time>
      </trkpt>
      <trkpt lat="45.7359" lon="0.38513">
        <ele>84.25</ele>
        <time>2021-07-09T12:06:11Z</time>
      </trkpt>
      <trkpt lat="45.73594" lon="0.38526">
        <ele>84.25</ele>
        <time>2021-07-09T12:06:12Z</time>
      </trkpt>
      <trkpt lat="45.73597" lon="0.38538">
        <ele>84.25</ele>
        <time>2021-07-09T12:06:13Z</time>
      </trkpt>
      <trkpt lat="45.736" lon="0.38551">
        <ele>84.73</ele>
        <time>2021-07-09T12:06:14Z</time>
      </trkpt>
      <trkpt lat="45.73627" lon="0.38628">
        <ele>84.73</ele>
        <time>2021-07-09T12:06:23Z</time>
      </trkpt>
      <trkpt lat="45.73635" lon="0.38651">
        <ele>83.77</ele>
        <time>2021-07-09T12:06:33Z</time>
      </trkpt>
      <trkpt lat="45.73644" lon="0.3867">
        <ele>82.81</ele>
        <time>2021-07-09T12:06:58Z</time>
      </trkpt>
      <trkpt lat="45.73647" lon="0.38663">
        <ele>82.81</ele>
        <time>2021-07-09T12:06:59Z</time>
      </trkpt>
      <trkpt lat="45.73651" lon="0.38661">
        <ele>82.81</ele>
        <time>2021-07-09T12:07:00Z</time>
      </trkpt>
      <trkpt lat="45.73683" lon="0.38643">
        <ele>82.33</ele>
        <time>2021-07-09T12:07:07Z</time>
      </trkpt>
      <trkpt lat="45.73676" lon="0.3864">
        <ele>82.33</ele>
        <time>2021-07-09T12:07:08Z</time>
      </trkpt>
      <trkpt lat="45.73676" lon="0.38636">
        <ele>82.33</ele>
        <time>2021-07-09T12:07:09Z</time>
      </trkpt>
      <trkpt lat="45.73676" lon="0.38631">
        <ele>82.33</ele>
        <time>2021-07-09T12:07:10Z</time>
      </trkpt>
      <trkpt lat="45.73677" lon="0.3862">
        <ele>81.85</ele>
        <time>2021-07-09T12:07:11Z</time>
      </trkpt>
      <trkpt lat="45.73677" lon="0.3862">
        <ele>81.85</ele>
        <time>2021-07-09T12:07:12Z</time>
      </trkpt>
      <trkpt lat="45.73675" lon="0.38618">
        <ele>81.85</ele>
        <time>2021-07-09T12:07:13Z</time>
      </trkpt>
      <trkpt lat="45.73652" lon="0.38602">
        <ele>79.93</ele>
        <time>2021-07-09T12:07:23Z</time>
      </trkpt>
      <trkpt lat="45.73652" lon="0.38602">
        <ele>80.41</ele>
        <time>2021-07-09T12:12:07Z</time>
      </trkpt>
      <trkpt lat="45.73652" lon="0.38602">
        <ele>80.89</ele>
        <time>2021-07-09T12:13:29Z</time>
      </trkpt>
      <trkpt lat="45.73652" lon="0.38602">
        <ele>80.89</ele>
        <time>2021-07-09T12:15:09Z</time>
      </trkpt>
      <trkpt lat="45.73652" lon="0.38602">
        <ele>80.89</ele>
        <time>2021-07-09T12:16:54Z</time>
      </trkpt>
      <trkpt lat="45.73652" lon="0.38602">
        <ele>80.89</ele>
        <time>2021-07-09T12:19:01Z</time>
      </trkpt>
      <trkpt lat="45.73652" lon="0.38602">
        <ele>80.89</ele>
        <time>2021-07-09T12:20:32Z</time>
      </trkpt>
      <trkpt lat="45.73652" lon="0.38602">
        <ele>81.85</ele>
        <time>2021-07-09T12:20:56Z</time>
      </trkpt>
      <trkpt lat="45.73652" lon="0.38602">
        <ele>81.85</ele>
        <time>2021-07-09T12:20:59Z</time>
      </trkpt>
      <trkpt lat="45.73639" lon="0.38589">
        <ele>80.89</ele>
        <time>2021-07-09T12:21:06Z</time>
      </trkpt>
      <trkpt lat="45.73637" lon="0.38586">
        <ele>80.89</ele>
        <time>2021-07-09T12:21:07Z</time>
      </trkpt>
      <trkpt lat="45.73635" lon="0.38584">
        <ele>80.89</ele>
        <time>2021-07-09T12:21:08Z</time>
      </trkpt>
      <trkpt lat="45.73622" lon="0.38605">
        <ele>81.37</ele>
        <time>2021-07-09T12:21:18Z</time>
      </trkpt>
      <trkpt lat="45.73622" lon="0.38606">
        <ele>81.37</ele>
        <time>2021-07-09T12:21:25Z</time>
      </trkpt>
      <trkpt lat="45.73634" lon="0.38647">
        <ele>81.37</ele>
        <time>2021-07-09T12:21:37Z</time>
      </trkpt>
      <trkpt lat="45.7364" lon="0.38665">
        <ele>81.37</ele>
        <time>2021-07-09T12:21:40Z</time>
      </trkpt>
      <trkpt lat="45.73643" lon="0.3867">
        <ele>81.37</ele>
        <time>2021-07-09T12:21:41Z</time>
      </trkpt>
      <trkpt lat="45.73648" lon="0.38675">
        <ele>81.37</ele>
        <time>2021-07-09T12:21:42Z</time>
      </trkpt>
      <trkpt lat="45.73663" lon="0.38694">
        <ele>81.37</ele>
        <time>2021-07-09T12:21:45Z</time>
      </trkpt>
      <trkpt lat="45.73675" lon="0.38703">
        <ele>81.37</ele>
        <time>2021-07-09T12:21:46Z</time>
      </trkpt>
      <trkpt lat="45.73682" lon="0.38705">
        <ele>81.37</ele>
        <time>2021-07-09T12:21:47Z</time>
      </trkpt>
      <trkpt lat="45.73695" lon="0.38709">
        <ele>80.89</ele>
        <time>2021-07-09T12:21:49Z</time>
      </trkpt>
      <trkpt lat="45.73703" lon="0.38711">
        <ele>80.89</ele>
        <time>2021-07-09T12:21:50Z</time>
      </trkpt>
      <trkpt lat="45.7381" lon="0.3872">
        <ele>76.08</ele>
        <time>2021-07-09T12:22:02Z</time>
      </trkpt>
      <trkpt lat="45.73927" lon="0.38738">
        <ele>74.64</ele>
        <time>2021-07-09T12:22:13Z</time>
      </trkpt>
      <trkpt lat="45.74067" lon="0.38747">
        <ele>72.24</ele>
        <time>2021-07-09T12:22:27Z</time>
      </trkpt>
      <trkpt lat="45.74094" lon="0.38753">
        <ele>73.2</ele>
        <time>2021-07-09T12:22:30Z</time>
      </trkpt>
      <trkpt lat="45.74103" lon="0.38752">
        <ele>73.2</ele>
        <time>2021-07-09T12:22:31Z</time>
      </trkpt>
      <trkpt lat="45.74113" lon="0.3875">
        <ele>73.2</ele>
        <time>2021-07-09T12:22:32Z</time>
      </trkpt>
      <trkpt lat="45.74241" lon="0.38733">
        <ele>71.76</ele>
        <time>2021-07-09T12:22:43Z</time>
      </trkpt>
      <trkpt lat="45.74327" lon="0.38735">
        <ele>71.27</ele>
        <time>2021-07-09T12:22:52Z</time>
      </trkpt>
      <trkpt lat="45.74335" lon="0.38734">
        <ele>70.79</ele>
        <time>2021-07-09T12:22:54Z</time>
      </trkpt>
      <trkpt lat="45.7434" lon="0.38733">
        <ele>70.79</ele>
        <time>2021-07-09T12:22:55Z</time>
      </trkpt>
      <trkpt lat="45.74346" lon="0.38732">
        <ele>70.79</ele>
        <time>2021-07-09T12:22:56Z</time>
      </trkpt>
      <trkpt lat="45.74352" lon="0.3873">
        <ele>71.27</ele>
        <time>2021-07-09T12:22:57Z</time>
      </trkpt>
      <trkpt lat="45.74365" lon="0.38728">
        <ele>71.27</ele>
        <time>2021-07-09T12:22:58Z</time>
      </trkpt>
      <trkpt lat="45.74365" lon="0.38728">
        <ele>71.27</ele>
        <time>2021-07-09T12:22:59Z</time>
      </trkpt>
      <trkpt lat="45.7445" lon="0.38692">
        <ele>72.24</ele>
        <time>2021-07-09T12:23:08Z</time>
      </trkpt>
      <trkpt lat="45.74658" lon="0.38595">
        <ele>74.16</ele>
        <time>2021-07-09T12:23:27Z</time>
      </trkpt>
      <trkpt lat="45.74698" lon="0.3857">
        <ele>76.56</ele>
        <time>2021-07-09T12:23:35Z</time>
      </trkpt>
      <trkpt lat="45.74707" lon="0.38568">
        <ele>76.56</ele>
        <time>2021-07-09T12:23:36Z</time>
      </trkpt>
      <trkpt lat="45.74717" lon="0.38574">
        <ele>77.52</ele>
        <time>2021-07-09T12:23:38Z</time>
      </trkpt>
      <trkpt lat="45.74724" lon="0.38572">
        <ele>77.52</ele>
        <time>2021-07-09T12:23:39Z</time>
      </trkpt>
      <trkpt lat="45.7473" lon="0.38567">
        <ele>78</ele>
        <time>2021-07-09T12:23:40Z</time>
      </trkpt>
      <trkpt lat="45.74737" lon="0.38555">
        <ele>78.48</ele>
        <time>2021-07-09T12:23:41Z</time>
      </trkpt>
      <trkpt lat="45.74737" lon="0.38555">
        <ele>78.48</ele>
        <time>2021-07-09T12:23:42Z</time>
      </trkpt>
      <trkpt lat="45.74736" lon="0.38546">
        <ele>78.48</ele>
        <time>2021-07-09T12:23:43Z</time>
      </trkpt>
      <trkpt lat="45.74736" lon="0.38537">
        <ele>78.48</ele>
        <time>2021-07-09T12:23:44Z</time>
      </trkpt>
      <trkpt lat="45.74743" lon="0.3852">
        <ele>78</ele>
        <time>2021-07-09T12:23:45Z</time>
      </trkpt>
      <trkpt lat="45.7475" lon="0.38513">
        <ele>78</ele>
        <time>2021-07-09T12:23:46Z</time>
      </trkpt>
      <trkpt lat="45.74828" lon="0.38428">
        <ele>73.68</ele>
        <time>2021-07-09T12:23:54Z</time>
      </trkpt>
      <trkpt lat="45.74841" lon="0.3842">
        <ele>73.68</ele>
        <time>2021-07-09T12:23:55Z</time>
      </trkpt>
      <trkpt lat="45.74855" lon="0.38412">
        <ele>73.68</ele>
        <time>2021-07-09T12:23:56Z</time>
      </trkpt>
      <trkpt lat="45.74868" lon="0.38404">
        <ele>74.16</ele>
        <time>2021-07-09T12:23:57Z</time>
      </trkpt>
      <trkpt lat="45.74883" lon="0.38396">
        <ele>74.64</ele>
        <time>2021-07-09T12:23:58Z</time>
      </trkpt>
      <trkpt lat="45.74898" lon="0.38393">
        <ele>74.64</ele>
        <time>2021-07-09T12:23:59Z</time>
      </trkpt>
      <trkpt lat="45.74914" lon="0.3839">
        <ele>75.12</ele>
        <time>2021-07-09T12:24:00Z</time>
      </trkpt>
      <trkpt lat="45.7493" lon="0.38391">
        <ele>76.08</ele>
        <time>2021-07-09T12:24:01Z</time>
      </trkpt>
      <trkpt lat="45.74945" lon="0.38392">
        <ele>77.04</ele>
        <time>2021-07-09T12:24:02Z</time>
      </trkpt>
      <trkpt lat="45.74959" lon="0.38395">
        <ele>78.48</ele>
        <time>2021-07-09T12:24:03Z</time>
      </trkpt>
      <trkpt lat="45.74974" lon="0.38401">
        <ele>80.41</ele>
        <time>2021-07-09T12:24:04Z</time>
      </trkpt>
      <trkpt lat="45.74988" lon="0.38407">
        <ele>82.81</ele>
        <time>2021-07-09T12:24:05Z</time>
      </trkpt>
      <trkpt lat="45.75001" lon="0.38416">
        <ele>84.25</ele>
        <time>2021-07-09T12:24:06Z</time>
      </trkpt>
      <trkpt lat="45.75148" lon="0.3852">
        <ele>93.39</ele>
        <time>2021-07-09T12:24:18Z</time>
      </trkpt>
      <trkpt lat="45.75166" lon="0.3853">
        <ele>95.31</ele>
        <time>2021-07-09T12:24:20Z</time>
      </trkpt>
      <trkpt lat="45.75178" lon="0.38534">
        <ele>94.35</ele>
        <time>2021-07-09T12:24:21Z</time>
      </trkpt>
      <trkpt lat="45.75201" lon="0.38535">
        <ele>93.39</ele>
        <time>2021-07-09T12:24:22Z</time>
      </trkpt>
      <trkpt lat="45.75201" lon="0.38535">
        <ele>93.39</ele>
        <time>2021-07-09T12:24:23Z</time>
      </trkpt>
      <trkpt lat="45.75211" lon="0.38531">
        <ele>93.87</ele>
        <time>2021-07-09T12:24:24Z</time>
      </trkpt>
      <trkpt lat="45.75228" lon="0.38523">
        <ele>93.87</ele>
        <time>2021-07-09T12:24:25Z</time>
      </trkpt>
      <trkpt lat="45.75235" lon="0.38513">
        <ele>93.87</ele>
        <time>2021-07-09T12:24:26Z</time>
      </trkpt>
      <trkpt lat="45.75235" lon="0.38513">
        <ele>93.87</ele>
        <time>2021-07-09T12:24:27Z</time>
      </trkpt>
      <trkpt lat="45.75241" lon="0.38504">
        <ele>93.87</ele>
        <time>2021-07-09T12:24:28Z</time>
      </trkpt>
      <trkpt lat="45.75258" lon="0.3848">
        <ele>94.35</ele>
        <time>2021-07-09T12:24:31Z</time>
      </trkpt>
      <trkpt lat="45.75263" lon="0.38473">
        <ele>94.83</ele>
        <time>2021-07-09T12:24:32Z</time>
      </trkpt>
      <trkpt lat="45.75266" lon="0.38468">
        <ele>94.83</ele>
        <time>2021-07-09T12:24:33Z</time>
      </trkpt>
      <trkpt lat="45.75286" lon="0.38473">
        <ele>93.87</ele>
        <time>2021-07-09T12:24:35Z</time>
      </trkpt>
      <trkpt lat="45.75286" lon="0.38473">
        <ele>93.87</ele>
        <time>2021-07-09T12:24:36Z</time>
      </trkpt>
      <trkpt lat="45.75291" lon="0.3847">
        <ele>93.87</ele>
        <time>2021-07-09T12:24:37Z</time>
      </trkpt>
      <trkpt lat="45.75297" lon="0.38456">
        <ele>93.87</ele>
        <time>2021-07-09T12:24:38Z</time>
      </trkpt>
      <trkpt lat="45.75297" lon="0.38456">
        <ele>93.39</ele>
        <time>2021-07-09T12:24:39Z</time>
      </trkpt>
      <trkpt lat="45.75299" lon="0.38448">
        <ele>93.39</ele>
        <time>2021-07-09T12:24:40Z</time>
      </trkpt>
      <trkpt lat="45.75297" lon="0.38439">
        <ele>93.87</ele>
        <time>2021-07-09T12:24:41Z</time>
      </trkpt>
      <trkpt lat="45.75295" lon="0.38431">
        <ele>93.87</ele>
        <time>2021-07-09T12:24:42Z</time>
      </trkpt>
      <trkpt lat="45.75295" lon="0.38431">
        <ele>94.35</ele>
        <time>2021-07-09T12:24:43Z</time>
      </trkpt>
      <trkpt lat="45.75286" lon="0.38408">
        <ele>94.35</ele>
        <time>2021-07-09T12:24:44Z</time>
      </trkpt>
      <trkpt lat="45.7529" lon="0.38389">
        <ele>94.35</ele>
        <time>2021-07-09T12:24:45Z</time>
      </trkpt>
      <trkpt lat="45.75292" lon="0.38378">
        <ele>93.87</ele>
        <time>2021-07-09T12:24:46Z</time>
      </trkpt>
      <trkpt lat="45.75292" lon="0.38378">
        <ele>93.87</ele>
        <time>2021-07-09T12:24:47Z</time>
      </trkpt>
      <trkpt lat="45.75295" lon="0.38367">
        <ele>93.87</ele>
        <time>2021-07-09T12:24:48Z</time>
      </trkpt>
      <trkpt lat="45.75304" lon="0.3836">
        <ele>93.39</ele>
        <time>2021-07-09T12:24:49Z</time>
      </trkpt>
      <trkpt lat="45.75311" lon="0.38354">
        <ele>92.9</ele>
        <time>2021-07-09T12:24:50Z</time>
      </trkpt>
      <trkpt lat="45.75328" lon="0.38341">
        <ele>92.42</ele>
        <time>2021-07-09T12:24:51Z</time>
      </trkpt>
      <trkpt lat="45.75338" lon="0.38339">
        <ele>91.94</ele>
        <time>2021-07-09T12:24:52Z</time>
      </trkpt>
      <trkpt lat="45.75338" lon="0.38339">
        <ele>91.46</ele>
        <time>2021-07-09T12:24:53Z</time>
      </trkpt>
      <trkpt lat="45.75348" lon="0.3834">
        <ele>91.94</ele>
        <time>2021-07-09T12:24:54Z</time>
      </trkpt>
      <trkpt lat="45.75365" lon="0.38353">
        <ele>92.9</ele>
        <time>2021-07-09T12:24:55Z</time>
      </trkpt>
      <trkpt lat="45.75365" lon="0.38353">
        <ele>93.87</ele>
        <time>2021-07-09T12:24:56Z</time>
      </trkpt>
      <trkpt lat="45.75373" lon="0.38363">
        <ele>94.83</ele>
        <time>2021-07-09T12:24:57Z</time>
      </trkpt>
      <trkpt lat="45.75381" lon="0.38372">
        <ele>95.79</ele>
        <time>2021-07-09T12:24:58Z</time>
      </trkpt>
      <trkpt lat="45.75386" lon="0.38385">
        <ele>96.27</ele>
        <time>2021-07-09T12:24:59Z</time>
      </trkpt>
      <trkpt lat="45.75445" lon="0.3856">
        <ele>102.52</ele>
        <time>2021-07-09T12:25:09Z</time>
      </trkpt>
      <trkpt lat="45.75534" lon="0.38763">
        <ele>112.13</ele>
        <time>2021-07-09T12:25:19Z</time>
      </trkpt>
      <trkpt lat="45.75678" lon="0.39002">
        <ele>119.82</ele>
        <time>2021-07-09T12:25:30Z</time>
      </trkpt>
      <trkpt lat="45.75847" lon="0.39194">
        <ele>124.63</ele>
        <time>2021-07-09T12:25:40Z</time>
      </trkpt>
      <trkpt lat="45.76113" lon="0.39424">
        <ele>127.03</ele>
        <time>2021-07-09T12:25:53Z</time>
      </trkpt>
      <trkpt lat="45.76429" lon="0.39637">
        <ele>131.36</ele>
        <time>2021-07-09T12:26:07Z</time>
      </trkpt>
      <trkpt lat="45.77021" lon="0.40022">
        <ele>123.19</ele>
        <time>2021-07-09T12:26:32Z</time>
      </trkpt>
      <trkpt lat="45.77482" lon="0.40321">
        <ele>104.44</ele>
        <time>2021-07-09T12:26:51Z</time>
      </trkpt>
      <trkpt lat="45.78031" lon="0.40676">
        <ele>99.63</ele>
        <time>2021-07-09T12:27:14Z</time>
      </trkpt>
      <trkpt lat="45.78278" lon="0.40873">
        <ele>100.11</ele>
        <time>2021-07-09T12:27:25Z</time>
      </trkpt>
      <trkpt lat="45.78453" lon="0.41093">
        <ele>101.56</ele>
        <time>2021-07-09T12:27:34Z</time>
      </trkpt>
      <trkpt lat="45.787" lon="0.41429">
        <ele>106.84</ele>
        <time>2021-07-09T12:27:47Z</time>
      </trkpt>
      <trkpt lat="45.78914" lon="0.41709">
        <ele>113.57</ele>
        <time>2021-07-09T12:27:58Z</time>
      </trkpt>
      <trkpt lat="45.79055" lon="0.41985">
        <ele>114.53</ele>
        <time>2021-07-09T12:28:07Z</time>
      </trkpt>
      <trkpt lat="45.79164" lon="0.4233">
        <ele>117.9</ele>
        <time>2021-07-09T12:28:17Z</time>
      </trkpt>
      <trkpt lat="45.79321" lon="0.42842">
        <ele>127.99</ele>
        <time>2021-07-09T12:28:32Z</time>
      </trkpt>
      <trkpt lat="45.79458" lon="0.43111">
        <ele>127.03</ele>
        <time>2021-07-09T12:28:41Z</time>
      </trkpt>
      <trkpt lat="45.79638" lon="0.43342">
        <ele>121.26</ele>
        <time>2021-07-09T12:28:50Z</time>
      </trkpt>
      <trkpt lat="45.80184" lon="0.43923">
        <ele>115.01</ele>
        <time>2021-07-09T12:29:15Z</time>
      </trkpt>
      <trkpt lat="45.80708" lon="0.44479">
        <ele>121.74</ele>
        <time>2021-07-09T12:29:39Z</time>
      </trkpt>
      <trkpt lat="45.81147" lon="0.44942">
        <ele>121.74</ele>
        <time>2021-07-09T12:30:00Z</time>
      </trkpt>
      <trkpt lat="45.81542" lon="0.4536">
        <ele>117.42</ele>
        <time>2021-07-09T12:30:19Z</time>
      </trkpt>
      <trkpt lat="45.81784" lon="0.45554">
        <ele>117.42</ele>
        <time>2021-07-09T12:30:29Z</time>
      </trkpt>
      <trkpt lat="45.81973" lon="0.45643">
        <ele>116.94</ele>
        <time>2021-07-09T12:30:38Z</time>
      </trkpt>
      <trkpt lat="45.8224" lon="0.45729">
        <ele>117.9</ele>
        <time>2021-07-09T12:30:50Z</time>
      </trkpt>
      <trkpt lat="45.82407" lon="0.45841">
        <ele>120.78</ele>
        <time>2021-07-09T12:30:59Z</time>
      </trkpt>
      <trkpt lat="45.82583" lon="0.46025">
        <ele>123.19</ele>
        <time>2021-07-09T12:31:10Z</time>
      </trkpt>
      <trkpt lat="45.82781" lon="0.46237">
        <ele>123.67</ele>
        <time>2021-07-09T12:31:24Z</time>
      </trkpt>
      <trkpt lat="45.82993" lon="0.46475">
        <ele>125.59</ele>
        <time>2021-07-09T12:31:39Z</time>
      </trkpt>
      <trkpt lat="45.83088" lon="0.46591">
        <ele>128.95</ele>
        <time>2021-07-09T12:31:49Z</time>
      </trkpt>
      <trkpt lat="45.83149" lon="0.4671">
        <ele>126.55</ele>
        <time>2021-07-09T12:31:58Z</time>
      </trkpt>
      <trkpt lat="45.8318" lon="0.46799">
        <ele>125.11</ele>
        <time>2021-07-09T12:32:06Z</time>
      </trkpt>
      <trkpt lat="45.83199" lon="0.46854">
        <ele>124.63</ele>
        <time>2021-07-09T12:32:15Z</time>
      </trkpt>
      <trkpt lat="45.832" lon="0.46859">
        <ele>125.11</ele>
        <time>2021-07-09T12:32:16Z</time>
      </trkpt>
      <trkpt lat="45.83202" lon="0.46866">
        <ele>125.59</ele>
        <time>2021-07-09T12:32:17Z</time>
      </trkpt>
      <trkpt lat="45.83198" lon="0.46872">
        <ele>125.59</ele>
        <time>2021-07-09T12:32:18Z</time>
      </trkpt>
      <trkpt lat="45.83196" lon="0.46876">
        <ele>126.07</ele>
        <time>2021-07-09T12:32:19Z</time>
      </trkpt>
      <trkpt lat="45.83191" lon="0.46891">
        <ele>126.55</ele>
        <time>2021-07-09T12:32:21Z</time>
      </trkpt>
      <trkpt lat="45.8319" lon="0.46897">
        <ele>126.55</ele>
        <time>2021-07-09T12:32:22Z</time>
      </trkpt>
      <trkpt lat="45.83194" lon="0.46909">
        <ele>126.55</ele>
        <time>2021-07-09T12:32:23Z</time>
      </trkpt>
      <trkpt lat="45.83196" lon="0.46914">
        <ele>127.03</ele>
        <time>2021-07-09T12:32:24Z</time>
      </trkpt>
      <trkpt lat="45.83199" lon="0.4692">
        <ele>127.03</ele>
        <time>2021-07-09T12:32:25Z</time>
      </trkpt>
      <trkpt lat="45.83202" lon="0.46926">
        <ele>127.51</ele>
        <time>2021-07-09T12:32:26Z</time>
      </trkpt>
      <trkpt lat="45.83208" lon="0.46927">
        <ele>127.51</ele>
        <time>2021-07-09T12:32:27Z</time>
      </trkpt>
      <trkpt lat="45.83214" lon="0.46928">
        <ele>127.99</ele>
        <time>2021-07-09T12:32:28Z</time>
      </trkpt>
      <trkpt lat="45.83226" lon="0.46938">
        <ele>127.51</ele>
        <time>2021-07-09T12:32:29Z</time>
      </trkpt>
      <trkpt lat="45.83229" lon="0.46948">
        <ele>127.51</ele>
        <time>2021-07-09T12:32:30Z</time>
      </trkpt>
      <trkpt lat="45.83248" lon="0.47">
        <ele>129.43</ele>
        <time>2021-07-09T12:32:33Z</time>
      </trkpt>
      <trkpt lat="45.83248" lon="0.47">
        <ele>129.43</ele>
        <time>2021-07-09T12:32:34Z</time>
      </trkpt>
      <trkpt lat="45.83263" lon="0.47025">
        <ele>130.4</ele>
        <time>2021-07-09T12:32:35Z</time>
      </trkpt>
      <trkpt lat="45.83335" lon="0.47118">
        <ele>137.61</ele>
        <time>2021-07-09T12:32:46Z</time>
      </trkpt>
      <trkpt lat="45.83394" lon="0.47258">
        <ele>137.61</ele>
        <time>2021-07-09T12:32:56Z</time>
      </trkpt>
      <trkpt lat="45.83513" lon="0.47584">
        <ele>140.97</ele>
        <time>2021-07-09T12:33:17Z</time>
      </trkpt>
      <trkpt lat="45.83613" lon="0.47859">
        <ele>142.41</ele>
        <time>2021-07-09T12:33:31Z</time>
      </trkpt>
      <trkpt lat="45.83789" lon="0.48339">
        <ele>158.27</ele>
        <time>2021-07-09T12:33:54Z</time>
      </trkpt>
      <trkpt lat="45.83889" lon="0.48614">
        <ele>163.56</ele>
        <time>2021-07-09T12:34:09Z</time>
      </trkpt>
      <trkpt lat="45.83968" lon="0.48796">
        <ele>160.2</ele>
        <time>2021-07-09T12:34:18Z</time>
      </trkpt>
      <trkpt lat="45.8412" lon="0.49025">
        <ele>162.6</ele>
        <time>2021-07-09T12:34:30Z</time>
      </trkpt>
      <trkpt lat="45.843" lon="0.49275">
        <ele>174.14</ele>
        <time>2021-07-09T12:34:44Z</time>
      </trkpt>
      <trkpt lat="45.84497" lon="0.49546">
        <ele>181.83</ele>
        <time>2021-07-09T12:35:02Z</time>
      </trkpt>
      <trkpt lat="45.84756" lon="0.49904">
        <ele>183.75</ele>
        <time>2021-07-09T12:35:23Z</time>
      </trkpt>
      <trkpt lat="45.84993" lon="0.5023">
        <ele>186.15</ele>
        <time>2021-07-09T12:35:42Z</time>
      </trkpt>
      <trkpt lat="45.85161" lon="0.50457">
        <ele>186.63</ele>
        <time>2021-07-09T12:35:58Z</time>
      </trkpt>
      <trkpt lat="45.85316" lon="0.50662">
        <ele>183.27</ele>
        <time>2021-07-09T12:36:12Z</time>
      </trkpt>
      <trkpt lat="45.85446" lon="0.50834">
        <ele>179.42</ele>
        <time>2021-07-09T12:36:26Z</time>
      </trkpt>
      <trkpt lat="45.8558" lon="0.51011">
        <ele>184.23</ele>
        <time>2021-07-09T12:36:38Z</time>
      </trkpt>
      <trkpt lat="45.85722" lon="0.51247">
        <ele>180.38</ele>
        <time>2021-07-09T12:36:51Z</time>
      </trkpt>
      <trkpt lat="45.85807" lon="0.51534">
        <ele>183.75</ele>
        <time>2021-07-09T12:37:03Z</time>
      </trkpt>
      <trkpt lat="45.85951" lon="0.52062">
        <ele>187.11</ele>
        <time>2021-07-09T12:37:25Z</time>
      </trkpt>
      <trkpt lat="45.86062" lon="0.52456">
        <ele>190.96</ele>
        <time>2021-07-09T12:37:42Z</time>
      </trkpt>
      <trkpt lat="45.86212" lon="0.52995">
        <ele>179.42</ele>
        <time>2021-07-09T12:38:04Z</time>
      </trkpt>
      <trkpt lat="45.86284" lon="0.53248">
        <ele>183.27</ele>
        <time>2021-07-09T12:38:17Z</time>
      </trkpt>
      <trkpt lat="45.86371" lon="0.53534">
        <ele>184.71</ele>
        <time>2021-07-09T12:38:34Z</time>
      </trkpt>
      <trkpt lat="45.86452" lon="0.53723">
        <ele>179.42</ele>
        <time>2021-07-09T12:38:48Z</time>
      </trkpt>
      <trkpt lat="45.86454" lon="0.53738">
        <ele>179.42</ele>
        <time>2021-07-09T12:38:49Z</time>
      </trkpt>
      <trkpt lat="45.86456" lon="0.53754">
        <ele>178.94</ele>
        <time>2021-07-09T12:38:50Z</time>
      </trkpt>
      <trkpt lat="45.86458" lon="0.5377">
        <ele>177.5</ele>
        <time>2021-07-09T12:38:51Z</time>
      </trkpt>
      <trkpt lat="45.8646" lon="0.53786">
        <ele>176.54</ele>
        <time>2021-07-09T12:38:52Z</time>
      </trkpt>
      <trkpt lat="45.86467" lon="0.53879">
        <ele>176.06</ele>
        <time>2021-07-09T12:38:59Z</time>
      </trkpt>
      <trkpt lat="45.86472" lon="0.53915">
        <ele>175.1</ele>
        <time>2021-07-09T12:39:08Z</time>
      </trkpt>
      <trkpt lat="45.86478" lon="0.5394">
        <ele>175.1</ele>
        <time>2021-07-09T12:39:10Z</time>
      </trkpt>
      <trkpt lat="45.86478" lon="0.5394">
        <ele>175.1</ele>
        <time>2021-07-09T12:39:11Z</time>
      </trkpt>
      <trkpt lat="45.86537" lon="0.54058">
        <ele>180.87</ele>
        <time>2021-07-09T12:39:25Z</time>
      </trkpt>
      <trkpt lat="45.86631" lon="0.5423">
        <ele>185.19</ele>
        <time>2021-07-09T12:39:39Z</time>
      </trkpt>
      <trkpt lat="45.86746" lon="0.54445">
        <ele>185.67</ele>
        <time>2021-07-09T12:39:54Z</time>
      </trkpt>
      <trkpt lat="45.86915" lon="0.54755">
        <ele>189.52</ele>
        <time>2021-07-09T12:40:11Z</time>
      </trkpt>
      <trkpt lat="45.87077" lon="0.55049">
        <ele>194.8</ele>
        <time>2021-07-09T12:40:28Z</time>
      </trkpt>
      <trkpt lat="45.87209" lon="0.55293">
        <ele>194.32</ele>
        <time>2021-07-09T12:40:41Z</time>
      </trkpt>
      <trkpt lat="45.8745" lon="0.55733">
        <ele>197.21</ele>
        <time>2021-07-09T12:41:02Z</time>
      </trkpt>
      <trkpt lat="45.87547" lon="0.55908">
        <ele>194.32</ele>
        <time>2021-07-09T12:41:12Z</time>
      </trkpt>
      <trkpt lat="45.87572" lon="0.55952">
        <ele>194.8</ele>
        <time>2021-07-09T12:41:15Z</time>
      </trkpt>
      <trkpt lat="45.87582" lon="0.55965">
        <ele>195.28</ele>
        <time>2021-07-09T12:41:16Z</time>
      </trkpt>
      <trkpt lat="45.87593" lon="0.55977">
        <ele>195.28</ele>
        <time>2021-07-09T12:41:17Z</time>
      </trkpt>
      <trkpt lat="45.87603" lon="0.5599">
        <ele>195.77</ele>
        <time>2021-07-09T12:41:18Z</time>
      </trkpt>
      <trkpt lat="45.87616" lon="0.56002">
        <ele>195.28</ele>
        <time>2021-07-09T12:41:19Z</time>
      </trkpt>
      <trkpt lat="45.87699" lon="0.56062">
        <ele>196.25</ele>
        <time>2021-07-09T12:41:26Z</time>
      </trkpt>
      <trkpt lat="45.87708" lon="0.56074">
        <ele>197.21</ele>
        <time>2021-07-09T12:41:27Z</time>
      </trkpt>
      <trkpt lat="45.87716" lon="0.56086">
        <ele>196.73</ele>
        <time>2021-07-09T12:41:28Z</time>
      </trkpt>
      <trkpt lat="45.87784" lon="0.56233">
        <ele>200.09</ele>
        <time>2021-07-09T12:41:38Z</time>
      </trkpt>
      <trkpt lat="45.87841" lon="0.56436">
        <ele>201.53</ele>
        <time>2021-07-09T12:41:50Z</time>
      </trkpt>
      <trkpt lat="45.87953" lon="0.5665">
        <ele>201.05</ele>
        <time>2021-07-09T12:42:03Z</time>
      </trkpt>
      <trkpt lat="45.88106" lon="0.5693">
        <ele>200.57</ele>
        <time>2021-07-09T12:42:18Z</time>
      </trkpt>
      <trkpt lat="45.88209" lon="0.57116">
        <ele>194.8</ele>
        <time>2021-07-09T12:42:30Z</time>
      </trkpt>
      <trkpt lat="45.88273" lon="0.57229">
        <ele>198.65</ele>
        <time>2021-07-09T12:42:39Z</time>
      </trkpt>
      <trkpt lat="45.88306" lon="0.57289">
        <ele>202.98</ele>
        <time>2021-07-09T12:42:51Z</time>
      </trkpt>
      <trkpt lat="45.88369" lon="0.57405">
        <ele>207.78</ele>
        <time>2021-07-09T12:43:05Z</time>
      </trkpt>
      <trkpt lat="45.88492" lon="0.57628">
        <ele>215.95</ele>
        <time>2021-07-09T12:43:27Z</time>
      </trkpt>
      <trkpt lat="45.88582" lon="0.57809">
        <ele>217.88</ele>
        <time>2021-07-09T12:43:41Z</time>
      </trkpt>
      <trkpt lat="45.88601" lon="0.57866">
        <ele>218.36</ele>
        <time>2021-07-09T12:43:50Z</time>
      </trkpt>
      <trkpt lat="45.88602" lon="0.57868">
        <ele>218.36</ele>
        <time>2021-07-09T12:44:03Z</time>
      </trkpt>
      <trkpt lat="45.88611" lon="0.57895">
        <ele>218.36</ele>
        <time>2021-07-09T12:44:11Z</time>
      </trkpt>
      <trkpt lat="45.88633" lon="0.57958">
        <ele>217.88</ele>
        <time>2021-07-09T12:44:20Z</time>
      </trkpt>
      <trkpt lat="45.88633" lon="0.57967">
        <ele>217.4</ele>
        <time>2021-07-09T12:44:21Z</time>
      </trkpt>
      <trkpt lat="45.88633" lon="0.57975">
        <ele>217.4</ele>
        <time>2021-07-09T12:44:22Z</time>
      </trkpt>
      <trkpt lat="45.88633" lon="0.57984">
        <ele>216.91</ele>
        <time>2021-07-09T12:44:23Z</time>
      </trkpt>
      <trkpt lat="45.88633" lon="0.57992">
        <ele>216.91</ele>
        <time>2021-07-09T12:44:24Z</time>
      </trkpt>
      <trkpt lat="45.88633" lon="0.58009">
        <ele>216.91</ele>
        <time>2021-07-09T12:44:25Z</time>
      </trkpt>
      <trkpt lat="45.88615" lon="0.5814">
        <ele>216.43</ele>
        <time>2021-07-09T12:44:39Z</time>
      </trkpt>
      <trkpt lat="45.88599" lon="0.5827">
        <ele>213.07</ele>
        <time>2021-07-09T12:44:49Z</time>
      </trkpt>
      <trkpt lat="45.88596" lon="0.58291">
        <ele>214.51</ele>
        <time>2021-07-09T12:44:54Z</time>
      </trkpt>
      <trkpt lat="45.88592" lon="0.58323">
        <ele>214.03</ele>
        <time>2021-07-09T12:45:47Z</time>
      </trkpt>
      <trkpt lat="45.88574" lon="0.58456">
        <ele>213.07</ele>
        <time>2021-07-09T12:45:56Z</time>
      </trkpt>
      <trkpt lat="45.88543" lon="0.58694">
        <ele>207.78</ele>
        <time>2021-07-09T12:46:08Z</time>
      </trkpt>
      <trkpt lat="45.88495" lon="0.59042">
        <ele>199.61</ele>
        <time>2021-07-09T12:46:25Z</time>
      </trkpt>
      <trkpt lat="45.88477" lon="0.5917">
        <ele>197.69</ele>
        <time>2021-07-09T12:46:33Z</time>
      </trkpt>
      <trkpt lat="45.8847" lon="0.5919">
        <ele>198.17</ele>
        <time>2021-07-09T12:46:34Z</time>
      </trkpt>
      <trkpt lat="45.8847" lon="0.5919">
        <ele>198.17</ele>
        <time>2021-07-09T12:46:35Z</time>
      </trkpt>
      <trkpt lat="45.88465" lon="0.59195">
        <ele>198.17</ele>
        <time>2021-07-09T12:46:36Z</time>
      </trkpt>
      <trkpt lat="45.88462" lon="0.59205">
        <ele>198.17</ele>
        <time>2021-07-09T12:46:37Z</time>
      </trkpt>
      <trkpt lat="45.88462" lon="0.59214">
        <ele>197.69</ele>
        <time>2021-07-09T12:46:38Z</time>
      </trkpt>
      <trkpt lat="45.88462" lon="0.59221">
        <ele>197.69</ele>
        <time>2021-07-09T12:46:39Z</time>
      </trkpt>
      <trkpt lat="45.8847" lon="0.59233">
        <ele>197.69</ele>
        <time>2021-07-09T12:46:40Z</time>
      </trkpt>
      <trkpt lat="45.88467" lon="0.59254">
        <ele>197.21</ele>
        <time>2021-07-09T12:46:41Z</time>
      </trkpt>
      <trkpt lat="45.88467" lon="0.59254">
        <ele>196.25</ele>
        <time>2021-07-09T12:46:42Z</time>
      </trkpt>
      <trkpt lat="45.88465" lon="0.59267">
        <ele>195.77</ele>
        <time>2021-07-09T12:46:43Z</time>
      </trkpt>
      <trkpt lat="45.88446" lon="0.59412">
        <ele>189.52</ele>
        <time>2021-07-09T12:46:51Z</time>
      </trkpt>
      <trkpt lat="45.88411" lon="0.59692">
        <ele>180.87</ele>
        <time>2021-07-09T12:47:02Z</time>
      </trkpt>
      <trkpt lat="45.88357" lon="0.60078">
        <ele>190.96</ele>
        <time>2021-07-09T12:47:16Z</time>
      </trkpt>
      <trkpt lat="45.88298" lon="0.60537">
        <ele>210.67</ele>
        <time>2021-07-09T12:47:33Z</time>
      </trkpt>
      <trkpt lat="45.88212" lon="0.61154">
        <ele>230.37</ele>
        <time>2021-07-09T12:47:56Z</time>
      </trkpt>
      <trkpt lat="45.88158" lon="0.61566">
        <ele>241.43</ele>
        <time>2021-07-09T12:48:13Z</time>
      </trkpt>
      <trkpt lat="45.88119" lon="0.6172">
        <ele>238.06</ele>
        <time>2021-07-09T12:48:21Z</time>
      </trkpt>
      <trkpt lat="45.88057" lon="0.61967">
        <ele>224.12</ele>
        <time>2021-07-09T12:48:33Z</time>
      </trkpt>
      <trkpt lat="45.87964" lon="0.62329">
        <ele>217.88</ele>
        <time>2021-07-09T12:48:47Z</time>
      </trkpt>
      <trkpt lat="45.87855" lon="0.62755">
        <ele>199.13</ele>
        <time>2021-07-09T12:49:03Z</time>
      </trkpt>
      <trkpt lat="45.87721" lon="0.63277">
        <ele>182.79</ele>
        <time>2021-07-09T12:49:21Z</time>
      </trkpt>
      <trkpt lat="45.87596" lon="0.63757">
        <ele>190</ele>
        <time>2021-07-09T12:49:37Z</time>
      </trkpt>
      <trkpt lat="45.87486" lon="0.64198">
        <ele>191.92</ele>
        <time>2021-07-09T12:49:53Z</time>
      </trkpt>
      <trkpt lat="45.87362" lon="0.64679">
        <ele>187.11</ele>
        <time>2021-07-09T12:50:11Z</time>
      </trkpt>
      <trkpt lat="45.87247" lon="0.65123">
        <ele>194.32</ele>
        <time>2021-07-09T12:50:28Z</time>
      </trkpt>
      <trkpt lat="45.8719" lon="0.65354">
        <ele>200.57</ele>
        <time>2021-07-09T12:50:38Z</time>
      </trkpt>
      <trkpt lat="45.87188" lon="0.65372">
        <ele>200.09</ele>
        <time>2021-07-09T12:50:39Z</time>
      </trkpt>
      <trkpt lat="45.87186" lon="0.65391">
        <ele>198.65</ele>
        <time>2021-07-09T12:50:40Z</time>
      </trkpt>
      <trkpt lat="45.87187" lon="0.65604">
        <ele>192.4</ele>
        <time>2021-07-09T12:50:50Z</time>
      </trkpt>
      <trkpt lat="45.8719" lon="0.65971">
        <ele>187.59</ele>
        <time>2021-07-09T12:51:05Z</time>
      </trkpt>
      <trkpt lat="45.87194" lon="0.66466">
        <ele>181.83</ele>
        <time>2021-07-09T12:51:22Z</time>
      </trkpt>
      <trkpt lat="45.87195" lon="0.66724">
        <ele>176.54</ele>
        <time>2021-07-09T12:51:34Z</time>
      </trkpt>
      <trkpt lat="45.87197" lon="0.67001">
        <ele>166.45</ele>
        <time>2021-07-09T12:51:46Z</time>
      </trkpt>
      <trkpt lat="45.872" lon="0.6731">
        <ele>158.27</ele>
        <time>2021-07-09T12:51:58Z</time>
      </trkpt>
      <trkpt lat="45.87203" lon="0.67624">
        <ele>174.62</ele>
        <time>2021-07-09T12:52:11Z</time>
      </trkpt>
      <trkpt lat="45.87205" lon="0.6786">
        <ele>183.27</ele>
        <time>2021-07-09T12:52:23Z</time>
      </trkpt>
      <trkpt lat="45.87206" lon="0.68158">
        <ele>189.52</ele>
        <time>2021-07-09T12:52:36Z</time>
      </trkpt>
      <trkpt lat="45.87211" lon="0.68586">
        <ele>197.69</ele>
        <time>2021-07-09T12:52:55Z</time>
      </trkpt>
      <trkpt lat="45.87205" lon="0.689">
        <ele>190.96</ele>
        <time>2021-07-09T12:53:09Z</time>
      </trkpt>
      <trkpt lat="45.87217" lon="0.69065">
        <ele>184.23</ele>
        <time>2021-07-09T12:53:17Z</time>
      </trkpt>
      <trkpt lat="45.8722" lon="0.69091">
        <ele>184.23</ele>
        <time>2021-07-09T12:53:19Z</time>
      </trkpt>
      <trkpt lat="45.8722" lon="0.69091">
        <ele>185.19</ele>
        <time>2021-07-09T12:53:20Z</time>
      </trkpt>
      <trkpt lat="45.87221" lon="0.69102">
        <ele>186.15</ele>
        <time>2021-07-09T12:53:21Z</time>
      </trkpt>
      <trkpt lat="45.87207" lon="0.69158">
        <ele>185.19</ele>
        <time>2021-07-09T12:53:25Z</time>
      </trkpt>
      <trkpt lat="45.87194" lon="0.69183">
        <ele>185.19</ele>
        <time>2021-07-09T12:53:26Z</time>
      </trkpt>
      <trkpt lat="45.87187" lon="0.69198">
        <ele>185.67</ele>
        <time>2021-07-09T12:53:27Z</time>
      </trkpt>
      <trkpt lat="45.87178" lon="0.69214">
        <ele>186.15</ele>
        <time>2021-07-09T12:53:28Z</time>
      </trkpt>
      <trkpt lat="45.87178" lon="0.69214">
        <ele>185.67</ele>
        <time>2021-07-09T12:53:29Z</time>
      </trkpt>
      <trkpt lat="45.87079" lon="0.6932">
        <ele>190.48</ele>
        <time>2021-07-09T12:53:36Z</time>
      </trkpt>
      <trkpt lat="45.87064" lon="0.69327">
        <ele>191.44</ele>
        <time>2021-07-09T12:53:37Z</time>
      </trkpt>
      <trkpt lat="45.87047" lon="0.6933">
        <ele>192.4</ele>
        <time>2021-07-09T12:53:38Z</time>
      </trkpt>
      <trkpt lat="45.87031" lon="0.6933">
        <ele>193.36</ele>
        <time>2021-07-09T12:53:39Z</time>
      </trkpt>
      <trkpt lat="45.87014" lon="0.6933">
        <ele>193.84</ele>
        <time>2021-07-09T12:53:40Z</time>
      </trkpt>
      <trkpt lat="45.86997" lon="0.69331">
        <ele>194.8</ele>
        <time>2021-07-09T12:53:41Z</time>
      </trkpt>
      <trkpt lat="45.86901" lon="0.69332">
        <ele>198.17</ele>
        <time>2021-07-09T12:53:49Z</time>
      </trkpt>
      <trkpt lat="45.86858" lon="0.69332">
        <ele>200.57</ele>
        <time>2021-07-09T12:53:54Z</time>
      </trkpt>
      <trkpt lat="45.86844" lon="0.69332">
        <ele>201.05</ele>
        <time>2021-07-09T12:53:55Z</time>
      </trkpt>
      <trkpt lat="45.86844" lon="0.69332">
        <ele>200.57</ele>
        <time>2021-07-09T12:53:56Z</time>
      </trkpt>
      <trkpt lat="45.86828" lon="0.69298">
        <ele>200.57</ele>
        <time>2021-07-09T12:53:58Z</time>
      </trkpt>
      <trkpt lat="45.8682" lon="0.69296">
        <ele>200.09</ele>
        <time>2021-07-09T12:53:59Z</time>
      </trkpt>
      <trkpt lat="45.86814" lon="0.69298">
        <ele>200.09</ele>
        <time>2021-07-09T12:54:00Z</time>
      </trkpt>
      <trkpt lat="45.86808" lon="0.693">
        <ele>199.61</ele>
        <time>2021-07-09T12:54:01Z</time>
      </trkpt>
      <trkpt lat="45.86808" lon="0.693">
        <ele>199.61</ele>
        <time>2021-07-09T12:54:02Z</time>
      </trkpt>
      <trkpt lat="45.86798" lon="0.69314">
        <ele>200.09</ele>
        <time>2021-07-09T12:54:03Z</time>
      </trkpt>
      <trkpt lat="45.86798" lon="0.69314">
        <ele>199.61</ele>
        <time>2021-07-09T12:54:04Z</time>
      </trkpt>
      <trkpt lat="45.86798" lon="0.69335">
        <ele>199.13</ele>
        <time>2021-07-09T12:54:05Z</time>
      </trkpt>
      <trkpt lat="45.86798" lon="0.69335">
        <ele>199.13</ele>
        <time>2021-07-09T12:54:06Z</time>
      </trkpt>
      <trkpt lat="45.86801" lon="0.69346">
        <ele>199.61</ele>
        <time>2021-07-09T12:54:07Z</time>
      </trkpt>
      <trkpt lat="45.86805" lon="0.69356">
        <ele>199.13</ele>
        <time>2021-07-09T12:54:08Z</time>
      </trkpt>
      <trkpt lat="45.86815" lon="0.69388">
        <ele>197.69</ele>
        <time>2021-07-09T12:54:09Z</time>
      </trkpt>
      <trkpt lat="45.86815" lon="0.69388">
        <ele>197.21</ele>
        <time>2021-07-09T12:54:10Z</time>
      </trkpt>
      <trkpt lat="45.86809" lon="0.69575">
        <ele>197.69</ele>
        <time>2021-07-09T12:54:19Z</time>
      </trkpt>
      <trkpt lat="45.86832" lon="0.6985">
        <ele>190.96</ele>
        <time>2021-07-09T12:54:31Z</time>
      </trkpt>
      <trkpt lat="45.86854" lon="0.70071">
        <ele>184.23</ele>
        <time>2021-07-09T12:54:40Z</time>
      </trkpt>
      <trkpt lat="45.86873" lon="0.70361">
        <ele>174.14</ele>
        <time>2021-07-09T12:54:49Z</time>
      </trkpt>
      <trkpt lat="45.86895" lon="0.70839">
        <ele>155.39</ele>
        <time>2021-07-09T12:55:02Z</time>
      </trkpt>
      <trkpt lat="45.86862" lon="0.71133">
        <ele>158.75</ele>
        <time>2021-07-09T12:55:10Z</time>
      </trkpt>
      <trkpt lat="45.86785" lon="0.71403">
        <ele>169.33</ele>
        <time>2021-07-09T12:55:18Z</time>
      </trkpt>
      <trkpt lat="45.86579" lon="0.71941">
        <ele>184.71</ele>
        <time>2021-07-09T12:55:35Z</time>
      </trkpt>
      <trkpt lat="45.8649" lon="0.72356">
        <ele>196.25</ele>
        <time>2021-07-09T12:55:47Z</time>
      </trkpt>
      <trkpt lat="45.86409" lon="0.72841">
        <ele>207.78</ele>
        <time>2021-07-09T12:56:00Z</time>
      </trkpt>
      <trkpt lat="45.86421" lon="0.73049">
        <ele>207.78</ele>
        <time>2021-07-09T12:56:07Z</time>
      </trkpt>
      <trkpt lat="45.86475" lon="0.73281">
        <ele>204.42</ele>
        <time>2021-07-09T12:56:14Z</time>
      </trkpt>
      <trkpt lat="45.86576" lon="0.73482">
        <ele>199.61</ele>
        <time>2021-07-09T12:56:21Z</time>
      </trkpt>
      <trkpt lat="45.86717" lon="0.73629">
        <ele>195.28</ele>
        <time>2021-07-09T12:56:28Z</time>
      </trkpt>
      <trkpt lat="45.86882" lon="0.73717">
        <ele>189.04</ele>
        <time>2021-07-09T12:56:35Z</time>
      </trkpt>
      <trkpt lat="45.87186" lon="0.73842">
        <ele>170.77</ele>
        <time>2021-07-09T12:56:47Z</time>
      </trkpt>
      <trkpt lat="45.87352" lon="0.73976">
        <ele>165.96</ele>
        <time>2021-07-09T12:56:54Z</time>
      </trkpt>
      <trkpt lat="45.8751" lon="0.74191">
        <ele>166.45</ele>
        <time>2021-07-09T12:57:02Z</time>
      </trkpt>
      <trkpt lat="45.87791" lon="0.74715">
        <ele>169.33</ele>
        <time>2021-07-09T12:57:19Z</time>
      </trkpt>
      <trkpt lat="45.87949" lon="0.75179">
        <ele>177.02</ele>
        <time>2021-07-09T12:57:31Z</time>
      </trkpt>
      <trkpt lat="45.88168" lon="0.7586">
        <ele>177.98</ele>
        <time>2021-07-09T12:57:50Z</time>
      </trkpt>
      <trkpt lat="45.88232" lon="0.76193">
        <ele>179.42</ele>
        <time>2021-07-09T12:57:59Z</time>
      </trkpt>
      <trkpt lat="45.88248" lon="0.76531">
        <ele>182.31</ele>
        <time>2021-07-09T12:58:09Z</time>
      </trkpt>
      <trkpt lat="45.88234" lon="0.76931">
        <ele>197.21</ele>
        <time>2021-07-09T12:58:20Z</time>
      </trkpt>
      <trkpt lat="45.88199" lon="0.77572">
        <ele>205.38</ele>
        <time>2021-07-09T12:58:38Z</time>
      </trkpt>
      <trkpt lat="45.88155" lon="0.78122">
        <ele>210.19</ele>
        <time>2021-07-09T12:58:52Z</time>
      </trkpt>
      <trkpt lat="45.88069" lon="0.7887">
        <ele>211.15</ele>
        <time>2021-07-09T12:59:11Z</time>
      </trkpt>
      <trkpt lat="45.88079" lon="0.79266">
        <ele>198.65</ele>
        <time>2021-07-09T12:59:21Z</time>
      </trkpt>
      <trkpt lat="45.8813" lon="0.79611">
        <ele>196.73</ele>
        <time>2021-07-09T12:59:30Z</time>
      </trkpt>
      <trkpt lat="45.88249" lon="0.80062">
        <ele>214.03</ele>
        <time>2021-07-09T12:59:43Z</time>
      </trkpt>
      <trkpt lat="45.88386" lon="0.80496">
        <ele>225.09</ele>
        <time>2021-07-09T12:59:56Z</time>
      </trkpt>
      <trkpt lat="45.88526" lon="0.80778">
        <ele>219.8</ele>
        <time>2021-07-09T13:00:05Z</time>
      </trkpt>
      <trkpt lat="45.88787" lon="0.81196">
        <ele>212.59</ele>
        <time>2021-07-09T13:00:19Z</time>
      </trkpt>
      <trkpt lat="45.89046" lon="0.8168">
        <ele>205.86</ele>
        <time>2021-07-09T13:00:34Z</time>
      </trkpt>
      <trkpt lat="45.89388" lon="0.8236">
        <ele>218.84</ele>
        <time>2021-07-09T13:00:55Z</time>
      </trkpt>
      <trkpt lat="45.89634" lon="0.82856">
        <ele>226.53</ele>
        <time>2021-07-09T13:01:12Z</time>
      </trkpt>
      <trkpt lat="45.89795" lon="0.83214">
        <ele>211.63</ele>
        <time>2021-07-09T13:01:23Z</time>
      </trkpt>
      <trkpt lat="45.89909" lon="0.83589">
        <ele>213.07</ele>
        <time>2021-07-09T13:01:33Z</time>
      </trkpt>
      <trkpt lat="45.90053" lon="0.8416">
        <ele>225.57</ele>
        <time>2021-07-09T13:01:48Z</time>
      </trkpt>
      <trkpt lat="45.90237" lon="0.84926">
        <ele>236.14</ele>
        <time>2021-07-09T13:02:08Z</time>
      </trkpt>
      <trkpt lat="45.90405" lon="0.85674">
        <ele>224.61</ele>
        <time>2021-07-09T13:02:27Z</time>
      </trkpt>
      <trkpt lat="45.90527" lon="0.86272">
        <ele>236.62</ele>
        <time>2021-07-09T13:02:42Z</time>
      </trkpt>
      <trkpt lat="45.90634" lon="0.86828">
        <ele>264.5</ele>
        <time>2021-07-09T13:02:57Z</time>
      </trkpt>
      <trkpt lat="45.90726" lon="0.87339">
        <ele>282.28</ele>
        <time>2021-07-09T13:03:12Z</time>
      </trkpt>
      <trkpt lat="45.9082" lon="0.87914">
        <ele>270.75</ele>
        <time>2021-07-09T13:03:28Z</time>
      </trkpt>
      <trkpt lat="45.90904" lon="0.88502">
        <ele>244.79</ele>
        <time>2021-07-09T13:03:43Z</time>
      </trkpt>
      <trkpt lat="45.90925" lon="0.8896">
        <ele>239.51</ele>
        <time>2021-07-09T13:03:54Z</time>
      </trkpt>
      <trkpt lat="45.90924" lon="0.89607">
        <ele>233.74</ele>
        <time>2021-07-09T13:04:10Z</time>
      </trkpt>
      <trkpt lat="45.90921" lon="0.90489">
        <ele>215.47</ele>
        <time>2021-07-09T13:04:32Z</time>
      </trkpt>
      <trkpt lat="45.90918" lon="0.91148">
        <ele>225.57</ele>
        <time>2021-07-09T13:04:49Z</time>
      </trkpt>
      <trkpt lat="45.90914" lon="0.91831">
        <ele>247.68</ele>
        <time>2021-07-09T13:05:08Z</time>
      </trkpt>
      <trkpt lat="45.90883" lon="0.92174">
        <ele>258.25</ele>
        <time>2021-07-09T13:05:18Z</time>
      </trkpt>
      <trkpt lat="45.90804" lon="0.92505">
        <ele>264.02</ele>
        <time>2021-07-09T13:05:28Z</time>
      </trkpt>
      <trkpt lat="45.90672" lon="0.92837">
        <ele>264.98</ele>
        <time>2021-07-09T13:05:39Z</time>
      </trkpt>
      <trkpt lat="45.90491" lon="0.93304">
        <ele>268.83</ele>
        <time>2021-07-09T13:05:55Z</time>
      </trkpt>
      <trkpt lat="45.9044" lon="0.93568">
        <ele>268.83</ele>
        <time>2021-07-09T13:06:03Z</time>
      </trkpt>
      <trkpt lat="45.90439" lon="0.93854">
        <ele>268.35</ele>
        <time>2021-07-09T13:06:11Z</time>
      </trkpt>
      <trkpt lat="45.90508" lon="0.945">
        <ele>282.28</ele>
        <time>2021-07-09T13:06:29Z</time>
      </trkpt>
      <trkpt lat="45.90568" lon="0.949">
        <ele>288.53</ele>
        <time>2021-07-09T13:06:40Z</time>
      </trkpt>
      <trkpt lat="45.90631" lon="0.95541">
        <ele>293.82</ele>
        <time>2021-07-09T13:06:57Z</time>
      </trkpt>
      <trkpt lat="45.90655" lon="0.96122">
        <ele>286.13</ele>
        <time>2021-07-09T13:07:12Z</time>
      </trkpt>
      <trkpt lat="45.90682" lon="0.96641">
        <ele>281.32</ele>
        <time>2021-07-09T13:07:25Z</time>
      </trkpt>
      <trkpt lat="45.90726" lon="0.97207">
        <ele>276.52</ele>
        <time>2021-07-09T13:07:39Z</time>
      </trkpt>
      <trkpt lat="45.90735" lon="0.97658">
        <ele>272.67</ele>
        <time>2021-07-09T13:07:50Z</time>
      </trkpt>
      <trkpt lat="45.90693" lon="0.98023">
        <ele>273.63</ele>
        <time>2021-07-09T13:07:59Z</time>
      </trkpt>
      <trkpt lat="45.90616" lon="0.98575">
        <ele>279.88</ele>
        <time>2021-07-09T13:08:13Z</time>
      </trkpt>
      <trkpt lat="45.90607" lon="0.98968">
        <ele>280.84</ele>
        <time>2021-07-09T13:08:23Z</time>
      </trkpt>
      <trkpt lat="45.90625" lon="0.99537">
        <ele>284.69</ele>
        <time>2021-07-09T13:08:37Z</time>
      </trkpt>
      <trkpt lat="45.90602" lon="1.00284">
        <ele>283.25</ele>
        <time>2021-07-09T13:08:55Z</time>
      </trkpt>
      <trkpt lat="45.90562" lon="1.00935">
        <ele>279.88</ele>
        <time>2021-07-09T13:09:11Z</time>
      </trkpt>
      <trkpt lat="45.90487" lon="1.01285">
        <ele>283.73</ele>
        <time>2021-07-09T13:09:20Z</time>
      </trkpt>
      <trkpt lat="45.90366" lon="1.01608">
        <ele>286.61</ele>
        <time>2021-07-09T13:09:29Z</time>
      </trkpt>
      <trkpt lat="45.89979" lon="1.02449">
        <ele>307.76</ele>
        <time>2021-07-09T13:09:53Z</time>
      </trkpt>
      <trkpt lat="45.89714" lon="1.03003">
        <ele>306.32</ele>
        <time>2021-07-09T13:10:11Z</time>
      </trkpt>
      <trkpt lat="45.89353" lon="1.03638">
        <ele>298.63</ele>
        <time>2021-07-09T13:10:31Z</time>
      </trkpt>
      <trkpt lat="45.89241" lon="1.03918">
        <ele>296.7</ele>
        <time>2021-07-09T13:10:39Z</time>
      </trkpt>
      <trkpt lat="45.89166" lon="1.04226">
        <ele>294.3</ele>
        <time>2021-07-09T13:10:47Z</time>
      </trkpt>
      <trkpt lat="45.89073" lon="1.0487">
        <ele>288.05</ele>
        <time>2021-07-09T13:11:04Z</time>
      </trkpt>
      <trkpt lat="45.8896" lon="1.05657">
        <ele>285.17</ele>
        <time>2021-07-09T13:11:24Z</time>
      </trkpt>
      <trkpt lat="45.88838" lon="1.06515">
        <ele>303.91</ele>
        <time>2021-07-09T13:11:46Z</time>
      </trkpt>
      <trkpt lat="45.88729" lon="1.07252">
        <ele>309.68</ele>
        <time>2021-07-09T13:12:03Z</time>
      </trkpt>
      <trkpt lat="45.8865" lon="1.07576">
        <ele>311.12</ele>
        <time>2021-07-09T13:12:12Z</time>
      </trkpt>
      <trkpt lat="45.88347" lon="1.08565">
        <ele>308.24</ele>
        <time>2021-07-09T13:12:37Z</time>
      </trkpt>
      <trkpt lat="45.88305" lon="1.08849">
        <ele>305.84</ele>
        <time>2021-07-09T13:12:44Z</time>
      </trkpt>
      <trkpt lat="45.88311" lon="1.09233">
        <ele>304.39</ele>
        <time>2021-07-09T13:12:53Z</time>
      </trkpt>
      <trkpt lat="45.88307" lon="1.09568">
        <ele>312.09</ele>
        <time>2021-07-09T13:13:01Z</time>
      </trkpt>
      <trkpt lat="45.88251" lon="1.09838">
        <ele>317.37</ele>
        <time>2021-07-09T13:13:08Z</time>
      </trkpt>
      <trkpt lat="45.88146" lon="1.10086">
        <ele>319.3</ele>
        <time>2021-07-09T13:13:15Z</time>
      </trkpt>
      <trkpt lat="45.88002" lon="1.10288">
        <ele>316.41</ele>
        <time>2021-07-09T13:13:22Z</time>
      </trkpt>
      <trkpt lat="45.87746" lon="1.10625">
        <ele>308.24</ele>
        <time>2021-07-09T13:13:34Z</time>
      </trkpt>
      <trkpt lat="45.87591" lon="1.10959">
        <ele>314.49</ele>
        <time>2021-07-09T13:13:43Z</time>
      </trkpt>
      <trkpt lat="45.87423" lon="1.11338">
        <ele>324.58</ele>
        <time>2021-07-09T13:13:56Z</time>
      </trkpt>
      <trkpt lat="45.87303" lon="1.11559">
        <ele>323.62</ele>
        <time>2021-07-09T13:14:05Z</time>
      </trkpt>
      <trkpt lat="45.87153" lon="1.11736">
        <ele>317.85</ele>
        <time>2021-07-09T13:14:13Z</time>
      </trkpt>
      <trkpt lat="45.86865" lon="1.11968">
        <ele>309.2</ele>
        <time>2021-07-09T13:14:25Z</time>
      </trkpt>
      <trkpt lat="45.86716" lon="1.12127">
        <ele>308.24</ele>
        <time>2021-07-09T13:14:32Z</time>
      </trkpt>
      <trkpt lat="45.86614" lon="1.12335">
        <ele>313.53</ele>
        <time>2021-07-09T13:14:39Z</time>
      </trkpt>
      <trkpt lat="45.86556" lon="1.12574">
        <ele>316.41</ele>
        <time>2021-07-09T13:14:46Z</time>
      </trkpt>
      <trkpt lat="45.86486" lon="1.13176">
        <ele>322.18</ele>
        <time>2021-07-09T13:15:02Z</time>
      </trkpt>
      <trkpt lat="45.86417" lon="1.13469">
        <ele>329.87</ele>
        <time>2021-07-09T13:15:10Z</time>
      </trkpt>
      <trkpt lat="45.86295" lon="1.13727">
        <ele>335.64</ele>
        <time>2021-07-09T13:15:18Z</time>
      </trkpt>
      <trkpt lat="45.86041" lon="1.14117">
        <ele>347.65</ele>
        <time>2021-07-09T13:15:32Z</time>
      </trkpt>
      <trkpt lat="45.85919" lon="1.14408">
        <ele>351.98</ele>
        <time>2021-07-09T13:15:41Z</time>
      </trkpt>
      <trkpt lat="45.85799" lon="1.14834">
        <ele>352.94</ele>
        <time>2021-07-09T13:15:53Z</time>
      </trkpt>
      <trkpt lat="45.85727" lon="1.1509">
        <ele>353.9</ele>
        <time>2021-07-09T13:16:01Z</time>
      </trkpt>
      <trkpt lat="45.85625" lon="1.15331">
        <ele>353.9</ele>
        <time>2021-07-09T13:16:10Z</time>
      </trkpt>
      <trkpt lat="45.85515" lon="1.15484">
        <ele>352.46</ele>
        <time>2021-07-09T13:16:18Z</time>
      </trkpt>
      <trkpt lat="45.85486" lon="1.15524">
        <ele>353.42</ele>
        <time>2021-07-09T13:16:24Z</time>
      </trkpt>
      <trkpt lat="45.85472" lon="1.15545">
        <ele>353.42</ele>
        <time>2021-07-09T13:16:27Z</time>
      </trkpt>
      <trkpt lat="45.85472" lon="1.15545">
        <ele>353.42</ele>
        <time>2021-07-09T13:16:28Z</time>
      </trkpt>
      <trkpt lat="45.85461" lon="1.15551">
        <ele>353.42</ele>
        <time>2021-07-09T13:16:29Z</time>
      </trkpt>
      <trkpt lat="45.85454" lon="1.15553">
        <ele>352.94</ele>
        <time>2021-07-09T13:16:31Z</time>
      </trkpt>
      <trkpt lat="45.85445" lon="1.15561">
        <ele>352.94</ele>
        <time>2021-07-09T13:16:32Z</time>
      </trkpt>
      <trkpt lat="45.85436" lon="1.15579">
        <ele>352.94</ele>
        <time>2021-07-09T13:16:33Z</time>
      </trkpt>
      <trkpt lat="45.85432" lon="1.15588">
        <ele>352.94</ele>
        <time>2021-07-09T13:16:34Z</time>
      </trkpt>
      <trkpt lat="45.85432" lon="1.15588">
        <ele>353.42</ele>
        <time>2021-07-09T13:16:35Z</time>
      </trkpt>
      <trkpt lat="45.8543" lon="1.15599">
        <ele>353.42</ele>
        <time>2021-07-09T13:16:36Z</time>
      </trkpt>
      <trkpt lat="45.85431" lon="1.1561">
        <ele>352.94</ele>
        <time>2021-07-09T13:16:37Z</time>
      </trkpt>
      <trkpt lat="45.85432" lon="1.15622">
        <ele>352.94</ele>
        <time>2021-07-09T13:16:38Z</time>
      </trkpt>
      <trkpt lat="45.85435" lon="1.15633">
        <ele>353.42</ele>
        <time>2021-07-09T13:16:39Z</time>
      </trkpt>
      <trkpt lat="45.85439" lon="1.15643">
        <ele>352.94</ele>
        <time>2021-07-09T13:16:40Z</time>
      </trkpt>
      <trkpt lat="45.85446" lon="1.1565">
        <ele>353.42</ele>
        <time>2021-07-09T13:16:41Z</time>
      </trkpt>
      <trkpt lat="45.85454" lon="1.15653">
        <ele>353.42</ele>
        <time>2021-07-09T13:16:42Z</time>
      </trkpt>
      <trkpt lat="45.85462" lon="1.15657">
        <ele>353.42</ele>
        <time>2021-07-09T13:16:43Z</time>
      </trkpt>
      <trkpt lat="45.8547" lon="1.15659">
        <ele>353.42</ele>
        <time>2021-07-09T13:16:44Z</time>
      </trkpt>
      <trkpt lat="45.85483" lon="1.15659">
        <ele>352.94</ele>
        <time>2021-07-09T13:16:45Z</time>
      </trkpt>
      <trkpt lat="45.85494" lon="1.15665">
        <ele>351.5</ele>
        <time>2021-07-09T13:16:46Z</time>
      </trkpt>
      <trkpt lat="45.855" lon="1.15675">
        <ele>350.54</ele>
        <time>2021-07-09T13:16:47Z</time>
      </trkpt>
      <trkpt lat="45.85507" lon="1.15685">
        <ele>350.06</ele>
        <time>2021-07-09T13:16:48Z</time>
      </trkpt>
      <trkpt lat="45.85516" lon="1.15699">
        <ele>349.58</ele>
        <time>2021-07-09T13:16:49Z</time>
      </trkpt>
      <trkpt lat="45.8564" lon="1.15874">
        <ele>356.79</ele>
        <time>2021-07-09T13:16:59Z</time>
      </trkpt>
      <trkpt lat="45.8579" lon="1.16084">
        <ele>366.88</ele>
        <time>2021-07-09T13:17:11Z</time>
      </trkpt>
      <trkpt lat="45.85954" lon="1.16222">
        <ele>374.57</ele>
        <time>2021-07-09T13:17:21Z</time>
      </trkpt>
      <trkpt lat="45.86238" lon="1.16389">
        <ele>385.15</ele>
        <time>2021-07-09T13:17:35Z</time>
      </trkpt>
      <trkpt lat="45.86533" lon="1.16534">
        <ele>391.87</ele>
        <time>2021-07-09T13:17:51Z</time>
      </trkpt>
      <trkpt lat="45.86729" lon="1.1656">
        <ele>388.99</ele>
        <time>2021-07-09T13:18:01Z</time>
      </trkpt>
      <trkpt lat="45.86919" lon="1.16518">
        <ele>383.7</ele>
        <time>2021-07-09T13:18:12Z</time>
      </trkpt>
      <trkpt lat="45.87206" lon="1.16373">
        <ele>388.03</ele>
        <time>2021-07-09T13:18:29Z</time>
      </trkpt>
      <trkpt lat="45.8744" lon="1.16283">
        <ele>395.24</ele>
        <time>2021-07-09T13:18:42Z</time>
      </trkpt>
      <trkpt lat="45.87592" lon="1.16296">
        <ele>399.08</ele>
        <time>2021-07-09T13:18:50Z</time>
      </trkpt>
      <trkpt lat="45.87745" lon="1.16379">
        <ele>401.49</ele>
        <time>2021-07-09T13:18:59Z</time>
      </trkpt>
      <trkpt lat="45.8788" lon="1.16524">
        <ele>409.66</ele>
        <time>2021-07-09T13:19:08Z</time>
      </trkpt>
      <trkpt lat="45.87972" lon="1.16715">
        <ele>416.87</ele>
        <time>2021-07-09T13:19:17Z</time>
      </trkpt>
      <trkpt lat="45.88017" lon="1.16921">
        <ele>422.64</ele>
        <time>2021-07-09T13:19:26Z</time>
      </trkpt>
      <trkpt lat="45.88024" lon="1.17164">
        <ele>426.48</ele>
        <time>2021-07-09T13:19:35Z</time>
      </trkpt>
      <trkpt lat="45.88013" lon="1.1759">
        <ele>422.64</ele>
        <time>2021-07-09T13:19:50Z</time>
      </trkpt>
      <trkpt lat="45.88045" lon="1.17851">
        <ele>411.58</ele>
        <time>2021-07-09T13:20:01Z</time>
      </trkpt>
      <trkpt lat="45.88113" lon="1.18094">
        <ele>400.05</ele>
        <time>2021-07-09T13:20:11Z</time>
      </trkpt>
      <trkpt lat="45.88245" lon="1.185">
        <ele>397.64</ele>
        <time>2021-07-09T13:20:27Z</time>
      </trkpt>
      <trkpt lat="45.88326" lon="1.18871">
        <ele>401.49</ele>
        <time>2021-07-09T13:20:41Z</time>
      </trkpt>
      <trkpt lat="45.88391" lon="1.19296">
        <ele>407.74</ele>
        <time>2021-07-09T13:20:58Z</time>
      </trkpt>
      <trkpt lat="45.88451" lon="1.19707">
        <ele>403.89</ele>
        <time>2021-07-09T13:21:15Z</time>
      </trkpt>
      <trkpt lat="45.88506" lon="1.20071">
        <ele>398.12</ele>
        <time>2021-07-09T13:21:30Z</time>
      </trkpt>
      <trkpt lat="45.88589" lon="1.20632">
        <ele>387.07</ele>
        <time>2021-07-09T13:21:50Z</time>
      </trkpt>
      <trkpt lat="45.8866" lon="1.20942">
        <ele>380.82</ele>
        <time>2021-07-09T13:22:01Z</time>
      </trkpt>
      <trkpt lat="45.8876" lon="1.21157">
        <ele>384.18</ele>
        <time>2021-07-09T13:22:10Z</time>
      </trkpt>
      <trkpt lat="45.88908" lon="1.21341">
        <ele>387.55</ele>
        <time>2021-07-09T13:22:19Z</time>
      </trkpt>
      <trkpt lat="45.89208" lon="1.21614">
        <ele>392.36</ele>
        <time>2021-07-09T13:22:37Z</time>
      </trkpt>
      <trkpt lat="45.89421" lon="1.21807">
        <ele>397.16</ele>
        <time>2021-07-09T13:22:51Z</time>
      </trkpt>
      <trkpt lat="45.89802" lon="1.22148">
        <ele>400.53</ele>
        <time>2021-07-09T13:23:14Z</time>
      </trkpt>
      <trkpt lat="45.89974" lon="1.22327">
        <ele>393.8</ele>
        <time>2021-07-09T13:23:25Z</time>
      </trkpt>
      <trkpt lat="45.90074" lon="1.22516">
        <ele>391.39</ele>
        <time>2021-07-09T13:23:33Z</time>
      </trkpt>
      <trkpt lat="45.90168" lon="1.22798">
        <ele>387.07</ele>
        <time>2021-07-09T13:23:44Z</time>
      </trkpt>
      <trkpt lat="45.90195" lon="1.2299">
        <ele>388.03</ele>
        <time>2021-07-09T13:23:51Z</time>
      </trkpt>
      <trkpt lat="45.90177" lon="1.23165">
        <ele>387.55</ele>
        <time>2021-07-09T13:23:58Z</time>
      </trkpt>
      <trkpt lat="45.90114" lon="1.23367">
        <ele>385.15</ele>
        <time>2021-07-09T13:24:08Z</time>
      </trkpt>
      <trkpt lat="45.90016" lon="1.23606">
        <ele>379.38</ele>
        <time>2021-07-09T13:24:19Z</time>
      </trkpt>
      <trkpt lat="45.89835" lon="1.24066">
        <ele>373.61</ele>
        <time>2021-07-09T13:24:38Z</time>
      </trkpt>
      <trkpt lat="45.89673" lon="1.24479">
        <ele>368.8</ele>
        <time>2021-07-09T13:24:54Z</time>
      </trkpt>
      <trkpt lat="45.89576" lon="1.2467">
        <ele>369.28</ele>
        <time>2021-07-09T13:25:04Z</time>
      </trkpt>
      <trkpt lat="45.89367" lon="1.24946">
        <ele>363.52</ele>
        <time>2021-07-09T13:25:19Z</time>
      </trkpt>
      <trkpt lat="45.89252" lon="1.25132">
        <ele>359.19</ele>
        <time>2021-07-09T13:25:28Z</time>
      </trkpt>
      <trkpt lat="45.89188" lon="1.25335">
        <ele>357.75</ele>
        <time>2021-07-09T13:25:36Z</time>
      </trkpt>
      <trkpt lat="45.89151" lon="1.25625">
        <ele>357.27</ele>
        <time>2021-07-09T13:25:47Z</time>
      </trkpt>
      <trkpt lat="45.89106" lon="1.26072">
        <ele>354.86</ele>
        <time>2021-07-09T13:26:04Z</time>
      </trkpt>
      <trkpt lat="45.89068" lon="1.26428">
        <ele>352.94</ele>
        <time>2021-07-09T13:26:19Z</time>
      </trkpt>
      <trkpt lat="45.89036" lon="1.2675">
        <ele>351.5</ele>
        <time>2021-07-09T13:26:32Z</time>
      </trkpt>
      <trkpt lat="45.89029" lon="1.27064">
        <ele>348.62</ele>
        <time>2021-07-09T13:26:43Z</time>
      </trkpt>
      <trkpt lat="45.89059" lon="1.27461">
        <ele>346.69</ele>
        <time>2021-07-09T13:26:58Z</time>
      </trkpt>
      <trkpt lat="45.89076" lon="1.27677">
        <ele>346.21</ele>
        <time>2021-07-09T13:27:08Z</time>
      </trkpt>
      <trkpt lat="45.89084" lon="1.2777">
        <ele>344.77</ele>
        <time>2021-07-09T13:27:14Z</time>
      </trkpt>
      <trkpt lat="45.89097" lon="1.27927">
        <ele>338.52</ele>
        <time>2021-07-09T13:27:27Z</time>
      </trkpt>
      <trkpt lat="45.89095" lon="1.28012">
        <ele>337.08</ele>
        <time>2021-07-09T13:27:35Z</time>
      </trkpt>
      <trkpt lat="45.89095" lon="1.2802">
        <ele>336.6</ele>
        <time>2021-07-09T13:27:36Z</time>
      </trkpt>
      <trkpt lat="45.8909" lon="1.28028">
        <ele>336.6</ele>
        <time>2021-07-09T13:27:37Z</time>
      </trkpt>
      <trkpt lat="45.89085" lon="1.28036">
        <ele>336.12</ele>
        <time>2021-07-09T13:27:38Z</time>
      </trkpt>
      <trkpt lat="45.8908" lon="1.28043">
        <ele>336.12</ele>
        <time>2021-07-09T13:27:39Z</time>
      </trkpt>
      <trkpt lat="45.89075" lon="1.28053">
        <ele>335.64</ele>
        <time>2021-07-09T13:27:40Z</time>
      </trkpt>
      <trkpt lat="45.89073" lon="1.28064">
        <ele>335.64</ele>
        <time>2021-07-09T13:27:41Z</time>
      </trkpt>
      <trkpt lat="45.89074" lon="1.28075">
        <ele>335.64</ele>
        <time>2021-07-09T13:27:42Z</time>
      </trkpt>
      <trkpt lat="45.89075" lon="1.28086">
        <ele>335.16</ele>
        <time>2021-07-09T13:27:43Z</time>
      </trkpt>
      <trkpt lat="45.89077" lon="1.28095">
        <ele>335.16</ele>
        <time>2021-07-09T13:27:44Z</time>
      </trkpt>
      <trkpt lat="45.89081" lon="1.28106">
        <ele>334.68</ele>
        <time>2021-07-09T13:27:45Z</time>
      </trkpt>
      <trkpt lat="45.89088" lon="1.28112">
        <ele>334.2</ele>
        <time>2021-07-09T13:27:46Z</time>
      </trkpt>
      <trkpt lat="45.89095" lon="1.28118">
        <ele>333.71</ele>
        <time>2021-07-09T13:27:47Z</time>
      </trkpt>
      <trkpt lat="45.891" lon="1.28132">
        <ele>333.23</ele>
        <time>2021-07-09T13:27:48Z</time>
      </trkpt>
      <trkpt lat="45.89104" lon="1.28145">
        <ele>333.23</ele>
        <time>2021-07-09T13:27:49Z</time>
      </trkpt>
      <trkpt lat="45.89108" lon="1.28157">
        <ele>333.23</ele>
        <time>2021-07-09T13:27:50Z</time>
      </trkpt>
      <trkpt lat="45.89112" lon="1.28171">
        <ele>333.23</ele>
        <time>2021-07-09T13:27:51Z</time>
      </trkpt>
      <trkpt lat="45.8913" lon="1.28346">
        <ele>330.35</ele>
        <time>2021-07-09T13:28:00Z</time>
      </trkpt>
      <trkpt lat="45.89155" lon="1.28682">
        <ele>326.5</ele>
        <time>2021-07-09T13:28:13Z</time>
      </trkpt>
      <trkpt lat="45.892" lon="1.28917">
        <ele>329.39</ele>
        <time>2021-07-09T13:28:22Z</time>
      </trkpt>
      <trkpt lat="45.89273" lon="1.29066">
        <ele>331.79</ele>
        <time>2021-07-09T13:28:29Z</time>
      </trkpt>
      <trkpt lat="45.89302" lon="1.29111">
        <ele>332.75</ele>
        <time>2021-07-09T13:28:34Z</time>
      </trkpt>
      <trkpt lat="45.89312" lon="1.29128">
        <ele>333.23</ele>
        <time>2021-07-09T13:28:43Z</time>
      </trkpt>
      <trkpt lat="45.89321" lon="1.29141">
        <ele>333.23</ele>
        <time>2021-07-09T13:28:50Z</time>
      </trkpt>
      <trkpt lat="45.89323" lon="1.29149">
        <ele>334.2</ele>
        <time>2021-07-09T13:28:52Z</time>
      </trkpt>
      <trkpt lat="45.89325" lon="1.29154">
        <ele>334.68</ele>
        <time>2021-07-09T13:28:53Z</time>
      </trkpt>
      <trkpt lat="45.89327" lon="1.29161">
        <ele>334.68</ele>
        <time>2021-07-09T13:28:54Z</time>
      </trkpt>
      <trkpt lat="45.89329" lon="1.29169">
        <ele>335.16</ele>
        <time>2021-07-09T13:28:55Z</time>
      </trkpt>
      <trkpt lat="45.89334" lon="1.29187">
        <ele>335.16</ele>
        <time>2021-07-09T13:28:56Z</time>
      </trkpt>
      <trkpt lat="45.89334" lon="1.29187">
        <ele>335.64</ele>
        <time>2021-07-09T13:28:57Z</time>
      </trkpt>
      <trkpt lat="45.8934" lon="1.29192">
        <ele>335.64</ele>
        <time>2021-07-09T13:28:58Z</time>
      </trkpt>
      <trkpt lat="45.89345" lon="1.29196">
        <ele>335.64</ele>
        <time>2021-07-09T13:28:59Z</time>
      </trkpt>
      <trkpt lat="45.89348" lon="1.29199">
        <ele>335.64</ele>
        <time>2021-07-09T13:29:00Z</time>
      </trkpt>
      <trkpt lat="45.89348" lon="1.29199">
        <ele>335.16</ele>
        <time>2021-07-09T13:29:01Z</time>
      </trkpt>
      <trkpt lat="45.89367" lon="1.2921">
        <ele>335.16</ele>
        <time>2021-07-09T13:29:02Z</time>
      </trkpt>
      <trkpt lat="45.89368" lon="1.29217">
        <ele>335.16</ele>
        <time>2021-07-09T13:29:03Z</time>
      </trkpt>
      <trkpt lat="45.89371" lon="1.29236">
        <ele>335.16</ele>
        <time>2021-07-09T13:29:04Z</time>
      </trkpt>
      <trkpt lat="45.89371" lon="1.29236">
        <ele>334.68</ele>
        <time>2021-07-09T13:29:05Z</time>
      </trkpt>
      <trkpt lat="45.89373" lon="1.29247">
        <ele>334.68</ele>
        <time>2021-07-09T13:29:06Z</time>
      </trkpt>
      <trkpt lat="45.89385" lon="1.29303">
        <ele>335.16</ele>
        <time>2021-07-09T13:29:11Z</time>
      </trkpt>
      <trkpt lat="45.89388" lon="1.29321">
        <ele>335.16</ele>
        <time>2021-07-09T13:29:12Z</time>
      </trkpt>
      <trkpt lat="45.89388" lon="1.29321">
        <ele>335.16</ele>
        <time>2021-07-09T13:29:13Z</time>
      </trkpt>
      <trkpt lat="45.89383" lon="1.29328">
        <ele>335.64</ele>
        <time>2021-07-09T13:29:14Z</time>
      </trkpt>
      <trkpt lat="45.89378" lon="1.29334">
        <ele>335.64</ele>
        <time>2021-07-09T13:29:15Z</time>
      </trkpt>
      <trkpt lat="45.89373" lon="1.29351">
        <ele>336.12</ele>
        <time>2021-07-09T13:29:16Z</time>
      </trkpt>
      <trkpt lat="45.89373" lon="1.2936">
        <ele>336.12</ele>
        <time>2021-07-09T13:29:17Z</time>
      </trkpt>
      <trkpt lat="45.89373" lon="1.29368">
        <ele>336.12</ele>
        <time>2021-07-09T13:29:18Z</time>
      </trkpt>
      <trkpt lat="45.8938" lon="1.29379">
        <ele>336.12</ele>
        <time>2021-07-09T13:29:19Z</time>
      </trkpt>
      <trkpt lat="45.89386" lon="1.2939">
        <ele>336.12</ele>
        <time>2021-07-09T13:29:20Z</time>
      </trkpt>
      <trkpt lat="45.89396" lon="1.29391">
        <ele>336.12</ele>
        <time>2021-07-09T13:29:21Z</time>
      </trkpt>
      <trkpt lat="45.89403" lon="1.29393">
        <ele>335.64</ele>
        <time>2021-07-09T13:29:22Z</time>
      </trkpt>
      <trkpt lat="45.89403" lon="1.29393">
        <ele>335.16</ele>
        <time>2021-07-09T13:29:23Z</time>
      </trkpt>
      <trkpt lat="45.8941" lon="1.29394">
        <ele>333.71</ele>
        <time>2021-07-09T13:29:24Z</time>
      </trkpt>
      <trkpt lat="45.89415" lon="1.29391">
        <ele>333.23</ele>
        <time>2021-07-09T13:29:25Z</time>
      </trkpt>
      <trkpt lat="45.89419" lon="1.29384">
        <ele>332.75</ele>
        <time>2021-07-09T13:29:26Z</time>
      </trkpt>
      <trkpt lat="45.89423" lon="1.29379">
        <ele>332.27</ele>
        <time>2021-07-09T13:29:27Z</time>
      </trkpt>
      <trkpt lat="45.89424" lon="1.29369">
        <ele>331.79</ele>
        <time>2021-07-09T13:29:28Z</time>
      </trkpt>
      <trkpt lat="45.89426" lon="1.2936">
        <ele>331.79</ele>
        <time>2021-07-09T13:29:29Z</time>
      </trkpt>
      <trkpt lat="45.89427" lon="1.2935">
        <ele>331.79</ele>
        <time>2021-07-09T13:29:30Z</time>
      </trkpt>
      <trkpt lat="45.89424" lon="1.29341">
        <ele>331.79</ele>
        <time>2021-07-09T13:29:31Z</time>
      </trkpt>
      <trkpt lat="45.89421" lon="1.29318">
        <ele>331.31</ele>
        <time>2021-07-09T13:29:32Z</time>
      </trkpt>
      <trkpt lat="45.89421" lon="1.29318">
        <ele>331.31</ele>
        <time>2021-07-09T13:29:33Z</time>
      </trkpt>
      <trkpt lat="45.89424" lon="1.29309">
        <ele>330.83</ele>
        <time>2021-07-09T13:29:34Z</time>
      </trkpt>
      <trkpt lat="45.89429" lon="1.29298">
        <ele>330.35</ele>
        <time>2021-07-09T13:29:35Z</time>
      </trkpt>
      <trkpt lat="45.89436" lon="1.29293">
        <ele>330.35</ele>
        <time>2021-07-09T13:29:36Z</time>
      </trkpt>
      <trkpt lat="45.89445" lon="1.29289">
        <ele>329.87</ele>
        <time>2021-07-09T13:29:37Z</time>
      </trkpt>
      <trkpt lat="45.89455" lon="1.29287">
        <ele>328.91</ele>
        <time>2021-07-09T13:29:38Z</time>
      </trkpt>
      <trkpt lat="45.89559" lon="1.29269">
        <ele>322.66</ele>
        <time>2021-07-09T13:29:45Z</time>
      </trkpt>
      <trkpt lat="45.89779" lon="1.29233">
        <ele>321.7</ele>
        <time>2021-07-09T13:29:56Z</time>
      </trkpt>
      <trkpt lat="45.90082" lon="1.29212">
        <ele>320.26</ele>
        <time>2021-07-09T13:30:09Z</time>
      </trkpt>
      <trkpt lat="45.90392" lon="1.29192">
        <ele>323.62</ele>
        <time>2021-07-09T13:30:22Z</time>
      </trkpt>
      <trkpt lat="45.90806" lon="1.29183">
        <ele>332.75</ele>
        <time>2021-07-09T13:30:38Z</time>
      </trkpt>
      <trkpt lat="45.91087" lon="1.29236">
        <ele>339.48</ele>
        <time>2021-07-09T13:30:49Z</time>
      </trkpt>
      <trkpt lat="45.91439" lon="1.29398">
        <ele>348.13</ele>
        <time>2021-07-09T13:31:03Z</time>
      </trkpt>
      <trkpt lat="45.91733" lon="1.29611">
        <ele>353.9</ele>
        <time>2021-07-09T13:31:15Z</time>
      </trkpt>
      <trkpt lat="45.92254" lon="1.3004">
        <ele>347.65</ele>
        <time>2021-07-09T13:31:37Z</time>
      </trkpt>
      <trkpt lat="45.92569" lon="1.30278">
        <ele>341.41</ele>
        <time>2021-07-09T13:31:50Z</time>
      </trkpt>
      <trkpt lat="45.92782" lon="1.30351">
        <ele>346.69</ele>
        <time>2021-07-09T13:31:57Z</time>
      </trkpt>
      <trkpt lat="45.92965" lon="1.30348">
        <ele>354.38</ele>
        <time>2021-07-09T13:32:05Z</time>
      </trkpt>
      <trkpt lat="45.93246" lon="1.30326">
        <ele>365.92</ele>
        <time>2021-07-09T13:32:16Z</time>
      </trkpt>
      <trkpt lat="45.93447" lon="1.30385">
        <ele>372.17</ele>
        <time>2021-07-09T13:32:24Z</time>
      </trkpt>
      <trkpt lat="45.93678" lon="1.30448">
        <ele>380.82</ele>
        <time>2021-07-09T13:32:33Z</time>
      </trkpt>
      <trkpt lat="45.93911" lon="1.30506">
        <ele>387.55</ele>
        <time>2021-07-09T13:32:42Z</time>
      </trkpt>
      <trkpt lat="45.94105" lon="1.30634">
        <ele>396.2</ele>
        <time>2021-07-09T13:32:50Z</time>
      </trkpt>
      <trkpt lat="45.94289" lon="1.30839">
        <ele>397.16</ele>
        <time>2021-07-09T13:32:59Z</time>
      </trkpt>
      <trkpt lat="45.94569" lon="1.31186">
        <ele>403.89</ele>
        <time>2021-07-09T13:33:13Z</time>
      </trkpt>
      <trkpt lat="45.94781" lon="1.31422">
        <ele>417.83</ele>
        <time>2021-07-09T13:33:24Z</time>
      </trkpt>
      <trkpt lat="45.94952" lon="1.31513">
        <ele>426.96</ele>
        <time>2021-07-09T13:33:32Z</time>
      </trkpt>
      <trkpt lat="45.95224" lon="1.3159">
        <ele>437.06</ele>
        <time>2021-07-09T13:33:44Z</time>
      </trkpt>
      <trkpt lat="45.95432" lon="1.31696">
        <ele>441.38</ele>
        <time>2021-07-09T13:33:53Z</time>
      </trkpt>
      <trkpt lat="45.95685" lon="1.31853">
        <ele>438.98</ele>
        <time>2021-07-09T13:34:04Z</time>
      </trkpt>
      <trkpt lat="45.95885" lon="1.31874">
        <ele>436.1</ele>
        <time>2021-07-09T13:34:11Z</time>
      </trkpt>
      <trkpt lat="45.96114" lon="1.31846">
        <ele>434.17</ele>
        <time>2021-07-09T13:34:21Z</time>
      </trkpt>
      <trkpt lat="45.96351" lon="1.31875">
        <ele>435.61</ele>
        <time>2021-07-09T13:34:30Z</time>
      </trkpt>
      <trkpt lat="45.96664" lon="1.31989">
        <ele>438.5</ele>
        <time>2021-07-09T13:34:42Z</time>
      </trkpt>
      <trkpt lat="45.96925" lon="1.32082">
        <ele>433.69</ele>
        <time>2021-07-09T13:34:52Z</time>
      </trkpt>
      <trkpt lat="45.97245" lon="1.32129">
        <ele>425.52</ele>
        <time>2021-07-09T13:35:04Z</time>
      </trkpt>
      <trkpt lat="45.97451" lon="1.3223">
        <ele>421.19</ele>
        <time>2021-07-09T13:35:12Z</time>
      </trkpt>
      <trkpt lat="45.97762" lon="1.32481">
        <ele>419.75</ele>
        <time>2021-07-09T13:35:25Z</time>
      </trkpt>
      <trkpt lat="45.97961" lon="1.32587">
        <ele>416.87</ele>
        <time>2021-07-09T13:35:33Z</time>
      </trkpt>
      <trkpt lat="45.98171" lon="1.32629">
        <ele>416.39</ele>
        <time>2021-07-09T13:35:41Z</time>
      </trkpt>
      <trkpt lat="45.98381" lon="1.32598">
        <ele>416.87</ele>
        <time>2021-07-09T13:35:49Z</time>
      </trkpt>
      <trkpt lat="45.98711" lon="1.325">
        <ele>415.91</ele>
        <time>2021-07-09T13:36:02Z</time>
      </trkpt>
      <trkpt lat="45.98889" lon="1.32521">
        <ele>416.39</ele>
        <time>2021-07-09T13:36:09Z</time>
      </trkpt>
      <trkpt lat="45.99049" lon="1.3263">
        <ele>424.08</ele>
        <time>2021-07-09T13:36:16Z</time>
      </trkpt>
      <trkpt lat="45.99183" lon="1.3283">
        <ele>427.92</ele>
        <time>2021-07-09T13:36:23Z</time>
      </trkpt>
      <trkpt lat="45.99238" lon="1.3301">
        <ele>434.17</ele>
        <time>2021-07-09T13:36:30Z</time>
      </trkpt>
      <trkpt lat="45.99304" lon="1.33324">
        <ele>436.58</ele>
        <time>2021-07-09T13:36:39Z</time>
      </trkpt>
      <trkpt lat="45.99396" lon="1.33502">
        <ele>433.21</ele>
        <time>2021-07-09T13:36:45Z</time>
      </trkpt>
      <trkpt lat="45.99527" lon="1.33625">
        <ele>432.25</ele>
        <time>2021-07-09T13:36:51Z</time>
      </trkpt>
      <trkpt lat="45.9984" lon="1.33813">
        <ele>432.73</ele>
        <time>2021-07-09T13:37:04Z</time>
      </trkpt>
      <trkpt lat="45.99991" lon="1.33844">
        <ele>435.13</ele>
        <time>2021-07-09T13:37:10Z</time>
      </trkpt>
      <trkpt lat="46.00277" lon="1.33818">
        <ele>439.94</ele>
        <time>2021-07-09T13:37:21Z</time>
      </trkpt>
      <trkpt lat="46.00666" lon="1.33782">
        <ele>435.61</ele>
        <time>2021-07-09T13:37:36Z</time>
      </trkpt>
      <trkpt lat="46.00876" lon="1.33829">
        <ele>427.92</ele>
        <time>2021-07-09T13:37:44Z</time>
      </trkpt>
      <trkpt lat="46.01145" lon="1.33897">
        <ele>421.19</ele>
        <time>2021-07-09T13:37:54Z</time>
      </trkpt>
      <trkpt lat="46.01394" lon="1.33878">
        <ele>418.31</ele>
        <time>2021-07-09T13:38:03Z</time>
      </trkpt>
      <trkpt lat="46.01611" lon="1.33913">
        <ele>419.27</ele>
        <time>2021-07-09T13:38:11Z</time>
      </trkpt>
      <trkpt lat="46.01819" lon="1.34025">
        <ele>421.19</ele>
        <time>2021-07-09T13:38:19Z</time>
      </trkpt>
      <trkpt lat="46.0244" lon="1.34451">
        <ele>435.13</ele>
        <time>2021-07-09T13:38:44Z</time>
      </trkpt>
      <trkpt lat="46.02713" lon="1.34609">
        <ele>430.33</ele>
        <time>2021-07-09T13:38:55Z</time>
      </trkpt>
      <trkpt lat="46.0297" lon="1.34766">
        <ele>414.47</ele>
        <time>2021-07-09T13:39:05Z</time>
      </trkpt>
      <trkpt lat="46.03281" lon="1.3495">
        <ele>402.45</ele>
        <time>2021-07-09T13:39:17Z</time>
      </trkpt>
      <trkpt lat="46.03446" lon="1.34971">
        <ele>397.16</ele>
        <time>2021-07-09T13:39:23Z</time>
      </trkpt>
      <trkpt lat="46.03775" lon="1.34946">
        <ele>387.07</ele>
        <time>2021-07-09T13:39:35Z</time>
      </trkpt>
      <trkpt lat="46.03963" lon="1.34993">
        <ele>385.63</ele>
        <time>2021-07-09T13:39:42Z</time>
      </trkpt>
      <trkpt lat="46.04153" lon="1.35118">
        <ele>391.39</ele>
        <time>2021-07-09T13:39:50Z</time>
      </trkpt>
      <trkpt lat="46.04418" lon="1.35377">
        <ele>407.26</ele>
        <time>2021-07-09T13:40:02Z</time>
      </trkpt>
      <trkpt lat="46.04585" lon="1.35493">
        <ele>417.83</ele>
        <time>2021-07-09T13:40:11Z</time>
      </trkpt>
      <trkpt lat="46.04841" lon="1.35615">
        <ele>434.17</ele>
        <time>2021-07-09T13:40:23Z</time>
      </trkpt>
      <trkpt lat="46.05061" lon="1.35766">
        <ele>448.59</ele>
        <time>2021-07-09T13:40:34Z</time>
      </trkpt>
      <trkpt lat="46.0523" lon="1.35845">
        <ele>459.17</ele>
        <time>2021-07-09T13:40:43Z</time>
      </trkpt>
      <trkpt lat="46.05519" lon="1.35934">
        <ele>474.07</ele>
        <time>2021-07-09T13:40:57Z</time>
      </trkpt>
      <trkpt lat="46.05744" lon="1.3604">
        <ele>477.91</ele>
        <time>2021-07-09T13:41:08Z</time>
      </trkpt>
      <trkpt lat="46.05934" lon="1.36087">
        <ele>472.63</ele>
        <time>2021-07-09T13:41:17Z</time>
      </trkpt>
      <trkpt lat="46.06226" lon="1.36114">
        <ele>458.21</ele>
        <time>2021-07-09T13:41:28Z</time>
      </trkpt>
      <trkpt lat="46.06621" lon="1.36117">
        <ele>428.4</ele>
        <time>2021-07-09T13:41:42Z</time>
      </trkpt>
      <trkpt lat="46.06935" lon="1.36072">
        <ele>405.81</ele>
        <time>2021-07-09T13:41:53Z</time>
      </trkpt>
      <trkpt lat="46.07272" lon="1.35963">
        <ele>390.43</ele>
        <time>2021-07-09T13:42:05Z</time>
      </trkpt>
      <trkpt lat="46.07672" lon="1.35819">
        <ele>407.74</ele>
        <time>2021-07-09T13:42:20Z</time>
      </trkpt>
      <trkpt lat="46.08141" lon="1.35659">
        <ele>429.85</ele>
        <time>2021-07-09T13:42:39Z</time>
      </trkpt>
      <trkpt lat="46.08318" lon="1.35674">
        <ele>428.4</ele>
        <time>2021-07-09T13:42:46Z</time>
      </trkpt>
      <trkpt lat="46.08469" lon="1.35758">
        <ele>426.96</ele>
        <time>2021-07-09T13:42:52Z</time>
      </trkpt>
      <trkpt lat="46.08623" lon="1.35936">
        <ele>416.87</ele>
        <time>2021-07-09T13:42:59Z</time>
      </trkpt>
      <trkpt lat="46.08798" lon="1.36136">
        <ele>406.29</ele>
        <time>2021-07-09T13:43:07Z</time>
      </trkpt>
      <trkpt lat="46.08979" lon="1.3623">
        <ele>393.8</ele>
        <time>2021-07-09T13:43:14Z</time>
      </trkpt>
      <trkpt lat="46.09289" lon="1.36277">
        <ele>378.9</ele>
        <time>2021-07-09T13:43:24Z</time>
      </trkpt>
      <trkpt lat="46.09679" lon="1.36341">
        <ele>360.15</ele>
        <time>2021-07-09T13:43:39Z</time>
      </trkpt>
      <trkpt lat="46.09895" lon="1.36437">
        <ele>351.02</ele>
        <time>2021-07-09T13:43:47Z</time>
      </trkpt>
      <trkpt lat="46.10118" lon="1.36612">
        <ele>342.37</ele>
        <time>2021-07-09T13:43:56Z</time>
      </trkpt>
      <trkpt lat="46.10328" lon="1.36867">
        <ele>334.68</ele>
        <time>2021-07-09T13:44:06Z</time>
      </trkpt>
      <trkpt lat="46.1059" lon="1.37173">
        <ele>326.5</ele>
        <time>2021-07-09T13:44:18Z</time>
      </trkpt>
      <trkpt lat="46.10827" lon="1.37365">
        <ele>315.45</ele>
        <time>2021-07-09T13:44:28Z</time>
      </trkpt>
      <trkpt lat="46.11108" lon="1.37528">
        <ele>300.07</ele>
        <time>2021-07-09T13:44:39Z</time>
      </trkpt>
      <trkpt lat="46.11301" lon="1.37564">
        <ele>286.13</ele>
        <time>2021-07-09T13:44:46Z</time>
      </trkpt>
      <trkpt lat="46.11662" lon="1.37537">
        <ele>285.17</ele>
        <time>2021-07-09T13:44:59Z</time>
      </trkpt>
      <trkpt lat="46.11935" lon="1.37548">
        <ele>290.94</ele>
        <time>2021-07-09T13:45:09Z</time>
      </trkpt>
      <trkpt lat="46.12111" lon="1.37624">
        <ele>301.51</ele>
        <time>2021-07-09T13:45:16Z</time>
      </trkpt>
      <trkpt lat="46.12287" lon="1.37773">
        <ele>311.6</ele>
        <time>2021-07-09T13:45:24Z</time>
      </trkpt>
      <trkpt lat="46.12528" lon="1.38031">
        <ele>322.18</ele>
        <time>2021-07-09T13:45:36Z</time>
      </trkpt>
      <trkpt lat="46.12715" lon="1.38146">
        <ele>328.91</ele>
        <time>2021-07-09T13:45:44Z</time>
      </trkpt>
      <trkpt lat="46.12923" lon="1.38187">
        <ele>330.35</ele>
        <time>2021-07-09T13:45:52Z</time>
      </trkpt>
      <trkpt lat="46.13162" lon="1.38152">
        <ele>339</ele>
        <time>2021-07-09T13:46:01Z</time>
      </trkpt>
      <trkpt lat="46.13532" lon="1.38043">
        <ele>332.75</ele>
        <time>2021-07-09T13:46:15Z</time>
      </trkpt>
      <trkpt lat="46.1373" lon="1.37912">
        <ele>324.58</ele>
        <time>2021-07-09T13:46:23Z</time>
      </trkpt>
      <trkpt lat="46.13953" lon="1.3775">
        <ele>316.89</ele>
        <time>2021-07-09T13:46:32Z</time>
      </trkpt>
      <trkpt lat="46.14147" lon="1.37683">
        <ele>311.12</ele>
        <time>2021-07-09T13:46:39Z</time>
      </trkpt>
      <trkpt lat="46.14376" lon="1.37681">
        <ele>309.68</ele>
        <time>2021-07-09T13:46:47Z</time>
      </trkpt>
      <trkpt lat="46.14768" lon="1.37754">
        <ele>312.57</ele>
        <time>2021-07-09T13:47:01Z</time>
      </trkpt>
      <trkpt lat="46.15158" lon="1.37789">
        <ele>307.76</ele>
        <time>2021-07-09T13:47:14Z</time>
      </trkpt>
      <trkpt lat="46.15372" lon="1.37748">
        <ele>304.39</ele>
        <time>2021-07-09T13:47:23Z</time>
      </trkpt>
      <trkpt lat="46.1574" lon="1.37672">
        <ele>289.97</ele>
        <time>2021-07-09T13:47:36Z</time>
      </trkpt>
      <trkpt lat="46.16061" lon="1.37683">
        <ele>280.84</ele>
        <time>2021-07-09T13:47:47Z</time>
      </trkpt>
      <trkpt lat="46.16455" lon="1.37707">
        <ele>289.49</ele>
        <time>2021-07-09T13:48:01Z</time>
      </trkpt>
      <trkpt lat="46.16876" lon="1.37688">
        <ele>293.34</ele>
        <time>2021-07-09T13:48:16Z</time>
      </trkpt>
      <trkpt lat="46.17219" lon="1.3769">
        <ele>296.7</ele>
        <time>2021-07-09T13:48:28Z</time>
      </trkpt>
      <trkpt lat="46.175" lon="1.37757">
        <ele>301.51</ele>
        <time>2021-07-09T13:48:38Z</time>
      </trkpt>
      <trkpt lat="46.17877" lon="1.37902">
        <ele>312.09</ele>
        <time>2021-07-09T13:48:52Z</time>
      </trkpt>
      <trkpt lat="46.18509" lon="1.38145">
        <ele>329.87</ele>
        <time>2021-07-09T13:49:15Z</time>
      </trkpt>
      <trkpt lat="46.18879" lon="1.3824">
        <ele>338.52</ele>
        <time>2021-07-09T13:49:28Z</time>
      </trkpt>
      <trkpt lat="46.19244" lon="1.38264">
        <ele>347.65</ele>
        <time>2021-07-09T13:49:41Z</time>
      </trkpt>
      <trkpt lat="46.19527" lon="1.3826">
        <ele>355.83</ele>
        <time>2021-07-09T13:49:52Z</time>
      </trkpt>
      <trkpt lat="46.19752" lon="1.38301">
        <ele>359.19</ele>
        <time>2021-07-09T13:50:02Z</time>
      </trkpt>
      <trkpt lat="46.19984" lon="1.38419">
        <ele>351.5</ele>
        <time>2021-07-09T13:50:13Z</time>
      </trkpt>
      <trkpt lat="46.20164" lon="1.38548">
        <ele>360.63</ele>
        <time>2021-07-09T13:50:22Z</time>
      </trkpt>
      <trkpt lat="46.20286" lon="1.38715">
        <ele>362.07</ele>
        <time>2021-07-09T13:50:30Z</time>
      </trkpt>
      <trkpt lat="46.20395" lon="1.38958">
        <ele>364</ele>
        <time>2021-07-09T13:50:39Z</time>
      </trkpt>
      <trkpt lat="46.20566" lon="1.39347">
        <ele>371.21</ele>
        <time>2021-07-09T13:50:52Z</time>
      </trkpt>
      <trkpt lat="46.2078" lon="1.39734">
        <ele>361.59</ele>
        <time>2021-07-09T13:51:05Z</time>
      </trkpt>
      <trkpt lat="46.20944" lon="1.40063">
        <ele>359.19</ele>
        <time>2021-07-09T13:51:15Z</time>
      </trkpt>
      <trkpt lat="46.21275" lon="1.40773">
        <ele>364.96</ele>
        <time>2021-07-09T13:51:36Z</time>
      </trkpt>
      <trkpt lat="46.21473" lon="1.41203">
        <ele>375.05</ele>
        <time>2021-07-09T13:51:49Z</time>
      </trkpt>
      <trkpt lat="46.21582" lon="1.41548">
        <ele>378.42</ele>
        <time>2021-07-09T13:51:59Z</time>
      </trkpt>
      <trkpt lat="46.21701" lon="1.42025">
        <ele>375.53</ele>
        <time>2021-07-09T13:52:12Z</time>
      </trkpt>
      <trkpt lat="46.21744" lon="1.4234">
        <ele>370.73</ele>
        <time>2021-07-09T13:52:20Z</time>
      </trkpt>
      <trkpt lat="46.21746" lon="1.42664">
        <ele>364</ele>
        <time>2021-07-09T13:52:28Z</time>
      </trkpt>
      <trkpt lat="46.21699" lon="1.4303">
        <ele>358.71</ele>
        <time>2021-07-09T13:52:37Z</time>
      </trkpt>
      <trkpt lat="46.21563" lon="1.43874">
        <ele>363.52</ele>
        <time>2021-07-09T13:52:57Z</time>
      </trkpt>
      <trkpt lat="46.21566" lon="1.44119">
        <ele>366.4</ele>
        <time>2021-07-09T13:53:04Z</time>
      </trkpt>
      <trkpt lat="46.21626" lon="1.44435">
        <ele>370.24</ele>
        <time>2021-07-09T13:53:12Z</time>
      </trkpt>
      <trkpt lat="46.2177" lon="1.45022">
        <ele>371.69</ele>
        <time>2021-07-09T13:53:27Z</time>
      </trkpt>
      <trkpt lat="46.21901" lon="1.45301">
        <ele>373.13</ele>
        <time>2021-07-09T13:53:35Z</time>
      </trkpt>
      <trkpt lat="46.22077" lon="1.45529">
        <ele>373.13</ele>
        <time>2021-07-09T13:53:42Z</time>
      </trkpt>
      <trkpt lat="46.22352" lon="1.45825">
        <ele>379.86</ele>
        <time>2021-07-09T13:53:55Z</time>
      </trkpt>
      <trkpt lat="46.22464" lon="1.46043">
        <ele>386.59</ele>
        <time>2021-07-09T13:54:02Z</time>
      </trkpt>
      <trkpt lat="46.22546" lon="1.46341">
        <ele>385.63</ele>
        <time>2021-07-09T13:54:10Z</time>
      </trkpt>
      <trkpt lat="46.22627" lon="1.46859">
        <ele>385.15</ele>
        <time>2021-07-09T13:54:23Z</time>
      </trkpt>
      <trkpt lat="46.22641" lon="1.47226">
        <ele>382.74</ele>
        <time>2021-07-09T13:54:31Z</time>
      </trkpt>
      <trkpt lat="46.22618" lon="1.47578">
        <ele>376.97</ele>
        <time>2021-07-09T13:54:41Z</time>
      </trkpt>
      <trkpt lat="46.22543" lon="1.4784">
        <ele>376.49</ele>
        <time>2021-07-09T13:54:48Z</time>
      </trkpt>
      <trkpt lat="46.22325" lon="1.48512">
        <ele>384.66</ele>
        <time>2021-07-09T13:55:06Z</time>
      </trkpt>
      <trkpt lat="46.22287" lon="1.48841">
        <ele>385.63</ele>
        <time>2021-07-09T13:55:13Z</time>
      </trkpt>
      <trkpt lat="46.22303" lon="1.49135">
        <ele>387.07</ele>
        <time>2021-07-09T13:55:21Z</time>
      </trkpt>
      <trkpt lat="46.22374" lon="1.49454">
        <ele>384.18</ele>
        <time>2021-07-09T13:55:29Z</time>
      </trkpt>
      <trkpt lat="46.22524" lon="1.49819">
        <ele>374.57</ele>
        <time>2021-07-09T13:55:39Z</time>
      </trkpt>
      <trkpt lat="46.22824" lon="1.50513">
        <ele>376.97</ele>
        <time>2021-07-09T13:55:58Z</time>
      </trkpt>
      <trkpt lat="46.23024" lon="1.50827">
        <ele>380.82</ele>
        <time>2021-07-09T13:56:07Z</time>
      </trkpt>
      <trkpt lat="46.23295" lon="1.51214">
        <ele>392.36</ele>
        <time>2021-07-09T13:56:21Z</time>
      </trkpt>
      <trkpt lat="46.23511" lon="1.51507">
        <ele>396.68</ele>
        <time>2021-07-09T13:56:31Z</time>
      </trkpt>
      <trkpt lat="46.23665" lon="1.51819">
        <ele>399.57</ele>
        <time>2021-07-09T13:56:40Z</time>
      </trkpt>
      <trkpt lat="46.23775" lon="1.52167">
        <ele>405.81</ele>
        <time>2021-07-09T13:56:49Z</time>
      </trkpt>
      <trkpt lat="46.23854" lon="1.52576">
        <ele>409.18</ele>
        <time>2021-07-09T13:56:59Z</time>
      </trkpt>
      <trkpt lat="46.23858" lon="1.52916">
        <ele>413.5</ele>
        <time>2021-07-09T13:57:07Z</time>
      </trkpt>
      <trkpt lat="46.23805" lon="1.53241">
        <ele>419.27</ele>
        <time>2021-07-09T13:57:15Z</time>
      </trkpt>
      <trkpt lat="46.23682" lon="1.53756">
        <ele>422.16</ele>
        <time>2021-07-09T13:57:28Z</time>
      </trkpt>
      <trkpt lat="46.23533" lon="1.54066">
        <ele>432.73</ele>
        <time>2021-07-09T13:57:37Z</time>
      </trkpt>
      <trkpt lat="46.23416" lon="1.54358">
        <ele>433.21</ele>
        <time>2021-07-09T13:57:45Z</time>
      </trkpt>
      <trkpt lat="46.23279" lon="1.547">
        <ele>431.77</ele>
        <time>2021-07-09T13:57:54Z</time>
      </trkpt>
      <trkpt lat="46.2313" lon="1.54914">
        <ele>431.29</ele>
        <time>2021-07-09T13:58:01Z</time>
      </trkpt>
      <trkpt lat="46.22923" lon="1.55084">
        <ele>434.17</ele>
        <time>2021-07-09T13:58:09Z</time>
      </trkpt>
      <trkpt lat="46.22754" lon="1.55248">
        <ele>435.61</ele>
        <time>2021-07-09T13:58:16Z</time>
      </trkpt>
      <trkpt lat="46.22636" lon="1.55444">
        <ele>431.29</ele>
        <time>2021-07-09T13:58:22Z</time>
      </trkpt>
      <trkpt lat="46.22546" lon="1.55722">
        <ele>428.89</ele>
        <time>2021-07-09T13:58:28Z</time>
      </trkpt>
      <trkpt lat="46.22437" lon="1.56284">
        <ele>423.12</ele>
        <time>2021-07-09T13:58:42Z</time>
      </trkpt>
      <trkpt lat="46.22309" lon="1.5703">
        <ele>415.43</ele>
        <time>2021-07-09T13:58:59Z</time>
      </trkpt>
      <trkpt lat="46.22293" lon="1.57533">
        <ele>409.66</ele>
        <time>2021-07-09T13:59:09Z</time>
      </trkpt>
      <trkpt lat="46.22271" lon="1.57941">
        <ele>406.29</ele>
        <time>2021-07-09T13:59:19Z</time>
      </trkpt>
      <trkpt lat="46.22203" lon="1.5837">
        <ele>414.95</ele>
        <time>2021-07-09T13:59:29Z</time>
      </trkpt>
      <trkpt lat="46.22117" lon="1.58838">
        <ele>416.39</ele>
        <time>2021-07-09T13:59:40Z</time>
      </trkpt>
      <trkpt lat="46.22086" lon="1.59322">
        <ele>411.1</ele>
        <time>2021-07-09T13:59:51Z</time>
      </trkpt>
      <trkpt lat="46.2211" lon="1.59674">
        <ele>405.33</ele>
        <time>2021-07-09T13:59:59Z</time>
      </trkpt>
      <trkpt lat="46.22205" lon="1.6045">
        <ele>409.66</ele>
        <time>2021-07-09T14:00:17Z</time>
      </trkpt>
      <trkpt lat="46.22245" lon="1.60906">
        <ele>418.31</ele>
        <time>2021-07-09T14:00:28Z</time>
      </trkpt>
      <trkpt lat="46.22216" lon="1.61193">
        <ele>426.96</ele>
        <time>2021-07-09T14:00:35Z</time>
      </trkpt>
      <trkpt lat="46.22131" lon="1.61544">
        <ele>433.21</ele>
        <time>2021-07-09T14:00:44Z</time>
      </trkpt>
      <trkpt lat="46.21907" lon="1.6234">
        <ele>426.96</ele>
        <time>2021-07-09T14:01:04Z</time>
      </trkpt>
      <trkpt lat="46.21666" lon="1.63065">
        <ele>404.37</ele>
        <time>2021-07-09T14:01:21Z</time>
      </trkpt>
      <trkpt lat="46.21462" lon="1.63684">
        <ele>401.49</ele>
        <time>2021-07-09T14:01:37Z</time>
      </trkpt>
      <trkpt lat="46.21412" lon="1.6392">
        <ele>401.97</ele>
        <time>2021-07-09T14:01:44Z</time>
      </trkpt>
      <trkpt lat="46.21409" lon="1.64171">
        <ele>401.49</ele>
        <time>2021-07-09T14:01:50Z</time>
      </trkpt>
      <trkpt lat="46.21463" lon="1.64457">
        <ele>401.97</ele>
        <time>2021-07-09T14:01:57Z</time>
      </trkpt>
      <trkpt lat="46.21668" lon="1.65306">
        <ele>397.16</ele>
        <time>2021-07-09T14:02:18Z</time>
      </trkpt>
      <trkpt lat="46.21771" lon="1.65602">
        <ele>407.74</ele>
        <time>2021-07-09T14:02:25Z</time>
      </trkpt>
      <trkpt lat="46.2189" lon="1.65777">
        <ele>417.35</ele>
        <time>2021-07-09T14:02:32Z</time>
      </trkpt>
      <trkpt lat="46.22032" lon="1.66013">
        <ele>429.85</ele>
        <time>2021-07-09T14:02:40Z</time>
      </trkpt>
      <trkpt lat="46.22099" lon="1.66264">
        <ele>432.73</ele>
        <time>2021-07-09T14:02:47Z</time>
      </trkpt>
      <trkpt lat="46.22202" lon="1.66804">
        <ele>436.58</ele>
        <time>2021-07-09T14:03:00Z</time>
      </trkpt>
      <trkpt lat="46.22251" lon="1.67323">
        <ele>434.17</ele>
        <time>2021-07-09T14:03:14Z</time>
      </trkpt>
      <trkpt lat="46.2222" lon="1.67821">
        <ele>431.77</ele>
        <time>2021-07-09T14:03:26Z</time>
      </trkpt>
      <trkpt lat="46.22162" lon="1.68486">
        <ele>443.31</ele>
        <time>2021-07-09T14:03:42Z</time>
      </trkpt>
      <trkpt lat="46.22111" lon="1.68928">
        <ele>456.28</ele>
        <time>2021-07-09T14:03:53Z</time>
      </trkpt>
      <trkpt lat="46.22092" lon="1.69249">
        <ele>460.61</ele>
        <time>2021-07-09T14:04:01Z</time>
      </trkpt>
      <trkpt lat="46.22118" lon="1.69627">
        <ele>455.32</ele>
        <time>2021-07-09T14:04:10Z</time>
      </trkpt>
      <trkpt lat="46.22122" lon="1.69866">
        <ele>451</ele>
        <time>2021-07-09T14:04:16Z</time>
      </trkpt>
      <trkpt lat="46.22052" lon="1.70133">
        <ele>447.15</ele>
        <time>2021-07-09T14:04:22Z</time>
      </trkpt>
      <trkpt lat="46.21869" lon="1.70646">
        <ele>438.5</ele>
        <time>2021-07-09T14:04:37Z</time>
      </trkpt>
      <trkpt lat="46.21709" lon="1.71109">
        <ele>441.86</ele>
        <time>2021-07-09T14:04:51Z</time>
      </trkpt>
      <trkpt lat="46.21677" lon="1.71352">
        <ele>451</ele>
        <time>2021-07-09T14:04:58Z</time>
      </trkpt>
      <trkpt lat="46.21688" lon="1.71672">
        <ele>457.24</ele>
        <time>2021-07-09T14:05:06Z</time>
      </trkpt>
      <trkpt lat="46.21662" lon="1.71921">
        <ele>455.32</ele>
        <time>2021-07-09T14:05:13Z</time>
      </trkpt>
      <trkpt lat="46.21586" lon="1.72428">
        <ele>443.31</ele>
        <time>2021-07-09T14:05:28Z</time>
      </trkpt>
      <trkpt lat="46.21552" lon="1.72902">
        <ele>446.19</ele>
        <time>2021-07-09T14:05:40Z</time>
      </trkpt>
      <trkpt lat="46.21513" lon="1.73325">
        <ele>458.69</ele>
        <time>2021-07-09T14:05:51Z</time>
      </trkpt>
      <trkpt lat="46.21426" lon="1.73687">
        <ele>465.42</ele>
        <time>2021-07-09T14:06:01Z</time>
      </trkpt>
      <trkpt lat="46.21254" lon="1.74331">
        <ele>464.93</ele>
        <time>2021-07-09T14:06:17Z</time>
      </trkpt>
      <trkpt lat="46.21167" lon="1.74541">
        <ele>459.65</ele>
        <time>2021-07-09T14:06:24Z</time>
      </trkpt>
      <trkpt lat="46.21043" lon="1.74708">
        <ele>456.76</ele>
        <time>2021-07-09T14:06:30Z</time>
      </trkpt>
      <trkpt lat="46.2082" lon="1.74885">
        <ele>455.32</ele>
        <time>2021-07-09T14:06:38Z</time>
      </trkpt>
      <trkpt lat="46.20657" lon="1.74949">
        <ele>453.88</ele>
        <time>2021-07-09T14:06:44Z</time>
      </trkpt>
      <trkpt lat="46.204" lon="1.74997">
        <ele>451.48</ele>
        <time>2021-07-09T14:06:54Z</time>
      </trkpt>
      <trkpt lat="46.20236" lon="1.75068">
        <ele>456.28</ele>
        <time>2021-07-09T14:07:00Z</time>
      </trkpt>
      <trkpt lat="46.20073" lon="1.7522">
        <ele>459.65</ele>
        <time>2021-07-09T14:07:07Z</time>
      </trkpt>
      <trkpt lat="46.19944" lon="1.7544">
        <ele>457.24</ele>
        <time>2021-07-09T14:07:14Z</time>
      </trkpt>
      <trkpt lat="46.19863" lon="1.757">
        <ele>455.32</ele>
        <time>2021-07-09T14:07:21Z</time>
      </trkpt>
      <trkpt lat="46.19768" lon="1.76275">
        <ele>465.42</ele>
        <time>2021-07-09T14:07:35Z</time>
      </trkpt>
      <trkpt lat="46.19675" lon="1.76842">
        <ele>489.45</ele>
        <time>2021-07-09T14:07:50Z</time>
      </trkpt>
      <trkpt lat="46.19649" lon="1.77132">
        <ele>497.62</ele>
        <time>2021-07-09T14:07:58Z</time>
      </trkpt>
      <trkpt lat="46.1968" lon="1.77394">
        <ele>501.46</ele>
        <time>2021-07-09T14:08:05Z</time>
      </trkpt>
      <trkpt lat="46.19755" lon="1.77686">
        <ele>500.98</ele>
        <time>2021-07-09T14:08:13Z</time>
      </trkpt>
      <trkpt lat="46.19771" lon="1.77968">
        <ele>495.7</ele>
        <time>2021-07-09T14:08:19Z</time>
      </trkpt>
      <trkpt lat="46.19738" lon="1.78216">
        <ele>488.49</ele>
        <time>2021-07-09T14:08:26Z</time>
      </trkpt>
      <trkpt lat="46.1962" lon="1.78831">
        <ele>486.56</ele>
        <time>2021-07-09T14:08:41Z</time>
      </trkpt>
      <trkpt lat="46.19393" lon="1.79709">
        <ele>491.85</ele>
        <time>2021-07-09T14:09:03Z</time>
      </trkpt>
      <trkpt lat="46.19164" lon="1.80575">
        <ele>500.5</ele>
        <time>2021-07-09T14:09:25Z</time>
      </trkpt>
      <trkpt lat="46.19037" lon="1.80993">
        <ele>483.68</ele>
        <time>2021-07-09T14:09:36Z</time>
      </trkpt>
      <trkpt lat="46.18895" lon="1.81299">
        <ele>466.86</ele>
        <time>2021-07-09T14:09:45Z</time>
      </trkpt>
      <trkpt lat="46.18816" lon="1.81525">
        <ele>455.8</ele>
        <time>2021-07-09T14:09:52Z</time>
      </trkpt>
      <trkpt lat="46.1876" lon="1.81866">
        <ele>441.86</ele>
        <time>2021-07-09T14:10:01Z</time>
      </trkpt>
      <trkpt lat="46.18687" lon="1.82168">
        <ele>429.85</ele>
        <time>2021-07-09T14:10:09Z</time>
      </trkpt>
      <trkpt lat="46.18608" lon="1.82516">
        <ele>416.39</ele>
        <time>2021-07-09T14:10:18Z</time>
      </trkpt>
      <trkpt lat="46.18593" lon="1.82842">
        <ele>413.98</ele>
        <time>2021-07-09T14:10:26Z</time>
      </trkpt>
      <trkpt lat="46.18562" lon="1.83291">
        <ele>411.58</ele>
        <time>2021-07-09T14:10:37Z</time>
      </trkpt>
      <trkpt lat="46.18479" lon="1.84268">
        <ele>399.57</ele>
        <time>2021-07-09T14:11:01Z</time>
      </trkpt>
      <trkpt lat="46.18453" lon="1.84814">
        <ele>387.07</ele>
        <time>2021-07-09T14:11:14Z</time>
      </trkpt>
      <trkpt lat="46.18475" lon="1.85378">
        <ele>374.57</ele>
        <time>2021-07-09T14:11:27Z</time>
      </trkpt>
      <trkpt lat="46.18487" lon="1.8587">
        <ele>372.65</ele>
        <time>2021-07-09T14:11:39Z</time>
      </trkpt>
      <trkpt lat="46.1847" lon="1.86306">
        <ele>386.59</ele>
        <time>2021-07-09T14:11:51Z</time>
      </trkpt>
      <trkpt lat="46.18398" lon="1.8687">
        <ele>395.24</ele>
        <time>2021-07-09T14:12:06Z</time>
      </trkpt>
      <trkpt lat="46.18312" lon="1.87392">
        <ele>395.72</ele>
        <time>2021-07-09T14:12:22Z</time>
      </trkpt>
      <trkpt lat="46.18212" lon="1.87976">
        <ele>391.87</ele>
        <time>2021-07-09T14:12:37Z</time>
      </trkpt>
      <trkpt lat="46.18068" lon="1.8859">
        <ele>401.01</ele>
        <time>2021-07-09T14:12:54Z</time>
      </trkpt>
      <trkpt lat="46.17878" lon="1.89365">
        <ele>401.01</ele>
        <time>2021-07-09T14:13:15Z</time>
      </trkpt>
      <trkpt lat="46.17789" lon="1.89747">
        <ele>394.28</ele>
        <time>2021-07-09T14:13:26Z</time>
      </trkpt>
      <trkpt lat="46.17768" lon="1.90013">
        <ele>394.28</ele>
        <time>2021-07-09T14:13:33Z</time>
      </trkpt>
      <trkpt lat="46.17805" lon="1.90279">
        <ele>394.28</ele>
        <time>2021-07-09T14:13:40Z</time>
      </trkpt>
      <trkpt lat="46.17936" lon="1.90921">
        <ele>384.18</ele>
        <time>2021-07-09T14:13:58Z</time>
      </trkpt>
      <trkpt lat="46.18046" lon="1.91376">
        <ele>370.73</ele>
        <time>2021-07-09T14:14:12Z</time>
      </trkpt>
      <trkpt lat="46.18201" lon="1.91784">
        <ele>364.48</ele>
        <time>2021-07-09T14:14:24Z</time>
      </trkpt>
      <trkpt lat="46.18359" lon="1.9216">
        <ele>360.63</ele>
        <time>2021-07-09T14:14:38Z</time>
      </trkpt>
      <trkpt lat="46.18482" lon="1.92468">
        <ele>351.98</ele>
        <time>2021-07-09T14:14:50Z</time>
      </trkpt>
      <trkpt lat="46.18534" lon="1.92598">
        <ele>349.58</ele>
        <time>2021-07-09T14:14:56Z</time>
      </trkpt>
      <trkpt lat="46.18539" lon="1.92612">
        <ele>350.54</ele>
        <time>2021-07-09T14:14:57Z</time>
      </trkpt>
      <trkpt lat="46.18545" lon="1.92626">
        <ele>351.02</ele>
        <time>2021-07-09T14:14:58Z</time>
      </trkpt>
      <trkpt lat="46.18551" lon="1.92641">
        <ele>351.98</ele>
        <time>2021-07-09T14:14:59Z</time>
      </trkpt>
      <trkpt lat="46.18557" lon="1.92655">
        <ele>352.46</ele>
        <time>2021-07-09T14:15:00Z</time>
      </trkpt>
      <trkpt lat="46.18563" lon="1.92671">
        <ele>352.46</ele>
        <time>2021-07-09T14:15:01Z</time>
      </trkpt>
      <trkpt lat="46.18624" lon="1.92826">
        <ele>354.38</ele>
        <time>2021-07-09T14:15:09Z</time>
      </trkpt>
      <trkpt lat="46.18746" lon="1.9313">
        <ele>352.94</ele>
        <time>2021-07-09T14:15:21Z</time>
      </trkpt>
      <trkpt lat="46.1883" lon="1.93404">
        <ele>347.17</ele>
        <time>2021-07-09T14:15:31Z</time>
      </trkpt>
      <trkpt lat="46.18857" lon="1.93704">
        <ele>339</ele>
        <time>2021-07-09T14:15:41Z</time>
      </trkpt>
      <trkpt lat="46.18872" lon="1.94046">
        <ele>328.91</ele>
        <time>2021-07-09T14:15:54Z</time>
      </trkpt>
      <trkpt lat="46.18883" lon="1.94282">
        <ele>326.02</ele>
        <time>2021-07-09T14:16:06Z</time>
      </trkpt>
      <trkpt lat="46.18887" lon="1.94372">
        <ele>326.5</ele>
        <time>2021-07-09T14:16:11Z</time>
      </trkpt>
      <trkpt lat="46.18896" lon="1.9455">
        <ele>334.2</ele>
        <time>2021-07-09T14:16:21Z</time>
      </trkpt>
      <trkpt lat="46.18908" lon="1.94777">
        <ele>342.37</ele>
        <time>2021-07-09T14:16:30Z</time>
      </trkpt>
      <trkpt lat="46.18952" lon="1.95026">
        <ele>351.98</ele>
        <time>2021-07-09T14:16:39Z</time>
      </trkpt>
      <trkpt lat="46.19037" lon="1.95204">
        <ele>360.63</ele>
        <time>2021-07-09T14:16:46Z</time>
      </trkpt>
      <trkpt lat="46.19166" lon="1.95323">
        <ele>369.28</ele>
        <time>2021-07-09T14:16:53Z</time>
      </trkpt>
      <trkpt lat="46.19428" lon="1.95471">
        <ele>384.18</ele>
        <time>2021-07-09T14:17:05Z</time>
      </trkpt>
      <trkpt lat="46.19564" lon="1.95618">
        <ele>392.84</ele>
        <time>2021-07-09T14:17:13Z</time>
      </trkpt>
      <trkpt lat="46.19671" lon="1.95814">
        <ele>400.53</ele>
        <time>2021-07-09T14:17:22Z</time>
      </trkpt>
      <trkpt lat="46.199" lon="1.96365">
        <ele>424.56</ele>
        <time>2021-07-09T14:17:43Z</time>
      </trkpt>
      <trkpt lat="46.19988" lon="1.9676">
        <ele>435.61</ele>
        <time>2021-07-09T14:17:55Z</time>
      </trkpt>
      <trkpt lat="46.20128" lon="1.97472">
        <ele>451</ele>
        <time>2021-07-09T14:18:18Z</time>
      </trkpt>
      <trkpt lat="46.20244" lon="1.97998">
        <ele>458.21</ele>
        <time>2021-07-09T14:18:33Z</time>
      </trkpt>
      <trkpt lat="46.20382" lon="1.98428">
        <ele>458.21</ele>
        <time>2021-07-09T14:18:44Z</time>
      </trkpt>
      <trkpt lat="46.20436" lon="1.98746">
        <ele>459.65</ele>
        <time>2021-07-09T14:18:53Z</time>
      </trkpt>
      <trkpt lat="46.20445" lon="1.9911">
        <ele>464.45</ele>
        <time>2021-07-09T14:19:02Z</time>
      </trkpt>
      <trkpt lat="46.20416" lon="1.99555">
        <ele>471.18</ele>
        <time>2021-07-09T14:19:13Z</time>
      </trkpt>
      <trkpt lat="46.20429" lon="2.00003">
        <ele>477.43</ele>
        <time>2021-07-09T14:19:23Z</time>
      </trkpt>
      <trkpt lat="46.20477" lon="2.00325">
        <ele>481.76</ele>
        <time>2021-07-09T14:19:32Z</time>
      </trkpt>
      <trkpt lat="46.20578" lon="2.00716">
        <ele>484.64</ele>
        <time>2021-07-09T14:19:42Z</time>
      </trkpt>
      <trkpt lat="46.20687" lon="2.01142">
        <ele>491.37</ele>
        <time>2021-07-09T14:19:53Z</time>
      </trkpt>
      <trkpt lat="46.20721" lon="2.01464">
        <ele>495.22</ele>
        <time>2021-07-09T14:20:01Z</time>
      </trkpt>
      <trkpt lat="46.20708" lon="2.0182">
        <ele>502.43</ele>
        <time>2021-07-09T14:20:10Z</time>
      </trkpt>
      <trkpt lat="46.20627" lon="2.02894">
        <ele>523.09</ele>
        <time>2021-07-09T14:20:37Z</time>
      </trkpt>
      <trkpt lat="46.20576" lon="2.03569">
        <ele>519.25</ele>
        <time>2021-07-09T14:20:53Z</time>
      </trkpt>
      <trkpt lat="46.20518" lon="2.0398">
        <ele>516.85</ele>
        <time>2021-07-09T14:21:03Z</time>
      </trkpt>
      <trkpt lat="46.20466" lon="2.04399">
        <ele>511.56</ele>
        <time>2021-07-09T14:21:13Z</time>
      </trkpt>
      <trkpt lat="46.20475" lon="2.04781">
        <ele>506.27</ele>
        <time>2021-07-09T14:21:22Z</time>
      </trkpt>
      <trkpt lat="46.20468" lon="2.05133">
        <ele>501.46</ele>
        <time>2021-07-09T14:21:30Z</time>
      </trkpt>
      <trkpt lat="46.20391" lon="2.06094">
        <ele>486.08</ele>
        <time>2021-07-09T14:21:52Z</time>
      </trkpt>
      <trkpt lat="46.20333" lon="2.06896">
        <ele>479.35</ele>
        <time>2021-07-09T14:22:11Z</time>
      </trkpt>
      <trkpt lat="46.20348" lon="2.07315">
        <ele>474.07</ele>
        <time>2021-07-09T14:22:21Z</time>
      </trkpt>
      <trkpt lat="46.20415" lon="2.07732">
        <ele>469.74</ele>
        <time>2021-07-09T14:22:31Z</time>
      </trkpt>
      <trkpt lat="46.20454" lon="2.08114">
        <ele>463.49</ele>
        <time>2021-07-09T14:22:40Z</time>
      </trkpt>
      <trkpt lat="46.20504" lon="2.08742">
        <ele>449.07</ele>
        <time>2021-07-09T14:22:55Z</time>
      </trkpt>
      <trkpt lat="46.20524" lon="2.09168">
        <ele>442.82</ele>
        <time>2021-07-09T14:23:05Z</time>
      </trkpt>
      <trkpt lat="46.20487" lon="2.09459">
        <ele>438.5</ele>
        <time>2021-07-09T14:23:12Z</time>
      </trkpt>
      <trkpt lat="46.20412" lon="2.09692">
        <ele>437.06</ele>
        <time>2021-07-09T14:23:18Z</time>
      </trkpt>
      <trkpt lat="46.20256" lon="2.10043">
        <ele>433.21</ele>
        <time>2021-07-09T14:23:28Z</time>
      </trkpt>
      <trkpt lat="46.20186" lon="2.10327">
        <ele>423.12</ele>
        <time>2021-07-09T14:23:35Z</time>
      </trkpt>
      <trkpt lat="46.20142" lon="2.10777">
        <ele>410.62</ele>
        <time>2021-07-09T14:23:45Z</time>
      </trkpt>
      <trkpt lat="46.20047" lon="2.11899">
        <ele>390.43</ele>
        <time>2021-07-09T14:24:10Z</time>
      </trkpt>
      <trkpt lat="46.19974" lon="2.12763">
        <ele>400.53</ele>
        <time>2021-07-09T14:24:30Z</time>
      </trkpt>
      <trkpt lat="46.19902" lon="2.13589">
        <ele>392.84</ele>
        <time>2021-07-09T14:24:50Z</time>
      </trkpt>
      <trkpt lat="46.19843" lon="2.14016">
        <ele>390.43</ele>
        <time>2021-07-09T14:25:00Z</time>
      </trkpt>
      <trkpt lat="46.19717" lon="2.14601">
        <ele>387.07</ele>
        <time>2021-07-09T14:25:14Z</time>
      </trkpt>
      <trkpt lat="46.19625" lon="2.1523">
        <ele>387.55</ele>
        <time>2021-07-09T14:25:29Z</time>
      </trkpt>
      <trkpt lat="46.19498" lon="2.16149">
        <ele>394.28</ele>
        <time>2021-07-09T14:25:51Z</time>
      </trkpt>
      <trkpt lat="46.19386" lon="2.1699">
        <ele>412.54</ele>
        <time>2021-07-09T14:26:11Z</time>
      </trkpt>
      <trkpt lat="46.19375" lon="2.17355">
        <ele>421.19</ele>
        <time>2021-07-09T14:26:20Z</time>
      </trkpt>
      <trkpt lat="46.19433" lon="2.17754">
        <ele>425.04</ele>
        <time>2021-07-09T14:26:29Z</time>
      </trkpt>
      <trkpt lat="46.19546" lon="2.18189">
        <ele>417.83</ele>
        <time>2021-07-09T14:26:41Z</time>
      </trkpt>
      <trkpt lat="46.19696" lon="2.18768">
        <ele>396.68</ele>
        <time>2021-07-09T14:26:56Z</time>
      </trkpt>
      <trkpt lat="46.1974" lon="2.19132">
        <ele>391.39</ele>
        <time>2021-07-09T14:27:05Z</time>
      </trkpt>
      <trkpt lat="46.19795" lon="2.20159">
        <ele>386.11</ele>
        <time>2021-07-09T14:27:30Z</time>
      </trkpt>
      <trkpt lat="46.19792" lon="2.20529">
        <ele>383.7</ele>
        <time>2021-07-09T14:27:39Z</time>
      </trkpt>
      <trkpt lat="46.1973" lon="2.20893">
        <ele>382.26</ele>
        <time>2021-07-09T14:27:48Z</time>
      </trkpt>
      <trkpt lat="46.19602" lon="2.21516">
        <ele>378.9</ele>
        <time>2021-07-09T14:28:03Z</time>
      </trkpt>
      <trkpt lat="46.1953" lon="2.21953">
        <ele>377.94</ele>
        <time>2021-07-09T14:28:14Z</time>
      </trkpt>
      <trkpt lat="46.19537" lon="2.22274">
        <ele>376.49</ele>
        <time>2021-07-09T14:28:22Z</time>
      </trkpt>
      <trkpt lat="46.19597" lon="2.22606">
        <ele>376.49</ele>
        <time>2021-07-09T14:28:31Z</time>
      </trkpt>
      <trkpt lat="46.19748" lon="2.23254">
        <ele>375.53</ele>
        <time>2021-07-09T14:28:48Z</time>
      </trkpt>
      <trkpt lat="46.19902" lon="2.24009">
        <ele>370.73</ele>
        <time>2021-07-09T14:29:07Z</time>
      </trkpt>
      <trkpt lat="46.19914" lon="2.24326">
        <ele>372.17</ele>
        <time>2021-07-09T14:29:16Z</time>
      </trkpt>
      <trkpt lat="46.19881" lon="2.2468">
        <ele>376.49</ele>
        <time>2021-07-09T14:29:25Z</time>
      </trkpt>
      <trkpt lat="46.19837" lon="2.25024">
        <ele>377.94</ele>
        <time>2021-07-09T14:29:34Z</time>
      </trkpt>
      <trkpt lat="46.19858" lon="2.25287">
        <ele>378.42</ele>
        <time>2021-07-09T14:29:41Z</time>
      </trkpt>
      <trkpt lat="46.19931" lon="2.25526">
        <ele>379.38</ele>
        <time>2021-07-09T14:29:48Z</time>
      </trkpt>
      <trkpt lat="46.20102" lon="2.2588">
        <ele>376.97</ele>
        <time>2021-07-09T14:29:59Z</time>
      </trkpt>
      <trkpt lat="46.20414" lon="2.26511">
        <ele>372.17</ele>
        <time>2021-07-09T14:30:18Z</time>
      </trkpt>
      <trkpt lat="46.20669" lon="2.27009">
        <ele>375.53</ele>
        <time>2021-07-09T14:30:33Z</time>
      </trkpt>
      <trkpt lat="46.21092" lon="2.27698">
        <ele>371.21</ele>
        <time>2021-07-09T14:30:55Z</time>
      </trkpt>
      <trkpt lat="46.21568" lon="2.285">
        <ele>372.17</ele>
        <time>2021-07-09T14:31:20Z</time>
      </trkpt>
      <trkpt lat="46.21778" lon="2.28973">
        <ele>373.13</ele>
        <time>2021-07-09T14:31:33Z</time>
      </trkpt>
      <trkpt lat="46.22055" lon="2.29623">
        <ele>380.82</ele>
        <time>2021-07-09T14:31:51Z</time>
      </trkpt>
      <trkpt lat="46.22203" lon="2.29881">
        <ele>383.7</ele>
        <time>2021-07-09T14:31:59Z</time>
      </trkpt>
      <trkpt lat="46.2243" lon="2.30153">
        <ele>389.95</ele>
        <time>2021-07-09T14:32:08Z</time>
      </trkpt>
      <trkpt lat="46.2264" lon="2.30437">
        <ele>400.05</ele>
        <time>2021-07-09T14:32:19Z</time>
      </trkpt>
      <trkpt lat="46.22995" lon="2.31004">
        <ele>410.62</ele>
        <time>2021-07-09T14:32:37Z</time>
      </trkpt>
      <trkpt lat="46.23515" lon="2.31846">
        <ele>421.68</ele>
        <time>2021-07-09T14:33:03Z</time>
      </trkpt>
      <trkpt lat="46.23693" lon="2.32222">
        <ele>415.91</ele>
        <time>2021-07-09T14:33:13Z</time>
      </trkpt>
      <trkpt lat="46.23831" lon="2.32623">
        <ele>406.29</ele>
        <time>2021-07-09T14:33:23Z</time>
      </trkpt>
      <trkpt lat="46.24023" lon="2.33247">
        <ele>399.08</ele>
        <time>2021-07-09T14:33:39Z</time>
      </trkpt>
      <trkpt lat="46.24204" lon="2.33683">
        <ele>402.45</ele>
        <time>2021-07-09T14:33:51Z</time>
      </trkpt>
      <trkpt lat="46.24602" lon="2.34572">
        <ele>414.47</ele>
        <time>2021-07-09T14:34:16Z</time>
      </trkpt>
      <trkpt lat="46.24823" lon="2.3501">
        <ele>423.6</ele>
        <time>2021-07-09T14:34:29Z</time>
      </trkpt>
      <trkpt lat="46.25019" lon="2.35256">
        <ele>429.85</ele>
        <time>2021-07-09T14:34:38Z</time>
      </trkpt>
      <trkpt lat="46.25498" lon="2.35787">
        <ele>445.71</ele>
        <time>2021-07-09T14:34:59Z</time>
      </trkpt>
      <trkpt lat="46.26054" lon="2.36401">
        <ele>449.55</ele>
        <time>2021-07-09T14:35:23Z</time>
      </trkpt>
      <trkpt lat="46.2633" lon="2.36743">
        <ele>447.63</ele>
        <time>2021-07-09T14:35:34Z</time>
      </trkpt>
      <trkpt lat="46.26563" lon="2.37118">
        <ele>443.31</ele>
        <time>2021-07-09T14:35:46Z</time>
      </trkpt>
      <trkpt lat="46.26976" lon="2.37805">
        <ele>446.67</ele>
        <time>2021-07-09T14:36:06Z</time>
      </trkpt>
      <trkpt lat="46.27521" lon="2.38711">
        <ele>448.11</ele>
        <time>2021-07-09T14:36:32Z</time>
      </trkpt>
      <trkpt lat="46.27901" lon="2.39342">
        <ele>457.24</ele>
        <time>2021-07-09T14:36:52Z</time>
      </trkpt>
      <trkpt lat="46.28211" lon="2.39854">
        <ele>450.52</ele>
        <time>2021-07-09T14:37:07Z</time>
      </trkpt>
      <trkpt lat="46.28617" lon="2.40529">
        <ele>463.01</ele>
        <time>2021-07-09T14:37:27Z</time>
      </trkpt>
      <trkpt lat="46.2885" lon="2.40949">
        <ele>464.93</ele>
        <time>2021-07-09T14:37:39Z</time>
      </trkpt>
      <trkpt lat="46.29006" lon="2.41346">
        <ele>468.3</ele>
        <time>2021-07-09T14:37:49Z</time>
      </trkpt>
      <trkpt lat="46.29354" lon="2.42311">
        <ele>475.03</ele>
        <time>2021-07-09T14:38:13Z</time>
      </trkpt>
      <trkpt lat="46.29697" lon="2.43223">
        <ele>485.12</ele>
        <time>2021-07-09T14:38:36Z</time>
      </trkpt>
      <trkpt lat="46.29891" lon="2.43574">
        <ele>481.28</ele>
        <time>2021-07-09T14:38:46Z</time>
      </trkpt>
      <trkpt lat="46.30181" lon="2.43984">
        <ele>466.86</ele>
        <time>2021-07-09T14:38:59Z</time>
      </trkpt>
      <trkpt lat="46.30378" lon="2.44342">
        <ele>451.96</ele>
        <time>2021-07-09T14:39:09Z</time>
      </trkpt>
      <trkpt lat="46.30515" lon="2.44697">
        <ele>440.42</ele>
        <time>2021-07-09T14:39:18Z</time>
      </trkpt>
      <trkpt lat="46.30676" lon="2.45241">
        <ele>448.11</ele>
        <time>2021-07-09T14:39:31Z</time>
      </trkpt>
      <trkpt lat="46.30942" lon="2.46141">
        <ele>444.27</ele>
        <time>2021-07-09T14:39:53Z</time>
      </trkpt>
      <trkpt lat="46.31139" lon="2.46763">
        <ele>424.56</ele>
        <time>2021-07-09T14:40:08Z</time>
      </trkpt>
      <trkpt lat="46.31373" lon="2.47326">
        <ele>407.74</ele>
        <time>2021-07-09T14:40:22Z</time>
      </trkpt>
      <trkpt lat="46.31505" lon="2.47755">
        <ele>402.93</ele>
        <time>2021-07-09T14:40:32Z</time>
      </trkpt>
      <trkpt lat="46.31584" lon="2.48143">
        <ele>398.6</ele>
        <time>2021-07-09T14:40:41Z</time>
      </trkpt>
      <trkpt lat="46.31632" lon="2.48619">
        <ele>394.76</ele>
        <time>2021-07-09T14:40:52Z</time>
      </trkpt>
      <trkpt lat="46.31683" lon="2.49522">
        <ele>388.99</ele>
        <time>2021-07-09T14:41:12Z</time>
      </trkpt>
      <trkpt lat="46.31731" lon="2.50048">
        <ele>390.43</ele>
        <time>2021-07-09T14:41:24Z</time>
      </trkpt>
      <trkpt lat="46.31837" lon="2.50593">
        <ele>380.82</ele>
        <time>2021-07-09T14:41:37Z</time>
      </trkpt>
      <trkpt lat="46.31977" lon="2.51264">
        <ele>364</ele>
        <time>2021-07-09T14:41:54Z</time>
      </trkpt>
      <trkpt lat="46.32135" lon="2.52038">
        <ele>345.25</ele>
        <time>2021-07-09T14:42:14Z</time>
      </trkpt>
      <trkpt lat="46.32227" lon="2.52362">
        <ele>338.52</ele>
        <time>2021-07-09T14:42:23Z</time>
      </trkpt>
      <trkpt lat="46.32523" lon="2.53199">
        <ele>317.37</ele>
        <time>2021-07-09T14:42:47Z</time>
      </trkpt>
      <trkpt lat="46.32644" lon="2.53412">
        <ele>309.2</ele>
        <time>2021-07-09T14:42:54Z</time>
      </trkpt>
      <trkpt lat="46.32806" lon="2.53571">
        <ele>301.99</ele>
        <time>2021-07-09T14:43:01Z</time>
      </trkpt>
      <trkpt lat="46.32985" lon="2.53667">
        <ele>303.43</ele>
        <time>2021-07-09T14:43:08Z</time>
      </trkpt>
      <trkpt lat="46.33166" lon="2.53692">
        <ele>305.84</ele>
        <time>2021-07-09T14:43:15Z</time>
      </trkpt>
      <trkpt lat="46.33308" lon="2.53692">
        <ele>304.39</ele>
        <time>2021-07-09T14:43:22Z</time>
      </trkpt>
      <trkpt lat="46.33356" lon="2.53693">
        <ele>304.88</ele>
        <time>2021-07-09T14:43:25Z</time>
      </trkpt>
      <trkpt lat="46.33371" lon="2.53697">
        <ele>305.36</ele>
        <time>2021-07-09T14:43:26Z</time>
      </trkpt>
      <trkpt lat="46.33384" lon="2.53704">
        <ele>305.36</ele>
        <time>2021-07-09T14:43:27Z</time>
      </trkpt>
      <trkpt lat="46.33397" lon="2.53712">
        <ele>304.88</ele>
        <time>2021-07-09T14:43:28Z</time>
      </trkpt>
      <trkpt lat="46.33409" lon="2.5372">
        <ele>304.39</ele>
        <time>2021-07-09T14:43:29Z</time>
      </trkpt>
      <trkpt lat="46.33432" lon="2.53743">
        <ele>303.43</ele>
        <time>2021-07-09T14:43:30Z</time>
      </trkpt>
      <trkpt lat="46.33432" lon="2.53743">
        <ele>302.95</ele>
        <time>2021-07-09T14:43:31Z</time>
      </trkpt>
      <trkpt lat="46.33442" lon="2.53757">
        <ele>303.43</ele>
        <time>2021-07-09T14:43:32Z</time>
      </trkpt>
      <trkpt lat="46.33464" lon="2.53788">
        <ele>302.95</ele>
        <time>2021-07-09T14:43:33Z</time>
      </trkpt>
      <trkpt lat="46.33464" lon="2.53788">
        <ele>302.95</ele>
        <time>2021-07-09T14:43:34Z</time>
      </trkpt>
      <trkpt lat="46.33479" lon="2.53826">
        <ele>302.47</ele>
        <time>2021-07-09T14:43:35Z</time>
      </trkpt>
      <trkpt lat="46.33485" lon="2.53847">
        <ele>302.95</ele>
        <time>2021-07-09T14:43:36Z</time>
      </trkpt>
      <trkpt lat="46.33489" lon="2.53867">
        <ele>302.47</ele>
        <time>2021-07-09T14:43:37Z</time>
      </trkpt>
      <trkpt lat="46.33489" lon="2.53867">
        <ele>302.95</ele>
        <time>2021-07-09T14:43:38Z</time>
      </trkpt>
      <trkpt lat="46.33492" lon="2.53887">
        <ele>303.91</ele>
        <time>2021-07-09T14:43:39Z</time>
      </trkpt>
      <trkpt lat="46.33492" lon="2.53908">
        <ele>303.91</ele>
        <time>2021-07-09T14:43:40Z</time>
      </trkpt>
      <trkpt lat="46.33492" lon="2.53928">
        <ele>304.88</ele>
        <time>2021-07-09T14:43:41Z</time>
      </trkpt>
      <trkpt lat="46.33487" lon="2.5404">
        <ele>307.28</ele>
        <time>2021-07-09T14:43:47Z</time>
      </trkpt>
      <trkpt lat="46.33471" lon="2.54093">
        <ele>307.28</ele>
        <time>2021-07-09T14:43:50Z</time>
      </trkpt>
      <trkpt lat="46.33475" lon="2.54119">
        <ele>307.76</ele>
        <time>2021-07-09T14:43:51Z</time>
      </trkpt>
      <trkpt lat="46.33475" lon="2.54119">
        <ele>307.76</ele>
        <time>2021-07-09T14:43:52Z</time>
      </trkpt>
      <trkpt lat="46.33471" lon="2.54131">
        <ele>308.72</ele>
        <time>2021-07-09T14:43:53Z</time>
      </trkpt>
      <trkpt lat="46.33468" lon="2.54143">
        <ele>309.2</ele>
        <time>2021-07-09T14:43:54Z</time>
      </trkpt>
      <trkpt lat="46.33458" lon="2.54184">
        <ele>309.2</ele>
        <time>2021-07-09T14:43:56Z</time>
      </trkpt>
      <trkpt lat="46.33458" lon="2.54184">
        <ele>309.2</ele>
        <time>2021-07-09T14:43:57Z</time>
      </trkpt>
      <trkpt lat="46.33456" lon="2.54194">
        <ele>308.72</ele>
        <time>2021-07-09T14:43:58Z</time>
      </trkpt>
      <trkpt lat="46.3346" lon="2.54212">
        <ele>307.76</ele>
        <time>2021-07-09T14:43:59Z</time>
      </trkpt>
      <trkpt lat="46.33463" lon="2.54229">
        <ele>307.76</ele>
        <time>2021-07-09T14:44:00Z</time>
      </trkpt>
      <trkpt lat="46.33467" lon="2.54244">
        <ele>307.76</ele>
        <time>2021-07-09T14:44:01Z</time>
      </trkpt>
      <trkpt lat="46.33473" lon="2.54259">
        <ele>307.28</ele>
        <time>2021-07-09T14:44:02Z</time>
      </trkpt>
      <trkpt lat="46.33571" lon="2.54498">
        <ele>301.99</ele>
        <time>2021-07-09T14:44:15Z</time>
      </trkpt>
      <trkpt lat="46.33691" lon="2.54825">
        <ele>288.05</ele>
        <time>2021-07-09T14:44:31Z</time>
      </trkpt>
      <trkpt lat="46.33734" lon="2.55063">
        <ele>280.36</ele>
        <time>2021-07-09T14:44:41Z</time>
      </trkpt>
      <trkpt lat="46.33754" lon="2.55412">
        <ele>271.23</ele>
        <time>2021-07-09T14:44:56Z</time>
      </trkpt>
      <trkpt lat="46.33782" lon="2.56067">
        <ele>251.52</ele>
        <time>2021-07-09T14:45:25Z</time>
      </trkpt>
      <trkpt lat="46.33784" lon="2.56194">
        <ele>249.12</ele>
        <time>2021-07-09T14:45:33Z</time>
      </trkpt>
      <trkpt lat="46.33784" lon="2.56203">
        <ele>249.12</ele>
        <time>2021-07-09T14:45:34Z</time>
      </trkpt>
      <trkpt lat="46.33784" lon="2.56211">
        <ele>248.64</ele>
        <time>2021-07-09T14:45:35Z</time>
      </trkpt>
      <trkpt lat="46.33782" lon="2.56219">
        <ele>248.16</ele>
        <time>2021-07-09T14:45:36Z</time>
      </trkpt>
      <trkpt lat="46.33779" lon="2.56223">
        <ele>248.16</ele>
        <time>2021-07-09T14:45:37Z</time>
      </trkpt>
      <trkpt lat="46.33776" lon="2.56228">
        <ele>248.16</ele>
        <time>2021-07-09T14:45:38Z</time>
      </trkpt>
      <trkpt lat="46.33779" lon="2.56237">
        <ele>248.16</ele>
        <time>2021-07-09T14:45:39Z</time>
      </trkpt>
      <trkpt lat="46.3378" lon="2.56241">
        <ele>247.68</ele>
        <time>2021-07-09T14:45:40Z</time>
      </trkpt>
      <trkpt lat="46.3378" lon="2.56241">
        <ele>247.68</ele>
        <time>2021-07-09T14:45:41Z</time>
      </trkpt>
      <trkpt lat="46.33789" lon="2.56258">
        <ele>247.68</ele>
        <time>2021-07-09T14:45:42Z</time>
      </trkpt>
      <trkpt lat="46.3379" lon="2.56268">
        <ele>247.2</ele>
        <time>2021-07-09T14:45:43Z</time>
      </trkpt>
      <trkpt lat="46.33791" lon="2.56291">
        <ele>247.2</ele>
        <time>2021-07-09T14:45:44Z</time>
      </trkpt>
      <trkpt lat="46.33796" lon="2.56443">
        <ele>245.27</ele>
        <time>2021-07-09T14:45:55Z</time>
      </trkpt>
      <trkpt lat="46.33809" lon="2.56763">
        <ele>236.14</ele>
        <time>2021-07-09T14:46:14Z</time>
      </trkpt>
      <trkpt lat="46.33811" lon="2.56822">
        <ele>232.78</ele>
        <time>2021-07-09T14:46:19Z</time>
      </trkpt>
      <trkpt lat="46.33812" lon="2.56832">
        <ele>232.78</ele>
        <time>2021-07-09T14:46:20Z</time>
      </trkpt>
      <trkpt lat="46.33812" lon="2.5684">
        <ele>232.3</ele>
        <time>2021-07-09T14:46:21Z</time>
      </trkpt>
      <trkpt lat="46.33802" lon="2.56853">
        <ele>232.3</ele>
        <time>2021-07-09T14:46:23Z</time>
      </trkpt>
      <trkpt lat="46.338" lon="2.5686">
        <ele>232.3</ele>
        <time>2021-07-09T14:46:24Z</time>
      </trkpt>
      <trkpt lat="46.33802" lon="2.56869">
        <ele>231.81</ele>
        <time>2021-07-09T14:46:25Z</time>
      </trkpt>
      <trkpt lat="46.33804" lon="2.56874">
        <ele>231.33</ele>
        <time>2021-07-09T14:46:26Z</time>
      </trkpt>
      <trkpt lat="46.33809" lon="2.56878">
        <ele>230.85</ele>
        <time>2021-07-09T14:46:27Z</time>
      </trkpt>
      <trkpt lat="46.33814" lon="2.56904">
        <ele>230.37</ele>
        <time>2021-07-09T14:46:28Z</time>
      </trkpt>
      <trkpt lat="46.33814" lon="2.56904">
        <ele>230.37</ele>
        <time>2021-07-09T14:46:29Z</time>
      </trkpt>
      <trkpt lat="46.33816" lon="2.56915">
        <ele>229.89</ele>
        <time>2021-07-09T14:46:30Z</time>
      </trkpt>
      <trkpt lat="46.33823" lon="2.57071">
        <ele>224.12</ele>
        <time>2021-07-09T14:46:40Z</time>
      </trkpt>
      <trkpt lat="46.33834" lon="2.57319">
        <ele>218.36</ele>
        <time>2021-07-09T14:46:54Z</time>
      </trkpt>
      <trkpt lat="46.33836" lon="2.57384">
        <ele>218.84</ele>
        <time>2021-07-09T14:47:01Z</time>
      </trkpt>
      <trkpt lat="46.33836" lon="2.57404">
        <ele>218.84</ele>
        <time>2021-07-09T14:47:06Z</time>
      </trkpt>
      <trkpt lat="46.33837" lon="2.57412">
        <ele>218.36</ele>
        <time>2021-07-09T14:47:07Z</time>
      </trkpt>
      <trkpt lat="46.33837" lon="2.57419">
        <ele>218.36</ele>
        <time>2021-07-09T14:47:08Z</time>
      </trkpt>
      <trkpt lat="46.33837" lon="2.57426">
        <ele>218.36</ele>
        <time>2021-07-09T14:47:09Z</time>
      </trkpt>
      <trkpt lat="46.33818" lon="2.57443">
        <ele>217.88</ele>
        <time>2021-07-09T14:47:10Z</time>
      </trkpt>
      <trkpt lat="46.33818" lon="2.57443">
        <ele>217.4</ele>
        <time>2021-07-09T14:47:11Z</time>
      </trkpt>
      <trkpt lat="46.33812" lon="2.57443">
        <ele>217.4</ele>
        <time>2021-07-09T14:47:12Z</time>
      </trkpt>
      <trkpt lat="46.33805" lon="2.57444">
        <ele>216.91</ele>
        <time>2021-07-09T14:47:13Z</time>
      </trkpt>
      <trkpt lat="46.33725" lon="2.57446">
        <ele>214.03</ele>
        <time>2021-07-09T14:47:26Z</time>
      </trkpt>
      <trkpt lat="46.33702" lon="2.57447">
        <ele>213.55</ele>
        <time>2021-07-09T14:47:40Z</time>
      </trkpt>
      <trkpt lat="46.336" lon="2.57447">
        <ele>215.95</ele>
        <time>2021-07-09T14:47:50Z</time>
      </trkpt>
      <trkpt lat="46.33456" lon="2.57434">
        <ele>218.36</ele>
        <time>2021-07-09T14:48:01Z</time>
      </trkpt>
      <trkpt lat="46.33428" lon="2.57434">
        <ele>218.36</ele>
        <time>2021-07-09T14:48:04Z</time>
      </trkpt>
      <trkpt lat="46.33417" lon="2.57436">
        <ele>219.8</ele>
        <time>2021-07-09T14:48:05Z</time>
      </trkpt>
      <trkpt lat="46.33411" lon="2.57439">
        <ele>220.76</ele>
        <time>2021-07-09T14:48:06Z</time>
      </trkpt>
      <trkpt lat="46.33393" lon="2.57448">
        <ele>220.28</ele>
        <time>2021-07-09T14:48:07Z</time>
      </trkpt>
      <trkpt lat="46.33393" lon="2.57448">
        <ele>220.28</ele>
        <time>2021-07-09T14:48:08Z</time>
      </trkpt>
      <trkpt lat="46.33382" lon="2.57456">
        <ele>219.8</ele>
        <time>2021-07-09T14:48:09Z</time>
      </trkpt>
      <trkpt lat="46.33264" lon="2.57566">
        <ele>229.41</ele>
        <time>2021-07-09T14:48:20Z</time>
      </trkpt>
      <trkpt lat="46.33138" lon="2.57686">
        <ele>235.18</ele>
        <time>2021-07-09T14:48:34Z</time>
      </trkpt>
      <trkpt lat="46.33045" lon="2.57805">
        <ele>238.06</ele>
        <time>2021-07-09T14:48:45Z</time>
      </trkpt>
      <trkpt lat="46.33034" lon="2.57833">
        <ele>238.54</ele>
        <time>2021-07-09T14:48:48Z</time>
      </trkpt>
      <trkpt lat="46.33031" lon="2.5784">
        <ele>238.54</ele>
        <time>2021-07-09T14:48:49Z</time>
      </trkpt>
      <trkpt lat="46.33025" lon="2.57843">
        <ele>238.54</ele>
        <time>2021-07-09T14:48:50Z</time>
      </trkpt>
      <trkpt lat="46.33023" lon="2.57855">
        <ele>238.06</ele>
        <time>2021-07-09T14:48:51Z</time>
      </trkpt>
      <trkpt lat="46.33022" lon="2.57856">
        <ele>238.06</ele>
        <time>2021-07-09T14:48:52Z</time>
      </trkpt>
      <trkpt lat="46.3302" lon="2.57863">
        <ele>237.58</ele>
        <time>2021-07-09T14:48:53Z</time>
      </trkpt>
      <trkpt lat="46.33015" lon="2.57881">
        <ele>237.1</ele>
        <time>2021-07-09T14:48:54Z</time>
      </trkpt>
      <trkpt lat="46.33015" lon="2.57881">
        <ele>236.62</ele>
        <time>2021-07-09T14:48:55Z</time>
      </trkpt>
      <trkpt lat="46.33012" lon="2.57892">
        <ele>236.14</ele>
        <time>2021-07-09T14:48:56Z</time>
      </trkpt>
      <trkpt lat="46.32949" lon="2.58094">
        <ele>232.3</ele>
        <time>2021-07-09T14:49:11Z</time>
      </trkpt>
      <trkpt lat="46.32945" lon="2.58101">
        <ele>231.81</ele>
        <time>2021-07-09T14:49:12Z</time>
      </trkpt>
      <trkpt lat="46.32945" lon="2.58101">
        <ele>231.81</ele>
        <time>2021-07-09T14:49:13Z</time>
      </trkpt>
      <trkpt lat="46.32943" lon="2.58116">
        <ele>231.33</ele>
        <time>2021-07-09T14:49:14Z</time>
      </trkpt>
      <trkpt lat="46.32943" lon="2.58116">
        <ele>231.33</ele>
        <time>2021-07-09T14:49:15Z</time>
      </trkpt>
      <trkpt lat="46.32941" lon="2.58124">
        <ele>230.85</ele>
        <time>2021-07-09T14:49:16Z</time>
      </trkpt>
      <trkpt lat="46.32938" lon="2.58132">
        <ele>230.85</ele>
        <time>2021-07-09T14:49:17Z</time>
      </trkpt>
      <trkpt lat="46.32936" lon="2.58142">
        <ele>230.85</ele>
        <time>2021-07-09T14:49:18Z</time>
      </trkpt>
      <trkpt lat="46.32933" lon="2.58153">
        <ele>230.85</ele>
        <time>2021-07-09T14:49:19Z</time>
      </trkpt>
      <trkpt lat="46.32918" lon="2.58196">
        <ele>230.37</ele>
        <time>2021-07-09T14:49:23Z</time>
      </trkpt>
      <trkpt lat="46.32915" lon="2.58205">
        <ele>230.37</ele>
        <time>2021-07-09T14:49:24Z</time>
      </trkpt>
      <trkpt lat="46.32912" lon="2.58212">
        <ele>230.37</ele>
        <time>2021-07-09T14:49:25Z</time>
      </trkpt>
      <trkpt lat="46.32897" lon="2.58211">
        <ele>230.37</ele>
        <time>2021-07-09T14:49:27Z</time>
      </trkpt>
      <trkpt lat="46.32893" lon="2.58216">
        <ele>230.85</ele>
        <time>2021-07-09T14:49:28Z</time>
      </trkpt>
      <trkpt lat="46.32889" lon="2.58221">
        <ele>231.33</ele>
        <time>2021-07-09T14:49:29Z</time>
      </trkpt>
      <trkpt lat="46.3289" lon="2.58232">
        <ele>231.33</ele>
        <time>2021-07-09T14:49:30Z</time>
      </trkpt>
      <trkpt lat="46.3289" lon="2.58232">
        <ele>231.81</ele>
        <time>2021-07-09T14:49:31Z</time>
      </trkpt>
      <trkpt lat="46.32885" lon="2.58252">
        <ele>231.81</ele>
        <time>2021-07-09T14:49:32Z</time>
      </trkpt>
      <trkpt lat="46.32885" lon="2.58252">
        <ele>232.3</ele>
        <time>2021-07-09T14:49:33Z</time>
      </trkpt>
      <trkpt lat="46.32879" lon="2.58257">
        <ele>232.78</ele>
        <time>2021-07-09T14:49:34Z</time>
      </trkpt>
      <trkpt lat="46.32873" lon="2.58264">
        <ele>233.74</ele>
        <time>2021-07-09T14:49:35Z</time>
      </trkpt>
      <trkpt lat="46.32815" lon="2.58347">
        <ele>239.02</ele>
        <time>2021-07-09T14:49:44Z</time>
      </trkpt>
      <trkpt lat="46.32811" lon="2.58355">
        <ele>239.51</ele>
        <time>2021-07-09T14:49:45Z</time>
      </trkpt>
      <trkpt lat="46.32809" lon="2.58362">
        <ele>239.99</ele>
        <time>2021-07-09T14:49:46Z</time>
      </trkpt>
      <trkpt lat="46.32807" lon="2.58367">
        <ele>239.99</ele>
        <time>2021-07-09T14:49:55Z</time>
      </trkpt>
      <trkpt lat="46.32797" lon="2.58394">
        <ele>241.43</ele>
        <time>2021-07-09T14:50:12Z</time>
      </trkpt>
      <trkpt lat="46.32795" lon="2.58414">
        <ele>241.91</ele>
        <time>2021-07-09T14:50:14Z</time>
      </trkpt>
      <trkpt lat="46.32795" lon="2.58425">
        <ele>242.39</ele>
        <time>2021-07-09T14:50:15Z</time>
      </trkpt>
      <trkpt lat="46.32795" lon="2.58439">
        <ele>243.35</ele>
        <time>2021-07-09T14:50:16Z</time>
      </trkpt>
      <trkpt lat="46.32795" lon="2.58455">
        <ele>243.83</ele>
        <time>2021-07-09T14:50:17Z</time>
      </trkpt>
      <trkpt lat="46.32795" lon="2.58472">
        <ele>244.31</ele>
        <time>2021-07-09T14:50:18Z</time>
      </trkpt>
      <trkpt lat="46.32797" lon="2.58486">
        <ele>244.79</ele>
        <time>2021-07-09T14:50:19Z</time>
      </trkpt>
      <trkpt lat="46.32804" lon="2.58516">
        <ele>245.27</ele>
        <time>2021-07-09T14:50:20Z</time>
      </trkpt>
      <trkpt lat="46.3281" lon="2.58531">
        <ele>245.75</ele>
        <time>2021-07-09T14:50:21Z</time>
      </trkpt>
      <trkpt lat="46.32815" lon="2.58547">
        <ele>246.23</ele>
        <time>2021-07-09T14:50:22Z</time>
      </trkpt>
      <trkpt lat="46.32821" lon="2.58563">
        <ele>247.68</ele>
        <time>2021-07-09T14:50:23Z</time>
      </trkpt>
      <trkpt lat="46.32827" lon="2.58581">
        <ele>249.12</ele>
        <time>2021-07-09T14:50:24Z</time>
      </trkpt>
      <trkpt lat="46.32839" lon="2.58612">
        <ele>251.52</ele>
        <time>2021-07-09T14:50:27Z</time>
      </trkpt>
      <trkpt lat="46.32845" lon="2.58642">
        <ele>252.96</ele>
        <time>2021-07-09T14:50:28Z</time>
      </trkpt>
      <trkpt lat="46.32845" lon="2.58658">
        <ele>253.44</ele>
        <time>2021-07-09T14:50:29Z</time>
      </trkpt>
      <trkpt lat="46.32845" lon="2.58674">
        <ele>253.93</ele>
        <time>2021-07-09T14:50:30Z</time>
      </trkpt>
      <trkpt lat="46.32845" lon="2.58674">
        <ele>254.41</ele>
        <time>2021-07-09T14:50:31Z</time>
      </trkpt>
      <trkpt lat="46.32844" lon="2.58689">
        <ele>254.41</ele>
        <time>2021-07-09T14:50:32Z</time>
      </trkpt>
      <trkpt lat="46.32839" lon="2.58704">
        <ele>255.85</ele>
        <time>2021-07-09T14:50:33Z</time>
      </trkpt>
      <trkpt lat="46.32834" lon="2.5872">
        <ele>256.81</ele>
        <time>2021-07-09T14:50:34Z</time>
      </trkpt>
      <trkpt lat="46.3283" lon="2.58735">
        <ele>258.25</ele>
        <time>2021-07-09T14:50:35Z</time>
      </trkpt>
      <trkpt lat="46.32826" lon="2.5875">
        <ele>258.25</ele>
        <time>2021-07-09T14:50:36Z</time>
      </trkpt>
      <trkpt lat="46.32818" lon="2.58763">
        <ele>259.21</ele>
        <time>2021-07-09T14:50:37Z</time>
      </trkpt>
      <trkpt lat="46.3281" lon="2.58776">
        <ele>260.17</ele>
        <time>2021-07-09T14:50:38Z</time>
      </trkpt>
      <trkpt lat="46.32802" lon="2.58789">
        <ele>261.62</ele>
        <time>2021-07-09T14:50:39Z</time>
      </trkpt>
      <trkpt lat="46.32784" lon="2.58812">
        <ele>263.06</ele>
        <time>2021-07-09T14:50:40Z</time>
      </trkpt>
      <trkpt lat="46.32774" lon="2.58821">
        <ele>263.06</ele>
        <time>2021-07-09T14:50:41Z</time>
      </trkpt>
      <trkpt lat="46.32774" lon="2.58821">
        <ele>263.06</ele>
        <time>2021-07-09T14:50:42Z</time>
      </trkpt>
      <trkpt lat="46.32765" lon="2.58829">
        <ele>263.06</ele>
        <time>2021-07-09T14:50:43Z</time>
      </trkpt>
      <trkpt lat="46.32657" lon="2.58897">
        <ele>264.5</ele>
        <time>2021-07-09T14:50:55Z</time>
      </trkpt>
      <trkpt lat="46.32642" lon="2.58887">
        <ele>264.5</ele>
        <time>2021-07-09T14:50:57Z</time>
      </trkpt>
      <trkpt lat="46.32638" lon="2.5889">
        <ele>264.5</ele>
        <time>2021-07-09T14:50:58Z</time>
      </trkpt>
      <trkpt lat="46.32634" lon="2.58904">
        <ele>264.98</ele>
        <time>2021-07-09T14:50:59Z</time>
      </trkpt>
      <trkpt lat="46.32634" lon="2.58909">
        <ele>264.98</ele>
        <time>2021-07-09T14:51:00Z</time>
      </trkpt>
      <trkpt lat="46.32634" lon="2.58909">
        <ele>264.5</ele>
        <time>2021-07-09T14:51:01Z</time>
      </trkpt>
      <trkpt lat="46.32638" lon="2.58915">
        <ele>264.02</ele>
        <time>2021-07-09T14:51:02Z</time>
      </trkpt>
      <trkpt lat="46.32641" lon="2.58917">
        <ele>263.54</ele>
        <time>2021-07-09T14:51:03Z</time>
      </trkpt>
      <trkpt lat="46.32655" lon="2.58917">
        <ele>263.06</ele>
        <time>2021-07-09T14:51:04Z</time>
      </trkpt>
      <trkpt lat="46.3266" lon="2.58923">
        <ele>262.58</ele>
        <time>2021-07-09T14:51:05Z</time>
      </trkpt>
      <trkpt lat="46.3266" lon="2.58923">
        <ele>262.1</ele>
        <time>2021-07-09T14:51:06Z</time>
      </trkpt>
      <trkpt lat="46.32666" lon="2.58929">
        <ele>262.1</ele>
        <time>2021-07-09T14:51:07Z</time>
      </trkpt>
      <trkpt lat="46.32675" lon="2.58949">
        <ele>261.62</ele>
        <time>2021-07-09T14:51:08Z</time>
      </trkpt>
      <trkpt lat="46.32678" lon="2.58958">
        <ele>261.14</ele>
        <time>2021-07-09T14:51:09Z</time>
      </trkpt>
      <trkpt lat="46.32706" lon="2.59036">
        <ele>254.41</ele>
        <time>2021-07-09T14:51:17Z</time>
      </trkpt>
      <trkpt lat="46.3271" lon="2.59047">
        <ele>253.44</ele>
        <time>2021-07-09T14:51:18Z</time>
      </trkpt>
      <trkpt lat="46.32772" lon="2.59182">
        <ele>235.18</ele>
        <time>2021-07-09T14:51:29Z</time>
      </trkpt>
      <trkpt lat="46.32815" lon="2.59308">
        <ele>225.09</ele>
        <time>2021-07-09T14:51:38Z</time>
      </trkpt>
      <trkpt lat="46.3282" lon="2.59323">
        <ele>223.64</ele>
        <time>2021-07-09T14:51:39Z</time>
      </trkpt>
      <trkpt lat="46.32825" lon="2.59338">
        <ele>222.2</ele>
        <time>2021-07-09T14:51:40Z</time>
      </trkpt>
      <trkpt lat="46.32826" lon="2.59354">
        <ele>220.76</ele>
        <time>2021-07-09T14:51:41Z</time>
      </trkpt>
      <trkpt lat="46.32855" lon="2.59499">
        <ele>210.19</ele>
        <time>2021-07-09T14:51:51Z</time>
      </trkpt>
      <trkpt lat="46.32892" lon="2.59655">
        <ele>206.82</ele>
        <time>2021-07-09T14:52:04Z</time>
      </trkpt>
      <trkpt lat="46.32889" lon="2.59663">
        <ele>206.82</ele>
        <time>2021-07-09T14:52:05Z</time>
      </trkpt>
      <trkpt lat="46.32886" lon="2.5967">
        <ele>206.82</ele>
        <time>2021-07-09T14:52:06Z</time>
      </trkpt>
      <trkpt lat="46.32881" lon="2.59685">
        <ele>206.82</ele>
        <time>2021-07-09T14:52:07Z</time>
      </trkpt>
      <trkpt lat="46.32878" lon="2.59688">
        <ele>206.82</ele>
        <time>2021-07-09T14:52:08Z</time>
      </trkpt>
      <trkpt lat="46.32878" lon="2.59688">
        <ele>206.82</ele>
        <time>2021-07-09T14:52:09Z</time>
      </trkpt>
      <trkpt lat="46.32874" lon="2.59693">
        <ele>206.82</ele>
        <time>2021-07-09T14:52:10Z</time>
      </trkpt>
      <trkpt lat="46.32869" lon="2.59697">
        <ele>206.34</ele>
        <time>2021-07-09T14:52:11Z</time>
      </trkpt>
      <trkpt lat="46.32861" lon="2.59706">
        <ele>206.82</ele>
        <time>2021-07-09T14:52:13Z</time>
      </trkpt>
      <trkpt lat="46.32857" lon="2.59711">
        <ele>206.34</ele>
        <time>2021-07-09T14:52:14Z</time>
      </trkpt>
      <trkpt lat="46.32854" lon="2.59714">
        <ele>205.86</ele>
        <time>2021-07-09T14:52:15Z</time>
      </trkpt>
      <trkpt lat="46.32855" lon="2.59731">
        <ele>205.86</ele>
        <time>2021-07-09T14:52:16Z</time>
      </trkpt>
      <trkpt lat="46.32855" lon="2.59731">
        <ele>205.38</ele>
        <time>2021-07-09T14:52:17Z</time>
      </trkpt>
      <trkpt lat="46.32858" lon="2.59734">
        <ele>204.9</ele>
        <time>2021-07-09T14:52:18Z</time>
      </trkpt>
      <trkpt lat="46.32863" lon="2.59738">
        <ele>204.42</ele>
        <time>2021-07-09T14:52:19Z</time>
      </trkpt>
      <trkpt lat="46.32941" lon="2.59819">
        <ele>203.94</ele>
        <time>2021-07-09T14:52:29Z</time>
      </trkpt>
      <trkpt lat="46.33088" lon="2.5998">
        <ele>205.86</ele>
        <time>2021-07-09T14:52:46Z</time>
      </trkpt>
      <trkpt lat="46.33098" lon="2.5999">
        <ele>206.34</ele>
        <time>2021-07-09T14:52:48Z</time>
      </trkpt>
      <trkpt lat="46.331" lon="2.59995">
        <ele>206.82</ele>
        <time>2021-07-09T14:52:49Z</time>
      </trkpt>
      <trkpt lat="46.33102" lon="2.6">
        <ele>206.82</ele>
        <time>2021-07-09T14:52:50Z</time>
      </trkpt>
      <trkpt lat="46.33103" lon="2.60003">
        <ele>206.34</ele>
        <time>2021-07-09T14:52:51Z</time>
      </trkpt>
      <trkpt lat="46.33105" lon="2.60011">
        <ele>206.34</ele>
        <time>2021-07-09T14:52:52Z</time>
      </trkpt>
      <trkpt lat="46.33102" lon="2.60013">
        <ele>206.34</ele>
        <time>2021-07-09T14:52:53Z</time>
      </trkpt>
      <trkpt lat="46.33069" lon="2.60096">
        <ele>205.86</ele>
        <time>2021-07-09T14:53:01Z</time>
      </trkpt>
      <trkpt lat="46.32992" lon="2.60268">
        <ele>202.98</ele>
        <time>2021-07-09T14:53:10Z</time>
      </trkpt>
      <trkpt lat="46.32931" lon="2.60444">
        <ele>205.86</ele>
        <time>2021-07-09T14:53:21Z</time>
      </trkpt>
      <trkpt lat="46.32915" lon="2.60502">
        <ele>208.74</ele>
        <time>2021-07-09T14:53:27Z</time>
      </trkpt>
      <trkpt lat="46.32908" lon="2.6053">
        <ele>209.7</ele>
        <time>2021-07-09T14:53:47Z</time>
      </trkpt>
      <trkpt lat="46.32882" lon="2.60617">
        <ele>210.67</ele>
        <time>2021-07-09T14:53:56Z</time>
      </trkpt>
      <trkpt lat="46.32846" lon="2.6075">
        <ele>211.63</ele>
        <time>2021-07-09T14:54:08Z</time>
      </trkpt>
      <trkpt lat="46.32835" lon="2.60788">
        <ele>213.55</ele>
        <time>2021-07-09T14:54:15Z</time>
      </trkpt>
      <trkpt lat="46.32827" lon="2.60818">
        <ele>212.59</ele>
        <time>2021-07-09T14:54:39Z</time>
      </trkpt>
      <trkpt lat="46.32822" lon="2.60842">
        <ele>213.55</ele>
        <time>2021-07-09T14:54:42Z</time>
      </trkpt>
      <trkpt lat="46.32821" lon="2.60849">
        <ele>213.55</ele>
        <time>2021-07-09T14:54:43Z</time>
      </trkpt>
      <trkpt lat="46.3282" lon="2.60856">
        <ele>213.07</ele>
        <time>2021-07-09T14:54:44Z</time>
      </trkpt>
      <trkpt lat="46.32808" lon="2.60867">
        <ele>212.59</ele>
        <time>2021-07-09T14:54:45Z</time>
      </trkpt>
      <trkpt lat="46.32802" lon="2.60867">
        <ele>212.59</ele>
        <time>2021-07-09T14:54:46Z</time>
      </trkpt>
      <trkpt lat="46.32796" lon="2.60866">
        <ele>212.11</ele>
        <time>2021-07-09T14:54:47Z</time>
      </trkpt>
      <trkpt lat="46.32781" lon="2.60866">
        <ele>211.63</ele>
        <time>2021-07-09T14:54:48Z</time>
      </trkpt>
      <trkpt lat="46.32781" lon="2.60866">
        <ele>212.59</ele>
        <time>2021-07-09T14:54:49Z</time>
      </trkpt>
    </trkseg>
  </trk>
</gpx>